Wetterdaten: Donnerstag, 07.12.2017
Datum Zeit Temp. A. Feuchte A. Luftdruck Regen Wind Richtung Richtung Taupunkt Windben Empfang
07.12.2017 00:00 6,0 C 84 % 1024,0 hPa 0,0 l/m 7,8 km/h (2 Bft) S 189 3,5 C 12,6 km/h (3 Bft) 100 %
07.12.2017 00:01 6,0 C 84 % 1024,0 hPa 0,0 l/m 5,6 km/h (1 Bft) W 271 3,5 C 18,8 km/h (3 Bft) 100 %
07.12.2017 00:02 6,0 C 84 % 1024,0 hPa 0,0 l/m 3,3 km/h (1 Bft) W 261 3,5 C 9,4 km/h (2 Bft) 100 %
07.12.2017 00:03 5,9 C 84 % 1024,0 hPa 0,0 l/m 2,0 km/h (1 Bft) W-SW 258 3,4 C 6,3 km/h (2 Bft) 100 %
07.12.2017 00:04 5,9 C 84 % 1024,0 hPa 0,0 l/m 0,3 km/h (0 Bft) W 271 3,4 C 3,1 km/h (1 Bft) 100 %
07.12.2017 00:05 5,9 C 84 % 1024,0 hPa 0,0 l/m 1,2 km/h (1 Bft) SW 229 3,4 C 9,4 km/h (2 Bft) 100 %
07.12.2017 00:06 5,9 C 84 % 1023,9 hPa 0,0 l/m 5,3 km/h (1 Bft) S 189 3,4 C 12,6 km/h (3 Bft) 100 %
07.12.2017 00:07 5,9 C 84 % 1024,0 hPa 0,0 l/m 1,7 km/h (1 Bft) NW 313 3,4 C 6,3 km/h (2 Bft) 100 %
07.12.2017 00:08 5,9 C 84 % 1023,9 hPa 0,0 l/m 5,4 km/h (1 Bft) W-SW 252 3,4 C 9,4 km/h (2 Bft) 100 %
07.12.2017 00:09 5,9 C 85 % 1023,9 hPa 0,0 l/m 1,5 km/h (1 Bft) SW 233 3,6 C 6,3 km/h (2 Bft) 100 %
07.12.2017 00:10 5,9 C 85 % 1023,9 hPa 0,0 l/m 2,0 km/h (1 Bft) W 264 3,6 C 6,3 km/h (2 Bft) 100 %
07.12.2017 00:11 5,9 C 85 % 1023,8 hPa 0,0 l/m 1,1 km/h (1 Bft) W-SW 255 3,6 C 6,3 km/h (2 Bft) 100 %
07.12.2017 00:12 5,9 C 85 % 1023,8 hPa 0,0 l/m 0,3 km/h (0 Bft) SW 222 3,6 C 3,1 km/h (1 Bft) 100 %
07.12.2017 00:13 5,8 C 85 % 1023,8 hPa 0,0 l/m 4,0 km/h (1 Bft) SW 231 3,5 C 9,4 km/h (2 Bft) 100 %
07.12.2017 00:14 5,9 C 85 % 1023,8 hPa 0,0 l/m 2,6 km/h (1 Bft) W-SW 251 3,6 C 9,4 km/h (2 Bft) 100 %
07.12.2017 00:15 5,8 C 85 % 1023,7 hPa 0,0 l/m 2,2 km/h (1 Bft) SW 224 3,5 C 12,6 km/h (3 Bft) 100 %
07.12.2017 00:16 5,8 C 85 % 1023,8 hPa 0,0 l/m 3,0 km/h (1 Bft) W-SW 255 3,5 C 12,6 km/h (3 Bft) 100 %
07.12.2017 00:17 5,8 C 85 % 1023,8 hPa 0,0 l/m 3,8 km/h (1 Bft) SW 230 3,5 C 6,3 km/h (2 Bft) 100 %
07.12.2017 00:18 5,8 C 85 % 1023,7 hPa 0,0 l/m 3,8 km/h (1 Bft) W 271 3,5 C 6,3 km/h (2 Bft) 100 %
07.12.2017 00:19 5,8 C 85 % 1023,7 hPa 0,0 l/m 2,3 km/h (1 Bft) SW 217 3,5 C 6,3 km/h (2 Bft) 100 %
07.12.2017 00:20 5,8 C 85 % 1023,7 hPa 0,0 l/m 2,6 km/h (1 Bft) W-NW 282 3,5 C 6,3 km/h (2 Bft) 100 %
07.12.2017 00:21 5,8 C 85 % 1023,7 hPa 0,0 l/m 4,5 km/h (1 Bft) SW 221 3,5 C 9,4 km/h (2 Bft) 100 %
07.12.2017 00:22 5,8 C 85 % 1023,7 hPa 0,0 l/m 3,6 km/h (1 Bft) SW 222 3,5 C 9,4 km/h (2 Bft) 100 %
07.12.2017 00:23 5,8 C 85 % 1023,6 hPa 0,0 l/m 8,3 km/h (2 Bft) SW 224 3,5 C 12,6 km/h (3 Bft) 100 %
07.12.2017 00:24 5,8 C 85 % 1023,6 hPa 0,0 l/m 4,7 km/h (1 Bft) SW 236 3,5 C 12,6 km/h (3 Bft) 100 %
07.12.2017 00:25 5,8 C 85 % 1023,6 hPa 0,0 l/m 4,2 km/h (1 Bft) W 260 3,5 C 12,6 km/h (3 Bft) 100 %
07.12.2017 00:26 5,8 C 85 % 1023,6 hPa 0,0 l/m 3,3 km/h (1 Bft) W 264 3,5 C 6,3 km/h (2 Bft) 100 %
07.12.2017 00:27 5,8 C 85 % 1023,6 hPa 0,0 l/m 0,0 km/h (0 Bft) W-NW 298 3,5 C 0,0 km/h (0 Bft) 100 %
07.12.2017 00:28 5,8 C 85 % 1023,6 hPa 0,0 l/m 3,8 km/h (1 Bft) SW 221 3,5 C 9,4 km/h (2 Bft) 100 %
07.12.2017 00:29 5,8 C 85 % 1023,6 hPa 0,0 l/m 4,3 km/h (1 Bft) SW 227 3,5 C 6,3 km/h (2 Bft) 100 %
07.12.2017 00:30 5,8 C 85 % 1023,6 hPa 0,0 l/m 2,2 km/h (1 Bft) W 276 3,5 C 6,3 km/h (2 Bft) 100 %
07.12.2017 00:31 5,8 C 85 % 1023,6 hPa 0,0 l/m 4,4 km/h (1 Bft) W 269 3,5 C 9,4 km/h (2 Bft) 100 %
07.12.2017 00:32 5,8 C 85 % 1023,5 hPa 0,0 l/m 8,9 km/h (2 Bft) SW 227 3,5 C 18,8 km/h (3 Bft) 100 %
07.12.2017 00:33 5,8 C 85 % 1023,5 hPa 0,0 l/m 7,5 km/h (2 Bft) SW 226 3,5 C 12,6 km/h (3 Bft) 100 %
07.12.2017 00:34 5,8 C 85 % 1023,5 hPa 0,0 l/m 7,1 km/h (2 Bft) W-SW 254 3,5 C 12,6 km/h (3 Bft) 100 %
07.12.2017 00:35 5,8 C 85 % 1023,5 hPa 0,0 l/m 6,0 km/h (2 Bft) S-SW 203 3,5 C 12,6 km/h (3 Bft) 100 %
07.12.2017 00:36 5,8 C 85 % 1023,5 hPa 0,0 l/m 8,6 km/h (2 Bft) W 281 3,5 C 18,8 km/h (3 Bft) 100 %
07.12.2017 00:37 5,8 C 85 % 1023,5 hPa 0,0 l/m 7,0 km/h (2 Bft) SW 224 3,5 C 12,6 km/h (3 Bft) 100 %
07.12.2017 00:38 5,8 C 85 % 1023,5 hPa 0,0 l/m 6,4 km/h (2 Bft) S-SO 160 3,5 C 12,6 km/h (3 Bft) 100 %
07.12.2017 00:39 5,8 C 85 % 1023,4 hPa 0,0 l/m 8,4 km/h (2 Bft) W-SW 239 3,5 C 18,8 km/h (3 Bft) 100 %
07.12.2017 00:40 5,8 C 85 % 1023,4 hPa 0,0 l/m 7,5 km/h (2 Bft) W-NW 301 3,5 C 12,6 km/h (3 Bft) 97 %
07.12.2017 00:41 5,8 C 85 % 1023,4 hPa 0,0 l/m 5,5 km/h (1 Bft) NW 314 3,5 C 12,6 km/h (3 Bft) 100 %
07.12.2017 00:42 5,8 C 85 % 1023,4 hPa 0,0 l/m 2,9 km/h (1 Bft) W-NW 286 3,5 C 6,3 km/h (2 Bft) 100 %
07.12.2017 00:43 5,8 C 85 % 1023,4 hPa 0,0 l/m 7,2 km/h (2 Bft) W 277 3,5 C 15,7 km/h (3 Bft) 97 %
07.12.2017 00:44 5,8 C 85 % 1023,3 hPa 0,0 l/m 12,9 km/h (3 Bft) W-SW 242 3,5 C 25,1 km/h (4 Bft) 100 %
07.12.2017 00:45 5,7 C 85 % 1023,3 hPa 0,0 l/m 5,5 km/h (1 Bft) NW 319 3,4 C 12,6 km/h (3 Bft) 96 %
07.12.2017 00:46 5,8 C 86 % 1023,3 hPa 0,0 l/m 4,9 km/h (1 Bft) S-SW 212 3,6 C 9,4 km/h (2 Bft) 100 %
07.12.2017 00:47 5,7 C 85 % 1023,3 hPa 0,0 l/m 3,4 km/h (1 Bft) SW 230 3,4 C 9,4 km/h (2 Bft) 100 %
07.12.2017 00:48 5,7 C 86 % 1023,3 hPa 0,0 l/m 3,4 km/h (1 Bft) W-SW 257 3,5 C 12,6 km/h (3 Bft) 96 %
07.12.2017 00:49 5,7 C 86 % 1023,3 hPa 0,0 l/m 5,5 km/h (1 Bft) W-SW 240 3,5 C 12,6 km/h (3 Bft) 100 %
07.12.2017 00:50 5,7 C 86 % 1023,3 hPa 0,0 l/m 5,6 km/h (1 Bft) SW 226 3,5 C 12,6 km/h (3 Bft) 100 %
07.12.2017 00:51 5,7 C 86 % 1023,3 hPa 0,0 l/m 3,1 km/h (1 Bft) W-SW 252 3,5 C 9,4 km/h (2 Bft) 96 %
07.12.2017 00:52 5,7 C 86 % 1023,2 hPa 0,0 l/m 4,4 km/h (1 Bft) W 271 3,5 C 9,4 km/h (2 Bft) 100 %
07.12.2017 00:53 5,7 C 86 % 1023,3 hPa 0,0 l/m 9,7 km/h (2 Bft) SW 231 3,5 C 18,8 km/h (3 Bft) 96 %
07.12.2017 00:54 5,7 C 86 % 1023,3 hPa 0,0 l/m 5,4 km/h (1 Bft) N 1 3,5 C 9,4 km/h (2 Bft) 100 %
07.12.2017 00:55 5,7 C 86 % 1023,2 hPa 0,0 l/m 2,8 km/h (1 Bft) W-NW 287 3,5 C 6,3 km/h (2 Bft) 93 %
07.12.2017 00:56 5,7 C 86 % 1023,2 hPa 0,0 l/m 2,4 km/h (1 Bft) W-NW 284 3,5 C 3,1 km/h (1 Bft) 100 %
07.12.2017 00:57 5,7 C 86 % 1023,2 hPa 0,0 l/m 6,6 km/h (2 Bft) W 272 3,5 C 18,8 km/h (3 Bft) 96 %
07.12.2017 00:58 5,7 C 86 % 1023,1 hPa 0,0 l/m 6,4 km/h (2 Bft) W-SW 245 3,5 C 12,6 km/h (3 Bft) 96 %
07.12.2017 00:59 5,7 C 86 % 1023,2 hPa 0,0 l/m 5,5 km/h (1 Bft) SW 218 3,5 C 9,4 km/h (2 Bft) 99 %
07.12.2017 01:00 5,7 C 86 % 1023,2 hPa 0,0 l/m 5,4 km/h (1 Bft) W 264 3,5 C 9,4 km/h (2 Bft) 100 %
07.12.2017 01:01 5,7 C 86 % 1023,2 hPa 0,0 l/m 8,1 km/h (2 Bft) W-NW 285 3,5 C 15,7 km/h (3 Bft) 96 %
07.12.2017 01:02 5,7 C 86 % 1023,2 hPa 0,0 l/m 10,3 km/h (2 Bft) SW 219 3,5 C 18,8 km/h (3 Bft) 96 %
07.12.2017 01:03 5,7 C 86 % 1023,2 hPa 0,0 l/m 9,4 km/h (2 Bft) SW 221 3,5 C 15,7 km/h (3 Bft) 100 %
07.12.2017 01:04 5,7 C 86 % 1023,1 hPa 0,0 l/m 3,7 km/h (1 Bft) S-SW 212 3,5 C 9,4 km/h (2 Bft) 97 %
07.12.2017 01:05 5,7 C 86 % 1023,2 hPa 0,0 l/m 5,5 km/h (1 Bft) SW 230 3,5 C 12,6 km/h (3 Bft) 100 %
07.12.2017 01:06 5,7 C 86 % 1023,1 hPa 0,0 l/m 4,3 km/h (1 Bft) W-SW 237 3,5 C 12,6 km/h (3 Bft) 96 %
07.12.2017 01:07 5,7 C 86 % 1023,1 hPa 0,0 l/m 6,3 km/h (2 Bft) W-SW 248 3,5 C 12,6 km/h (3 Bft) 96 %
07.12.2017 01:08 5,6 C 86 % 1023,1 hPa 0,0 l/m 3,3 km/h (1 Bft) W 278 3,4 C 6,3 km/h (2 Bft) 100 %
07.12.2017 01:09 5,6 C 86 % 1023,0 hPa 0,0 l/m 7,7 km/h (2 Bft) SW 228 3,4 C 15,7 km/h (3 Bft) 96 %
07.12.2017 01:10 5,6 C 86 % 1023,0 hPa 0,0 l/m 7,1 km/h (2 Bft) NO 43 3,4 C 15,7 km/h (3 Bft) 100 %
07.12.2017 01:11 5,6 C 86 % 1023,0 hPa 0,0 l/m 7,8 km/h (2 Bft) S-SO 168 3,4 C 25,1 km/h (4 Bft) 96 %
07.12.2017 01:12 5,6 C 86 % 1023,0 hPa 0,0 l/m 8,7 km/h (2 Bft) W-SW 242 3,4 C 22,0 km/h (4 Bft) 100 %
07.12.2017 01:13 5,6 C 86 % 1023,0 hPa 0,0 l/m 8,5 km/h (2 Bft) W 266 3,4 C 15,7 km/h (3 Bft) 100 %
07.12.2017 01:14 5,6 C 86 % 1023,0 hPa 0,0 l/m 1,2 km/h (1 Bft) NW 307 3,4 C 6,3 km/h (2 Bft) 100 %
07.12.2017 01:15 5,6 C 86 % 1023,0 hPa 0,0 l/m 7,2 km/h (2 Bft) W-SW 249 3,4 C 15,7 km/h (3 Bft) 100 %
07.12.2017 01:16 5,6 C 86 % 1023,0 hPa 0,0 l/m 6,9 km/h (2 Bft) SW 225 3,4 C 12,6 km/h (3 Bft) 100 %
07.12.2017 01:17 5,6 C 86 % 1023,0 hPa 0,0 l/m 5,9 km/h (2 Bft) NW 320 3,4 C 12,6 km/h (3 Bft) 100 %
07.12.2017 01:18 5,6 C 86 % 1022,9 hPa 0,0 l/m 5,8 km/h (2 Bft) W-SW 253 3,4 C 12,6 km/h (3 Bft) 99 %
07.12.2017 01:19 5,6 C 86 % 1023,0 hPa 0,0 l/m 2,7 km/h (1 Bft) S-SW 213 3,4 C 6,3 km/h (2 Bft) 100 %
07.12.2017 01:20 5,6 C 86 % 1022,9 hPa 0,0 l/m 5,8 km/h (2 Bft) W-NW 299 3,4 C 12,6 km/h (3 Bft) 100 %
07.12.2017 01:21 5,6 C 86 % 1022,9 hPa 0,0 l/m 5,2 km/h (1 Bft) W 264 3,4 C 12,6 km/h (3 Bft) 100 %
07.12.2017 01:22 5,6 C 86 % 1022,9 hPa 0,0 l/m 3,7 km/h (1 Bft) W-SW 243 3,4 C 6,3 km/h (2 Bft) 100 %
07.12.2017 01:23 5,6 C 87 % 1022,9 hPa 0,0 l/m 8,0 km/h (2 Bft) W 276 3,6 C 15,7 km/h (3 Bft) 100 %
07.12.2017 01:24 5,6 C 87 % 1022,9 hPa 0,0 l/m 9,1 km/h (2 Bft) S 175 3,6 C 18,8 km/h (3 Bft) 100 %
07.12.2017 01:25 5,6 C 87 % 1022,9 hPa 0,0 l/m 6,3 km/h (2 Bft) W 269 3,6 C 9,4 km/h (2 Bft) 100 %
07.12.2017 01:26 5,6 C 87 % 1022,9 hPa 0,0 l/m 4,1 km/h (1 Bft) SW 233 3,6 C 6,3 km/h (2 Bft) 100 %
07.12.2017 01:27 5,6 C 87 % 1022,9 hPa 0,0 l/m 5,4 km/h (1 Bft) SW 224 3,6 C 9,4 km/h (2 Bft) 100 %
07.12.2017 01:28 5,6 C 87 % 1022,9 hPa 0,0 l/m 6,3 km/h (2 Bft) SW 214 3,6 C 18,8 km/h (3 Bft) 100 %
07.12.2017 01:29 5,6 C 87 % 1022,9 hPa 0,0 l/m 6,4 km/h (2 Bft) W-SW 241 3,6 C 15,7 km/h (3 Bft) 100 %
07.12.2017 01:30 5,6 C 87 % 1022,9 hPa 0,0 l/m 6,5 km/h (2 Bft) S 181 3,6 C 18,8 km/h (3 Bft) 100 %
07.12.2017 01:31 5,6 C 87 % 1022,8 hPa 0,0 l/m 6,6 km/h (2 Bft) W 277 3,6 C 15,7 km/h (3 Bft) 100 %
07.12.2017 01:32 5,6 C 87 % 1022,8 hPa 0,0 l/m 7,5 km/h (2 Bft) NW 313 3,6 C 22,0 km/h (4 Bft) 100 %
07.12.2017 01:33 5,6 C 87 % 1022,8 hPa 0,0 l/m 5,3 km/h (1 Bft) SW 221 3,6 C 6,3 km/h (2 Bft) 100 %
07.12.2017 01:34 5,6 C 87 % 1022,8 hPa 0,0 l/m 7,8 km/h (2 Bft) W-NW 300 3,6 C 18,8 km/h (3 Bft) 100 %
07.12.2017 01:35 5,5 C 87 % 1022,8 hPa 0,0 l/m 4,6 km/h (1 Bft) SW 225 3,5 C 12,6 km/h (3 Bft) 100 %
07.12.2017 01:36 5,5 C 87 % 1022,8 hPa 0,0 l/m 7,7 km/h (2 Bft) SW 216 3,5 C 15,7 km/h (3 Bft) 100 %
07.12.2017 01:37 5,5 C 87 % 1022,7 hPa 0,0 l/m 3,3 km/h (1 Bft) SW 230 3,5 C 12,6 km/h (3 Bft) 100 %
07.12.2017 01:38 5,5 C 87 % 1022,7 hPa 0,0 l/m 7,5 km/h (2 Bft) W 264 3,5 C 12,6 km/h (3 Bft) 100 %
07.12.2017 01:39 5,5 C 87 % 1022,7 hPa 0,0 l/m 4,6 km/h (1 Bft) W-SW 243 3,5 C 12,6 km/h (3 Bft) 100 %
07.12.2017 01:40 5,5 C 87 % 1022,7 hPa 0,0 l/m 5,1 km/h (1 Bft) W-SW 253 3,5 C 9,4 km/h (2 Bft) 100 %
07.12.2017 01:41 5,5 C 87 % 1022,6 hPa 0,0 l/m 4,8 km/h (1 Bft) W 280 3,5 C 15,7 km/h (3 Bft) 100 %
07.12.2017 01:42 5,5 C 87 % 1022,7 hPa 0,0 l/m 8,2 km/h (2 Bft) NW 312 3,5 C 12,6 km/h (3 Bft) 100 %
07.12.2017 01:43 5,5 C 87 % 1022,7 hPa 0,0 l/m 5,4 km/h (1 Bft) S-SO 166 3,5 C 12,6 km/h (3 Bft) 100 %
07.12.2017 01:44 5,5 C 87 % 1022,7 hPa 0,0 l/m 2,9 km/h (1 Bft) S-SW 207 3,5 C 6,3 km/h (2 Bft) 100 %
07.12.2017 01:45 5,5 C 87 % 1022,7 hPa 0,0 l/m 3,1 km/h (1 Bft) S-SW 202 3,5 C 12,6 km/h (3 Bft) 100 %
07.12.2017 01:46 5,5 C 87 % 1022,7 hPa 0,0 l/m 11,1 km/h (2 Bft) NW 304 3,5 C 22,0 km/h (4 Bft) 100 %
07.12.2017 01:47 5,4 C 87 % 1022,6 hPa 0,0 l/m 7,5 km/h (2 Bft) W-SW 254 3,4 C 18,8 km/h (3 Bft) 100 %
07.12.2017 01:48 5,4 C 87 % 1022,6 hPa 0,0 l/m 3,5 km/h (1 Bft) W 281 3,4 C 9,4 km/h (2 Bft) 100 %
07.12.2017 01:49 5,5 C 87 % 1022,6 hPa 0,0 l/m 3,7 km/h (1 Bft) S-SO 163 3,5 C 6,3 km/h (2 Bft) 100 %
07.12.2017 01:50 5,5 C 87 % 1022,6 hPa 0,0 l/m 3,0 km/h (1 Bft) S-SW 207 3,5 C 9,4 km/h (2 Bft) 100 %
07.12.2017 01:51 5,4 C 87 % 1022,6 hPa 0,0 l/m 3,4 km/h (1 Bft) W 281 3,4 C 9,4 km/h (2 Bft) 100 %
07.12.2017 01:52 5,4 C 87 % 1022,5 hPa 0,0 l/m 3,1 km/h (1 Bft) W-NW 294 3,4 C 12,6 km/h (3 Bft) 100 %
07.12.2017 01:53 5,4 C 87 % 1022,5 hPa 0,0 l/m 7,8 km/h (2 Bft) S 187 3,4 C 12,6 km/h (3 Bft) 100 %
07.12.2017 01:54 5,4 C 87 % 1022,5 hPa 0,0 l/m 3,3 km/h (1 Bft) SW 218 3,4 C 9,4 km/h (2 Bft) 100 %
07.12.2017 01:55 5,4 C 87 % 1022,4 hPa 0,0 l/m 2,2 km/h (1 Bft) SW 230 3,4 C 6,3 km/h (2 Bft) 100 %
07.12.2017 01:56 5,4 C 87 % 1022,4 hPa 0,0 l/m 2,3 km/h (1 Bft) W-SW 245 3,4 C 9,4 km/h (2 Bft) 96 %
07.12.2017 01:57 5,4 C 87 % 1022,4 hPa 0,0 l/m 5,1 km/h (1 Bft) NW 324 3,4 C 12,6 km/h (3 Bft) 100 %
07.12.2017 01:58 5,4 C 87 % 1022,4 hPa 0,0 l/m 5,8 km/h (2 Bft) S 189 3,4 C 12,6 km/h (3 Bft) 100 %
07.12.2017 01:59 5,4 C 87 % 1022,5 hPa 0,0 l/m 12,8 km/h (3 Bft) SW 219 3,4 C 25,1 km/h (4 Bft) 100 %
07.12.2017 02:00 5,4 C 87 % 1022,5 hPa 0,0 l/m 6,3 km/h (2 Bft) W 259 3,4 C 6,3 km/h (2 Bft) 100 %
07.12.2017 02:01 5,4 C 87 % 1022,4 hPa 0,0 l/m 2,8 km/h (1 Bft) NO 46 3,4 C 6,3 km/h (2 Bft) 100 %
07.12.2017 02:02 5,4 C 87 % 1022,4 hPa 0,0 l/m 4,5 km/h (1 Bft) W 271 3,4 C 12,6 km/h (3 Bft) 100 %
07.12.2017 02:03 5,4 C 87 % 1022,5 hPa 0,0 l/m 4,6 km/h (1 Bft) SW 219 3,4 C 9,4 km/h (2 Bft) 100 %
07.12.2017 02:04 5,4 C 87 % 1022,4 hPa 0,0 l/m 9,1 km/h (2 Bft) SW 218 3,4 C 18,8 km/h (3 Bft) 100 %
07.12.2017 02:05 5,4 C 87 % 1022,4 hPa 0,0 l/m 5,2 km/h (1 Bft) SW 216 3,4 C 9,4 km/h (2 Bft) 100 %
07.12.2017 02:06 5,4 C 87 % 1022,4 hPa 0,0 l/m 6,8 km/h (2 Bft) SW 214 3,4 C 15,7 km/h (3 Bft) 100 %
07.12.2017 02:07 5,4 C 87 % 1022,5 hPa 0,0 l/m 2,1 km/h (1 Bft) N-NW 328 3,4 C 6,3 km/h (2 Bft) 100 %
07.12.2017 02:08 5,4 C 87 % 1022,4 hPa 0,0 l/m 0,7 km/h (0 Bft) W-SW 257 3,4 C 3,1 km/h (1 Bft) 100 %
07.12.2017 02:09 5,4 C 87 % 1022,4 hPa 0,0 l/m 0,8 km/h (0 Bft) NW 318 3,4 C 3,1 km/h (1 Bft) 100 %
07.12.2017 02:10 5,4 C 87 % 1022,4 hPa 0,0 l/m 4,4 km/h (1 Bft) W 281 3,4 C 12,6 km/h (3 Bft) 100 %
07.12.2017 02:11 5,3 C 87 % 1022,4 hPa 0,0 l/m 4,2 km/h (1 Bft) N-NW 342 3,3 C 9,4 km/h (2 Bft) 100 %
07.12.2017 02:12 5,3 C 87 % 1022,4 hPa 0,0 l/m 7,8 km/h (2 Bft) SW 221 3,3 C 15,7 km/h (3 Bft) 100 %
07.12.2017 02:13 5,3 C 87 % 1022,4 hPa 0,0 l/m 4,7 km/h (1 Bft) W-NW 290 3,3 C 9,4 km/h (2 Bft) 100 %
07.12.2017 02:14 5,3 C 87 % 1022,4 hPa 0,0 l/m 3,0 km/h (1 Bft) W 266 3,3 C 6,3 km/h (2 Bft) 100 %
07.12.2017 02:15 5,3 C 87 % 1022,4 hPa 0,0 l/m 7,0 km/h (2 Bft) SW 215 3,3 C 18,8 km/h (3 Bft) 100 %
07.12.2017 02:16 5,3 C 87 % 1022,4 hPa 0,0 l/m 4,5 km/h (1 Bft) W-SW 241 3,3 C 9,4 km/h (2 Bft) 100 %
07.12.2017 02:17 5,3 C 87 % 1022,4 hPa 0,0 l/m 6,1 km/h (2 Bft) NW 311 3,3 C 12,6 km/h (3 Bft) 100 %
07.12.2017 02:18 5,3 C 87 % 1022,4 hPa 0,0 l/m 1,7 km/h (1 Bft) SW 227 3,3 C 6,3 km/h (2 Bft) 100 %
07.12.2017 02:19 5,3 C 87 % 1022,4 hPa 0,0 l/m 4,9 km/h (1 Bft) SW 221 3,3 C 12,6 km/h (3 Bft) 100 %
07.12.2017 02:20 5,3 C 87 % 1022,4 hPa 0,0 l/m 0,8 km/h (0 Bft) W-SW 238 3,3 C 3,1 km/h (1 Bft) 100 %
07.12.2017 02:21 5,3 C 87 % 1022,3 hPa 0,0 l/m 7,7 km/h (2 Bft) SW 223 3,3 C 18,8 km/h (3 Bft) 100 %
07.12.2017 02:22 5,3 C 87 % 1022,3 hPa 0,0 l/m 8,0 km/h (2 Bft) S-SO 153 3,3 C 12,6 km/h (3 Bft) 100 %
07.12.2017 02:23 5,3 C 87 % 1022,3 hPa 0,0 l/m 2,5 km/h (1 Bft) NW 310 3,3 C 6,3 km/h (2 Bft) 100 %
07.12.2017 02:24 5,3 C 87 % 1022,3 hPa 0,0 l/m 6,1 km/h (2 Bft) SW 236 3,3 C 25,1 km/h (4 Bft) 100 %
07.12.2017 02:25 5,3 C 86 % 1022,3 hPa 0,0 l/m 6,1 km/h (2 Bft) W-NW 290 3,2 C 18,8 km/h (3 Bft) 100 %
07.12.2017 02:26 5,3 C 86 % 1022,3 hPa 0,0 l/m 3,5 km/h (1 Bft) NW 311 3,2 C 6,3 km/h (2 Bft) 100 %
07.12.2017 02:27 5,3 C 86 % 1022,3 hPa 0,0 l/m 7,3 km/h (2 Bft) W-SW 250 3,2 C 12,6 km/h (3 Bft) 100 %
07.12.2017 02:28 5,3 C 86 % 1022,4 hPa 0,0 l/m 2,6 km/h (1 Bft) S 174 3,2 C 12,6 km/h (3 Bft) 100 %
07.12.2017 02:29 5,3 C 86 % 1022,4 hPa 0,0 l/m 4,4 km/h (1 Bft) W-SW 245 3,2 C 12,6 km/h (3 Bft) 100 %
07.12.2017 02:30 5,3 C 86 % 1022,4 hPa 0,0 l/m 2,4 km/h (1 Bft) SW 217 3,2 C 9,4 km/h (2 Bft) 100 %
07.12.2017 02:31 5,3 C 86 % 1022,3 hPa 0,0 l/m 3,7 km/h (1 Bft) W 262 3,2 C 9,4 km/h (2 Bft) 100 %
07.12.2017 02:32 5,3 C 86 % 1022,3 hPa 0,0 l/m 10,7 km/h (2 Bft) W-NW 299 3,2 C 15,7 km/h (3 Bft) 100 %
07.12.2017 02:33 5,3 C 86 % 1022,3 hPa 0,0 l/m 4,4 km/h (1 Bft) W-SW 239 3,2 C 9,4 km/h (2 Bft) 100 %
07.12.2017 02:34 5,3 C 86 % 1022,3 hPa 0,0 l/m 4,8 km/h (1 Bft) W-NW 297 3,2 C 12,6 km/h (3 Bft) 100 %
07.12.2017 02:35 5,3 C 86 % 1022,2 hPa 0,0 l/m 2,9 km/h (1 Bft) W-SW 245 3,2 C 6,3 km/h (2 Bft) 100 %
07.12.2017 02:36 5,3 C 86 % 1022,2 hPa 0,0 l/m 0,5 km/h (0 Bft) O-NO 60 3,2 C 3,1 km/h (1 Bft) 100 %
07.12.2017 02:37 5,3 C 86 % 1022,2 hPa 0,0 l/m 0,9 km/h (0 Bft) S-SO 163 3,2 C 3,1 km/h (1 Bft) 100 %
07.12.2017 02:38 5,3 C 86 % 1022,2 hPa 0,0 l/m 5,5 km/h (1 Bft) W 264 3,2 C 15,7 km/h (3 Bft) 100 %
07.12.2017 02:39 5,3 C 85 % 1022,2 hPa 0,0 l/m 3,8 km/h (1 Bft) W 263 3,0 C 9,4 km/h (2 Bft) 100 %
07.12.2017 02:40 5,3 C 85 % 1022,2 hPa 0,0 l/m 1,4 km/h (1 Bft) W 273 3,0 C 6,3 km/h (2 Bft) 100 %
07.12.2017 02:41 5,3 C 85 % 1022,2 hPa 0,0 l/m 2,0 km/h (1 Bft) S-SO 154 3,0 C 3,1 km/h (1 Bft) 100 %
07.12.2017 02:42 5,3 C 85 % 1022,2 hPa 0,0 l/m 2,5 km/h (1 Bft) S-SW 210 3,0 C 9,4 km/h (2 Bft) 100 %
07.12.2017 02:43 5,3 C 85 % 1022,1 hPa 0,0 l/m 3,8 km/h (1 Bft) NW 309 3,0 C 6,3 km/h (2 Bft) 100 %
07.12.2017 02:44 5,3 C 85 % 1022,1 hPa 0,0 l/m 0,5 km/h (0 Bft) W 281 3,0 C 3,1 km/h (1 Bft) 100 %
07.12.2017 02:45 5,3 C 85 % 1022,1 hPa 0,0 l/m 2,0 km/h (1 Bft) W 273 3,0 C 9,4 km/h (2 Bft) 100 %
07.12.2017 02:47 5,3 C 84 % 1022,1 hPa 0,0 l/m 2,7 km/h (1 Bft) W-SW 247 2,8 C 6,3 km/h (2 Bft) 100 %
07.12.2017 02:48 5,3 C 84 % 1022,1 hPa 0,0 l/m 6,6 km/h (2 Bft) W-NW 296 2,8 C 9,4 km/h (2 Bft) 100 %
07.12.2017 02:49 5,3 C 84 % 1022,1 hPa 0,0 l/m 4,3 km/h (1 Bft) N-NW 330 2,8 C 12,6 km/h (3 Bft) 100 %
07.12.2017 02:50 5,3 C 84 % 1022,1 hPa 0,0 l/m 5,5 km/h (1 Bft) W 274 2,8 C 12,6 km/h (3 Bft) 100 %
07.12.2017 02:51 5,3 C 83 % 1022,1 hPa 0,0 l/m 4,3 km/h (1 Bft) W-SW 250 2,7 C 9,4 km/h (2 Bft) 100 %
07.12.2017 02:52 5,3 C 83 % 1022,1 hPa 0,0 l/m 2,2 km/h (1 Bft) NW 304 2,7 C 6,3 km/h (2 Bft) 100 %
07.12.2017 02:53 5,3 C 82 % 1022,1 hPa 0,0 l/m 9,9 km/h (2 Bft) S-SW 201 2,5 C 22,0 km/h (4 Bft) 100 %
07.12.2017 02:54 5,3 C 82 % 1022,0 hPa 0,0 l/m 7,1 km/h (2 Bft) W 267 2,5 C 15,7 km/h (3 Bft) 100 %
07.12.2017 02:55 5,3 C 82 % 1022,0 hPa 0,0 l/m 8,2 km/h (2 Bft) W-NW 287 2,5 C 15,7 km/h (3 Bft) 90 %
07.12.2017 02:57 5,3 C 81 % 1022,0 hPa 0,0 l/m 4,8 km/h (1 Bft) W-SW 251 2,3 C 9,4 km/h (2 Bft) 100 %
07.12.2017 02:58 5,3 C 81 % 1021,9 hPa 0,0 l/m 4,6 km/h (1 Bft) W-NW 300 2,3 C 9,4 km/h (2 Bft) 100 %
07.12.2017 02:59 5,3 C 81 % 1022,0 hPa 0,0 l/m 5,6 km/h (1 Bft) W-SW 238 2,3 C 12,6 km/h (3 Bft) 96 %
07.12.2017 03:00 5,3 C 81 % 1022,0 hPa 0,0 l/m 4,5 km/h (1 Bft) SW 236 2,3 C 9,4 km/h (2 Bft) 96 %
07.12.2017 03:01 5,3 C 81 % 1021,9 hPa 0,0 l/m 11,5 km/h (2 Bft) SW 224 2,3 C 18,8 km/h (3 Bft) 100 %
07.12.2017 03:02 5,3 C 81 % 1021,9 hPa 0,0 l/m 4,8 km/h (1 Bft) W-NW 299 2,3 C 15,7 km/h (3 Bft) 96 %
07.12.2017 03:03 5,3 C 81 % 1022,0 hPa 0,0 l/m 3,5 km/h (1 Bft) SW 222 2,3 C 6,3 km/h (2 Bft) 100 %
07.12.2017 03:04 5,3 C 81 % 1021,9 hPa 0,0 l/m 8,4 km/h (2 Bft) W 269 2,3 C 22,0 km/h (4 Bft) 100 %
07.12.2017 03:05 5,3 C 80 % 1021,9 hPa 0,0 l/m 4,3 km/h (1 Bft) S-SW 202 2,1 C 9,4 km/h (2 Bft) 100 %
07.12.2017 03:06 5,3 C 80 % 1021,9 hPa 0,0 l/m 10,4 km/h (2 Bft) W-SW 245 2,1 C 25,1 km/h (4 Bft) 94 %
07.12.2017 03:07 5,3 C 80 % 1021,9 hPa 0,0 l/m 9,0 km/h (2 Bft) SW 223 2,1 C 18,8 km/h (3 Bft) 100 %
07.12.2017 03:08 5,2 C 80 % 1021,8 hPa 0,0 l/m 7,0 km/h (2 Bft) W-NW 290 2,0 C 15,7 km/h (3 Bft) 96 %
07.12.2017 03:09 5,2 C 80 % 1021,8 hPa 0,0 l/m 7,9 km/h (2 Bft) W 267 2,0 C 15,7 km/h (3 Bft) 96 %
07.12.2017 03:10 5,2 C 79 % 1021,7 hPa 0,0 l/m 7,2 km/h (2 Bft) W-NW 284 1,9 C 12,6 km/h (3 Bft) 100 %
07.12.2017 03:11 5,2 C 79 % 1021,7 hPa 0,0 l/m 7,5 km/h (2 Bft) W-NW 287 1,9 C 12,6 km/h (3 Bft) 96 %
07.12.2017 03:12 5,2 C 79 % 1021,7 hPa 0,0 l/m 6,1 km/h (2 Bft) W-NW 288 1,9 C 9,4 km/h (2 Bft) 100 %
07.12.2017 03:13 5,2 C 79 % 1021,7 hPa 0,0 l/m 10,9 km/h (2 Bft) S-SW 204 1,9 C 22,0 km/h (4 Bft) 96 %
07.12.2017 03:14 5,2 C 78 % 1021,6 hPa 0,0 l/m 9,2 km/h (2 Bft) W-NW 285 1,7 C 12,6 km/h (3 Bft) 100 %
07.12.2017 03:15 5,2 C 78 % 1021,7 hPa 0,0 l/m 9,7 km/h (2 Bft) SO 144 1,7 C 18,8 km/h (3 Bft) 96 %
07.12.2017 03:16 5,2 C 78 % 1021,6 hPa 0,0 l/m 7,6 km/h (2 Bft) S-SW 195 1,7 C 12,6 km/h (3 Bft) 100 %
07.12.2017 03:17 5,2 C 78 % 1021,6 hPa 0,0 l/m 7,9 km/h (2 Bft) SW 221 1,7 C 12,6 km/h (3 Bft) 96 %
07.12.2017 03:18 5,2 C 78 % 1021,5 hPa 0,0 l/m 3,4 km/h (1 Bft) W-NW 285 1,7 C 15,7 km/h (3 Bft) 96 %
07.12.2017 03:19 5,2 C 78 % 1021,5 hPa 0,0 l/m 5,3 km/h (1 Bft) W-NW 293 1,7 C 12,6 km/h (3 Bft) 100 %
07.12.2017 03:20 5,2 C 78 % 1021,5 hPa 0,0 l/m 7,5 km/h (2 Bft) NW 310 1,7 C 12,6 km/h (3 Bft) 96 %
07.12.2017 03:21 5,1 C 79 % 1021,4 hPa 0,0 l/m 7,7 km/h (2 Bft) S-SO 163 1,8 C 15,7 km/h (3 Bft) 100 %
07.12.2017 03:22 5,1 C 79 % 1021,4 hPa 0,0 l/m 8,8 km/h (2 Bft) SW 225 1,8 C 15,7 km/h (3 Bft) 96 %
07.12.2017 03:23 5,1 C 79 % 1021,4 hPa 0,0 l/m 8,6 km/h (2 Bft) S-SO 165 1,8 C 22,0 km/h (4 Bft) 100 %
07.12.2017 03:24 5,1 C 79 % 1021,4 hPa 0,0 l/m 10,4 km/h (2 Bft) W 270 1,8 C 15,7 km/h (3 Bft) 93 %
07.12.2017 03:25 5,1 C 79 % 1021,5 hPa 0,0 l/m 3,4 km/h (1 Bft) SW 229 1,8 C 9,4 km/h (2 Bft) 100 %
07.12.2017 03:26 5,1 C 79 % 1021,5 hPa 0,0 l/m 2,5 km/h (1 Bft) S-SW 211 1,8 C 9,4 km/h (2 Bft) 96 %
07.12.2017 03:27 5,1 C 79 % 1021,4 hPa 0,0 l/m 9,8 km/h (2 Bft) W-NW 297 1,8 C 22,0 km/h (4 Bft) 97 %
07.12.2017 03:28 5,1 C 79 % 1021,4 hPa 0,0 l/m 9,0 km/h (2 Bft) SW 226 1,8 C 22,0 km/h (4 Bft) 100 %
07.12.2017 03:29 5,1 C 79 % 1021,4 hPa 0,0 l/m 10,5 km/h (2 Bft) W-SW 243 1,8 C 18,8 km/h (3 Bft) 99 %
07.12.2017 03:30 5,0 C 79 % 1021,3 hPa 0,0 l/m 10,6 km/h (2 Bft) SW 233 1,7 C 31,4 km/h (5 Bft) 100 %
07.12.2017 03:31 5,0 C 79 % 1021,4 hPa 0,0 l/m 5,3 km/h (1 Bft) SW 229 1,7 C 12,6 km/h (3 Bft) 100 %
07.12.2017 03:32 4,9 C 79 % 1021,3 hPa 0,0 l/m 3,5 km/h (1 Bft) N-NW 338 1,6 C 12,6 km/h (3 Bft) 100 %
07.12.2017 03:33 4,9 C 79 % 1021,4 hPa 0,0 l/m 8,5 km/h (2 Bft) S-SO 166 1,6 C 22,0 km/h (4 Bft) 100 %
07.12.2017 03:34 4,9 C 79 % 1021,3 hPa 0,0 l/m 7,6 km/h (2 Bft) N-NO 13 1,6 C 15,7 km/h (3 Bft) 100 %
07.12.2017 03:35 4,9 C 79 % 1021,3 hPa 0,0 l/m 8,8 km/h (2 Bft) N 356 1,6 C 15,7 km/h (3 Bft) 100 %
07.12.2017 03:36 4,9 C 79 % 1021,3 hPa 0,0 l/m 9,5 km/h (2 Bft) SW 221 1,6 C 22,0 km/h (4 Bft) 100 %
07.12.2017 03:37 4,8 C 79 % 1021,3 hPa 0,0 l/m 6,1 km/h (2 Bft) SW 229 1,5 C 12,6 km/h (3 Bft) 100 %
07.12.2017 03:38 4,8 C 79 % 1021,4 hPa 0,0 l/m 8,4 km/h (2 Bft) SW 227 1,5 C 22,0 km/h (4 Bft) 100 %
07.12.2017 03:39 4,8 C 79 % 1021,4 hPa 0,0 l/m 7,2 km/h (2 Bft) SW 229 1,5 C 12,6 km/h (3 Bft) 100 %
07.12.2017 03:40 4,8 C 79 % 1021,4 hPa 0,0 l/m 10,7 km/h (2 Bft) SW 221 1,5 C 28,2 km/h (4 Bft) 100 %
07.12.2017 03:41 4,8 C 79 % 1021,4 hPa 0,0 l/m 5,9 km/h (2 Bft) NO 42 1,5 C 12,6 km/h (3 Bft) 100 %
07.12.2017 03:42 4,8 C 79 % 1021,4 hPa 0,0 l/m 9,9 km/h (2 Bft) NO 39 1,5 C 18,8 km/h (3 Bft) 100 %
07.12.2017 03:43 4,7 C 79 % 1021,3 hPa 0,0 l/m 4,1 km/h (1 Bft) W 270 1,4 C 6,3 km/h (2 Bft) 100 %
07.12.2017 03:44 4,7 C 79 % 1021,3 hPa 0,0 l/m 10,7 km/h (2 Bft) W 265 1,4 C 25,1 km/h (4 Bft) 100 %
07.12.2017 03:45 4,7 C 79 % 1021,3 hPa 0,0 l/m 10,2 km/h (2 Bft) NW 318 1,4 C 18,8 km/h (3 Bft) 100 %
07.12.2017 03:46 4,7 C 79 % 1021,4 hPa 0,0 l/m 8,7 km/h (2 Bft) SW 219 1,4 C 15,7 km/h (3 Bft) 100 %
07.12.2017 03:47 4,7 C 79 % 1021,3 hPa 0,0 l/m 7,8 km/h (2 Bft) W-NW 287 1,4 C 18,8 km/h (3 Bft) 100 %
07.12.2017 03:48 4,6 C 78 % 1021,3 hPa 0,0 l/m 11,5 km/h (2 Bft) S-SO 165 1,1 C 22,0 km/h (4 Bft) 100 %
07.12.2017 03:49 4,6 C 78 % 1021,2 hPa 0,0 l/m 7,8 km/h (2 Bft) W-SW 242 1,1 C 15,7 km/h (3 Bft) 100 %
07.12.2017 03:50 4,6 C 78 % 1021,2 hPa 0,0 l/m 7,7 km/h (2 Bft) SW 236 1,1 C 15,7 km/h (3 Bft) 100 %
07.12.2017 03:51 4,6 C 78 % 1021,2 hPa 0,0 l/m 7,0 km/h (2 Bft) S-SW 200 1,1 C 18,8 km/h (3 Bft) 100 %
07.12.2017 03:52 4,5 C 78 % 1021,2 hPa 0,0 l/m 6,0 km/h (2 Bft) W-SW 257 1,0 C 15,7 km/h (3 Bft) 100 %
07.12.2017 03:53 4,5 C 78 % 1021,2 hPa 0,0 l/m 3,1 km/h (1 Bft) W-NW 287 1,0 C 6,3 km/h (2 Bft) 100 %
07.12.2017 03:54 4,5 C 78 % 1021,2 hPa 0,0 l/m 5,5 km/h (1 Bft) W-NW 288 1,0 C 9,4 km/h (2 Bft) 100 %
07.12.2017 03:55 4,4 C 79 % 1021,1 hPa 0,0 l/m 7,8 km/h (2 Bft) NW 325 1,1 C 18,8 km/h (3 Bft) 100 %
07.12.2017 03:56 4,4 C 78 % 1021,1 hPa 0,0 l/m 11,4 km/h (2 Bft) W-NW 284 0,9 C 22,0 km/h (4 Bft) 100 %
07.12.2017 03:57 4,4 C 78 % 1021,1 hPa 0,0 l/m 4,7 km/h (1 Bft) W-NW 292 0,9 C 12,6 km/h (3 Bft) 100 %
07.12.2017 03:58 4,4 C 79 % 1021,1 hPa 0,0 l/m 6,4 km/h (2 Bft) N-NW 328 1,1 C 12,6 km/h (3 Bft) 100 %
07.12.2017 03:59 4,4 C 79 % 1021,1 hPa 0,0 l/m 7,8 km/h (2 Bft) S-SW 213 1,1 C 25,1 km/h (4 Bft) 100 %
07.12.2017 04:00 4,4 C 79 % 1021,1 hPa 0,0 l/m 6,4 km/h (2 Bft) N-NW 327 1,1 C 12,6 km/h (3 Bft) 100 %
07.12.2017 04:01 4,4 C 79 % 1021,2 hPa 0,0 l/m 10,2 km/h (2 Bft) SW 226 1,1 C 18,8 km/h (3 Bft) 100 %
07.12.2017 04:02 4,3 C 78 % 1021,1 hPa 0,0 l/m 9,4 km/h (2 Bft) N-NW 328 0,8 C 18,8 km/h (3 Bft) 100 %
07.12.2017 04:03 4,3 C 79 % 1021,1 hPa 0,0 l/m 11,1 km/h (2 Bft) W-SW 241 1,0 C 18,8 km/h (3 Bft) 100 %
07.12.2017 04:04 4,3 C 78 % 1021,1 hPa 0,0 l/m 9,4 km/h (2 Bft) W 273 0,8 C 18,8 km/h (3 Bft) 100 %
07.12.2017 04:05 4,3 C 79 % 1021,1 hPa 0,0 l/m 4,7 km/h (1 Bft) W 266 1,0 C 9,4 km/h (2 Bft) 100 %
07.12.2017 04:06 4,3 C 79 % 1021,1 hPa 0,0 l/m 6,7 km/h (2 Bft) W 261 1,0 C 9,4 km/h (2 Bft) 100 %
07.12.2017 04:07 4,3 C 79 % 1021,1 hPa 0,0 l/m 5,0 km/h (1 Bft) SW 221 1,0 C 12,6 km/h (3 Bft) 100 %
07.12.2017 04:08 4,3 C 79 % 1021,1 hPa 0,0 l/m 6,3 km/h (2 Bft) W 281 1,0 C 12,6 km/h (3 Bft) 100 %
07.12.2017 04:09 4,3 C 79 % 1021,1 hPa 0,0 l/m 6,5 km/h (2 Bft) SW 227 1,0 C 9,4 km/h (2 Bft) 100 %
07.12.2017 04:10 4,3 C 79 % 1021,1 hPa 0,0 l/m 14,9 km/h (3 Bft) NW 322 1,0 C 25,1 km/h (4 Bft) 100 %
07.12.2017 04:11 4,3 C 79 % 1021,0 hPa 0,0 l/m 14,6 km/h (3 Bft) W-SW 249 1,0 C 22,0 km/h (4 Bft) 100 %
07.12.2017 04:12 4,3 C 79 % 1021,1 hPa 0,0 l/m 6,4 km/h (2 Bft) W-SW 237 1,0 C 12,6 km/h (3 Bft) 100 %
07.12.2017 04:13 4,3 C 79 % 1021,0 hPa 0,0 l/m 4,5 km/h (1 Bft) N-NO 15 1,0 C 9,4 km/h (2 Bft) 100 %
07.12.2017 04:16 4,3 C 79 % 1021,0 hPa 0,0 l/m 8,6 km/h (2 Bft) SW 219 1,0 C 12,6 km/h (3 Bft) 100 %
07.12.2017 04:17 4,3 C 79 % 1020,9 hPa 0,0 l/m 11,8 km/h (2 Bft) S-SW 212 1,0 C 22,0 km/h (4 Bft) 100 %
07.12.2017 04:18 4,3 C 79 % 1020,9 hPa 0,0 l/m 7,1 km/h (2 Bft) W-SW 253 1,0 C 15,7 km/h (3 Bft) 100 %
07.12.2017 04:19 4,3 C 79 % 1020,9 hPa 0,0 l/m 2,4 km/h (1 Bft) W-NW 290 1,0 C 6,3 km/h (2 Bft) 100 %
07.12.2017 04:20 4,3 C 79 % 1020,9 hPa 0,0 l/m 3,0 km/h (1 Bft) W-SW 257 1,0 C 6,3 km/h (2 Bft) 100 %
07.12.2017 04:22 4,2 C 79 % 1020,8 hPa 0,0 l/m 5,4 km/h (1 Bft) NW 307 0,9 C 15,7 km/h (3 Bft) 100 %
07.12.2017 04:23 4,2 C 79 % 1020,8 hPa 0,0 l/m 6,0 km/h (2 Bft) SW 228 0,9 C 12,6 km/h (3 Bft) 100 %
07.12.2017 04:24 4,2 C 79 % 1020,8 hPa 0,0 l/m 5,5 km/h (1 Bft) W-NW 290 0,9 C 12,6 km/h (3 Bft) 100 %
07.12.2017 04:25 4,2 C 79 % 1020,7 hPa 0,0 l/m 7,6 km/h (2 Bft) W-SW 251 0,9 C 15,7 km/h (3 Bft) 100 %
07.12.2017 04:26 4,2 C 79 % 1020,7 hPa 0,0 l/m 6,4 km/h (2 Bft) W-NW 284 0,9 C 15,7 km/h (3 Bft) 100 %
07.12.2017 04:27 4,2 C 80 % 1020,7 hPa 0,0 l/m 7,1 km/h (2 Bft) W-SW 253 1,1 C 12,6 km/h (3 Bft) 100 %
07.12.2017 04:28 4,2 C 80 % 1020,7 hPa 0,0 l/m 6,0 km/h (2 Bft) S-SW 198 1,1 C 15,7 km/h (3 Bft) 100 %
07.12.2017 04:29 4,2 C 80 % 1020,7 hPa 0,0 l/m 2,3 km/h (1 Bft) W-NW 283 1,1 C 9,4 km/h (2 Bft) 100 %
07.12.2017 04:30 4,2 C 80 % 1020,6 hPa 0,0 l/m 2,7 km/h (1 Bft) S 183 1,1 C 6,3 km/h (2 Bft) 100 %
07.12.2017 04:31 4,2 C 80 % 1020,7 hPa 0,0 l/m 9,5 km/h (2 Bft) SW 233 1,1 C 18,8 km/h (3 Bft) 100 %
07.12.2017 04:32 4,2 C 80 % 1020,6 hPa 0,0 l/m 12,9 km/h (3 Bft) SW 214 1,1 C 18,8 km/h (3 Bft) 100 %
07.12.2017 04:33 4,2 C 80 % 1020,6 hPa 0,0 l/m 8,4 km/h (2 Bft) W 277 1,1 C 15,7 km/h (3 Bft) 100 %
07.12.2017 04:34 4,2 C 80 % 1020,7 hPa 0,0 l/m 9,7 km/h (2 Bft) W-SW 251 1,1 C 18,8 km/h (3 Bft) 100 %
07.12.2017 04:35 4,2 C 80 % 1020,6 hPa 0,0 l/m 6,3 km/h (2 Bft) NW 321 1,1 C 12,6 km/h (3 Bft) 100 %
07.12.2017 04:36 4,2 C 80 % 1020,6 hPa 0,0 l/m 9,9 km/h (2 Bft) W-NW 296 1,1 C 15,7 km/h (3 Bft) 100 %
07.12.2017 04:37 4,2 C 80 % 1020,6 hPa 0,0 l/m 12,3 km/h (3 Bft) W 267 1,1 C 28,2 km/h (4 Bft) 100 %
07.12.2017 04:38 4,2 C 80 % 1020,6 hPa 0,0 l/m 8,4 km/h (2 Bft) W-SW 248 1,1 C 12,6 km/h (3 Bft) 100 %
07.12.2017 04:39 4,2 C 80 % 1020,6 hPa 0,0 l/m 7,2 km/h (2 Bft) SW 228 1,1 C 18,8 km/h (3 Bft) 100 %
07.12.2017 04:40 4,2 C 79 % 1020,6 hPa 0,0 l/m 11,2 km/h (2 Bft) SW 233 0,9 C 15,7 km/h (3 Bft) 100 %
07.12.2017 04:42 4,2 C 80 % 1020,5 hPa 0,0 l/m 7,2 km/h (2 Bft) W-SW 258 1,1 C 18,8 km/h (3 Bft) 100 %
07.12.2017 04:43 4,2 C 80 % 1020,5 hPa 0,0 l/m 9,1 km/h (2 Bft) W-NW 293 1,1 C 15,7 km/h (3 Bft) 100 %
07.12.2017 04:44 4,2 C 79 % 1020,5 hPa 0,0 l/m 7,7 km/h (2 Bft) NW 314 0,9 C 22,0 km/h (4 Bft) 100 %
07.12.2017 04:45 4,2 C 79 % 1020,5 hPa 0,0 l/m 8,3 km/h (2 Bft) S 170 0,9 C 12,6 km/h (3 Bft) 100 %
07.12.2017 04:46 4,2 C 79 % 1020,5 hPa 0,0 l/m 12,3 km/h (3 Bft) W-NW 300 0,9 C 25,1 km/h (4 Bft) 100 %
07.12.2017 04:47 4,2 C 79 % 1020,5 hPa 0,0 l/m 8,4 km/h (2 Bft) W 272 0,9 C 18,8 km/h (3 Bft) 100 %
07.12.2017 04:48 4,2 C 79 % 1020,4 hPa 0,0 l/m 9,0 km/h (2 Bft) S-SW 200 0,9 C 18,8 km/h (3 Bft) 100 %
07.12.2017 04:49 4,2 C 79 % 1020,4 hPa 0,0 l/m 4,0 km/h (1 Bft) NW 309 0,9 C 9,4 km/h (2 Bft) 100 %
07.12.2017 04:50 4,2 C 79 % 1020,4 hPa 0,0 l/m 10,7 km/h (2 Bft) W-SW 252 0,9 C 25,1 km/h (4 Bft) 100 %
07.12.2017 04:51 4,2 C 79 % 1020,4 hPa 0,0 l/m 9,1 km/h (2 Bft) S 191 0,9 C 15,7 km/h (3 Bft) 100 %
07.12.2017 04:52 4,2 C 79 % 1020,3 hPa 0,0 l/m 6,3 km/h (2 Bft) S-SW 207 0,9 C 12,6 km/h (3 Bft) 100 %
07.12.2017 04:53 4,2 C 79 % 1020,3 hPa 0,0 l/m 1,4 km/h (1 Bft) N-NW 327 0,9 C 3,1 km/h (1 Bft) 100 %
07.12.2017 04:54 4,2 C 79 % 1020,3 hPa 0,0 l/m 2,9 km/h (1 Bft) W-SW 245 0,9 C 6,3 km/h (2 Bft) 100 %
07.12.2017 04:55 4,2 C 80 % 1020,2 hPa 0,0 l/m 5,5 km/h (1 Bft) NO 40 1,1 C 12,6 km/h (3 Bft) 100 %
07.12.2017 04:56 4,1 C 80 % 1020,2 hPa 0,0 l/m 6,0 km/h (2 Bft) W 272 1,0 C 12,6 km/h (3 Bft) 100 %
07.12.2017 04:57 4,1 C 80 % 1020,2 hPa 0,0 l/m 6,4 km/h (2 Bft) SW 224 1,0 C 12,6 km/h (3 Bft) 100 %
07.12.2017 04:58 4,1 C 80 % 1020,3 hPa 0,0 l/m 2,7 km/h (1 Bft) SW 229 1,0 C 6,3 km/h (2 Bft) 100 %
07.12.2017 04:59 4,1 C 80 % 1020,3 hPa 0,0 l/m 0,9 km/h (0 Bft) NW 304 1,0 C 3,1 km/h (1 Bft) 100 %
07.12.2017 05:00 4,1 C 80 % 1020,3 hPa 0,0 l/m 2,0 km/h (1 Bft) W-SW 248 1,0 C 6,3 km/h (2 Bft) 100 %
07.12.2017 05:01 4,1 C 80 % 1020,1 hPa 0,0 l/m 3,5 km/h (1 Bft) NW 311 1,0 C 9,4 km/h (2 Bft) 100 %
07.12.2017 05:02 4,1 C 80 % 1020,2 hPa 0,0 l/m 0,4 km/h (0 Bft) NO 35 1,0 C 3,1 km/h (1 Bft) 100 %
07.12.2017 05:03 4,0 C 80 % 1020,1 hPa 0,0 l/m 6,0 km/h (2 Bft) SW 225 0,9 C 15,7 km/h (3 Bft) 100 %
07.12.2017 05:04 4,0 C 80 % 1020,1 hPa 0,0 l/m 6,9 km/h (2 Bft) SW 221 0,9 C 15,7 km/h (3 Bft) 100 %
07.12.2017 05:05 4,0 C 80 % 1020,2 hPa 0,0 l/m 4,7 km/h (1 Bft) W-SW 251 0,9 C 9,4 km/h (2 Bft) 100 %
07.12.2017 05:06 4,0 C 80 % 1020,1 hPa 0,0 l/m 3,7 km/h (1 Bft) O-NO 71 0,9 C 9,4 km/h (2 Bft) 100 %
07.12.2017 05:07 4,0 C 80 % 1020,1 hPa 0,0 l/m 7,5 km/h (2 Bft) W-SW 248 0,9 C 22,0 km/h (4 Bft) 100 %
07.12.2017 05:08 4,0 C 80 % 1020,1 hPa 0,0 l/m 12,2 km/h (2 Bft) NW 307 0,9 C 25,1 km/h (4 Bft) 100 %
07.12.2017 05:09 3,9 C 80 % 1020,1 hPa 0,0 l/m 15,3 km/h (3 Bft) SW 233 0,8 C 28,2 km/h (4 Bft) 100 %
07.12.2017 05:10 4,0 C 80 % 1020,1 hPa 0,0 l/m 10,2 km/h (2 Bft) W 271 0,9 C 25,1 km/h (4 Bft) 100 %
07.12.2017 05:11 4,0 C 80 % 1020,1 hPa 0,0 l/m 10,2 km/h (2 Bft) W 259 0,9 C 25,1 km/h (4 Bft) 100 %
07.12.2017 05:12 4,0 C 80 % 1020,1 hPa 0,0 l/m 5,2 km/h (1 Bft) W-NW 301 0,9 C 15,7 km/h (3 Bft) 100 %
07.12.2017 05:13 4,0 C 80 % 1020,1 hPa 0,0 l/m 6,8 km/h (2 Bft) S-SW 211 0,9 C 12,6 km/h (3 Bft) 100 %
07.12.2017 05:14 4,0 C 80 % 1020,1 hPa 0,0 l/m 4,1 km/h (1 Bft) SW 236 0,9 C 12,6 km/h (3 Bft) 100 %
07.12.2017 05:15 4,0 C 80 % 1020,0 hPa 0,0 l/m 3,5 km/h (1 Bft) W 259 0,9 C 9,4 km/h (2 Bft) 100 %
07.12.2017 05:16 4,0 C 80 % 1020,1 hPa 0,0 l/m 9,3 km/h (2 Bft) W 272 0,9 C 15,7 km/h (3 Bft) 100 %
07.12.2017 05:17 3,9 C 80 % 1020,0 hPa 0,0 l/m 15,6 km/h (3 Bft) SW 217 0,8 C 34,5 km/h (5 Bft) 96 %
07.12.2017 05:18 3,9 C 80 % 1020,0 hPa 0,0 l/m 12,3 km/h (3 Bft) W-NW 287 0,8 C 28,2 km/h (4 Bft) 100 %
07.12.2017 05:19 3,9 C 80 % 1019,9 hPa 0,0 l/m 12,1 km/h (2 Bft) W-NW 297 0,8 C 22,0 km/h (4 Bft) 100 %
07.12.2017 05:20 3,9 C 80 % 1019,9 hPa 0,0 l/m 8,2 km/h (2 Bft) W 260 0,8 C 25,1 km/h (4 Bft) 100 %
07.12.2017 05:21 3,9 C 80 % 1019,9 hPa 0,0 l/m 6,9 km/h (2 Bft) SW 219 0,8 C 25,1 km/h (4 Bft) 100 %
07.12.2017 05:22 3,9 C 80 % 1019,9 hPa 0,0 l/m 6,4 km/h (2 Bft) W-NW 288 0,8 C 12,6 km/h (3 Bft) 100 %
07.12.2017 05:23 3,9 C 80 % 1019,9 hPa 0,0 l/m 8,4 km/h (2 Bft) W-NW 286 0,8 C 15,7 km/h (3 Bft) 100 %
07.12.2017 05:24 3,9 C 80 % 1019,8 hPa 0,0 l/m 3,9 km/h (1 Bft) W 274 0,8 C 9,4 km/h (2 Bft) 100 %
07.12.2017 05:25 3,9 C 80 % 1019,8 hPa 0,0 l/m 5,4 km/h (1 Bft) N-NW 340 0,8 C 12,6 km/h (3 Bft) 100 %
07.12.2017 05:26 3,9 C 80 % 1019,8 hPa 0,0 l/m 2,7 km/h (1 Bft) W-SW 253 0,8 C 6,3 km/h (2 Bft) 100 %
07.12.2017 05:27 3,8 C 80 % 1019,9 hPa 0,0 l/m 4,6 km/h (1 Bft) SW 235 0,7 C 12,6 km/h (3 Bft) 100 %
07.12.2017 05:28 3,8 C 80 % 1019,9 hPa 0,0 l/m 3,4 km/h (1 Bft) W-SW 237 0,7 C 6,3 km/h (2 Bft) 100 %
07.12.2017 05:29 3,8 C 80 % 1019,9 hPa 0,0 l/m 5,3 km/h (1 Bft) W 278 0,7 C 15,7 km/h (3 Bft) 100 %
07.12.2017 05:30 3,8 C 80 % 1019,9 hPa 0,0 l/m 6,8 km/h (2 Bft) N-NW 334 0,7 C 18,8 km/h (3 Bft) 100 %
07.12.2017 05:31 3,8 C 80 % 1019,9 hPa 0,0 l/m 2,0 km/h (1 Bft) W-SW 248 0,7 C 6,3 km/h (2 Bft) 100 %
07.12.2017 05:32 3,8 C 81 % 1019,8 hPa 0,0 l/m 1,7 km/h (1 Bft) N-NO 27 0,8 C 6,3 km/h (2 Bft) 100 %
07.12.2017 05:33 3,7 C 81 % 1019,8 hPa 0,0 l/m 5,5 km/h (1 Bft) W-SW 253 0,7 C 12,6 km/h (3 Bft) 100 %
07.12.2017 05:34 3,7 C 81 % 1019,8 hPa 0,0 l/m 5,3 km/h (1 Bft) W 266 0,7 C 12,6 km/h (3 Bft) 100 %
07.12.2017 05:35 3,7 C 81 % 1019,8 hPa 0,0 l/m 0,8 km/h (0 Bft) W 262 0,7 C 3,1 km/h (1 Bft) 96 %
07.12.2017 05:36 3,7 C 81 % 1019,8 hPa 0,0 l/m 0,9 km/h (0 Bft) NW 324 0,7 C 3,1 km/h (1 Bft) 100 %
07.12.2017 05:37 3,7 C 81 % 1019,8 hPa 0,0 l/m 5,1 km/h (1 Bft) W-NW 295 0,7 C 12,6 km/h (3 Bft) 100 %
07.12.2017 05:38 3,7 C 81 % 1019,8 hPa 0,0 l/m 1,0 km/h (0 Bft) S-SW 206 0,7 C 9,4 km/h (2 Bft) 96 %
07.12.2017 05:39 3,7 C 81 % 1019,8 hPa 0,0 l/m 10,7 km/h (2 Bft) W 281 0,7 C 25,1 km/h (4 Bft) 100 %
07.12.2017 05:40 3,7 C 81 % 1019,7 hPa 0,0 l/m 5,9 km/h (2 Bft) S 186 0,7 C 9,4 km/h (2 Bft) 100 %
07.12.2017 05:41 3,7 C 81 % 1019,7 hPa 0,0 l/m 4,2 km/h (1 Bft) O-SO 109 0,7 C 9,4 km/h (2 Bft) 100 %
07.12.2017 05:42 3,7 C 81 % 1019,7 hPa 0,0 l/m 1,4 km/h (1 Bft) N-NO 15 0,7 C 6,3 km/h (2 Bft) 100 %
07.12.2017 05:43 3,7 C 81 % 1019,6 hPa 0,0 l/m 1,2 km/h (1 Bft) SW 214 0,7 C 6,3 km/h (2 Bft) 100 %
07.12.2017 05:44 3,7 C 81 % 1019,6 hPa 0,0 l/m 7,6 km/h (2 Bft) SW 225 0,7 C 12,6 km/h (3 Bft) 96 %
07.12.2017 05:45 3,7 C 81 % 1019,6 hPa 0,0 l/m 6,7 km/h (2 Bft) W-SW 258 0,7 C 12,6 km/h (3 Bft) 100 %
07.12.2017 05:46 3,7 C 81 % 1019,6 hPa 0,0 l/m 3,3 km/h (1 Bft) NW 321 0,7 C 9,4 km/h (2 Bft) 100 %
07.12.2017 05:47 3,7 C 82 % 1019,6 hPa 0,0 l/m 6,9 km/h (2 Bft) O-NO 60 0,9 C 12,6 km/h (3 Bft) 92 %
07.12.2017 05:48 3,7 C 82 % 1019,7 hPa 0,0 l/m 3,5 km/h (1 Bft) SW 233 0,9 C 12,6 km/h (3 Bft) 100 %
07.12.2017 05:49 3,6 C 82 % 1019,7 hPa 0,0 l/m 2,5 km/h (1 Bft) SW 229 0,8 C 6,3 km/h (2 Bft) 100 %
07.12.2017 05:50 3,6 C 82 % 1019,7 hPa 0,0 l/m 1,9 km/h (1 Bft) W-SW 239 0,8 C 6,3 km/h (2 Bft) 100 %
07.12.2017 05:51 3,6 C 82 % 1019,7 hPa 0,0 l/m 0,1 km/h (0 Bft) NW 321 0,8 C 3,1 km/h (1 Bft) 100 %
07.12.2017 05:52 3,6 C 82 % 1019,7 hPa 0,0 l/m 1,4 km/h (1 Bft) W-SW 255 0,8 C 3,1 km/h (1 Bft) 96 %
07.12.2017 05:53 3,6 C 82 % 1019,6 hPa 0,0 l/m 3,3 km/h (1 Bft) W-SW 241 0,8 C 12,6 km/h (3 Bft) 100 %
07.12.2017 05:54 3,6 C 82 % 1019,6 hPa 0,0 l/m 3,1 km/h (1 Bft) W-SW 245 0,8 C 6,3 km/h (2 Bft) 92 %
07.12.2017 05:55 3,6 C 82 % 1019,6 hPa 0,0 l/m 1,5 km/h (1 Bft) W-SW 258 0,8 C 3,1 km/h (1 Bft) 100 %
07.12.2017 05:56 3,6 C 83 % 1019,5 hPa 0,0 l/m 0,0 km/h (0 Bft) SW 220 1,0 C 0,0 km/h (0 Bft) 94 %
07.12.2017 05:57 3,6 C 83 % 1019,5 hPa 0,0 l/m 4,8 km/h (1 Bft) S-SO 154 1,0 C 12,6 km/h (3 Bft) 97 %
07.12.2017 05:58 3,5 C 83 % 1019,4 hPa 0,0 l/m 5,6 km/h (1 Bft) N-NW 330 0,9 C 15,7 km/h (3 Bft) 100 %
07.12.2017 05:59 3,5 C 83 % 1019,4 hPa 0,0 l/m 2,0 km/h (1 Bft) W 261 0,9 C 6,3 km/h (2 Bft) 96 %
07.12.2017 06:00 3,5 C 83 % 1019,5 hPa 0,0 l/m 5,6 km/h (1 Bft) W-SW 252 0,9 C 15,7 km/h (3 Bft) 100 %
07.12.2017 06:01 3,5 C 83 % 1019,5 hPa 0,0 l/m 4,2 km/h (1 Bft) W-SW 238 0,9 C 15,7 km/h (3 Bft) 96 %
07.12.2017 06:02 3,5 C 83 % 1019,5 hPa 0,0 l/m 5,6 km/h (1 Bft) N-NO 33 0,9 C 18,8 km/h (3 Bft) 96 %
07.12.2017 06:03 3,5 C 83 % 1019,5 hPa 0,0 l/m 0,0 km/h (0 Bft) O-NO 75 0,9 C 0,0 km/h (0 Bft) 100 %
07.12.2017 06:04 3,4 C 83 % 1019,5 hPa 0,0 l/m 1,0 km/h (0 Bft) W 278 0,8 C 6,3 km/h (2 Bft) 100 %
07.12.2017 06:05 3,4 C 83 % 1019,4 hPa 0,0 l/m 3,7 km/h (1 Bft) S 186 0,8 C 6,3 km/h (2 Bft) 96 %
07.12.2017 06:06 3,4 C 83 % 1019,5 hPa 0,0 l/m 2,5 km/h (1 Bft) W-NW 288 0,8 C 6,3 km/h (2 Bft) 96 %
07.12.2017 06:07 3,4 C 82 % 1019,5 hPa 0,0 l/m 2,7 km/h (1 Bft) W 265 0,6 C 9,4 km/h (2 Bft) 100 %
07.12.2017 06:08 3,4 C 83 % 1019,4 hPa 0,0 l/m 5,1 km/h (1 Bft) S-SO 166 0,8 C 12,6 km/h (3 Bft) 96 %
07.12.2017 06:09 3,4 C 83 % 1019,4 hPa 0,0 l/m 2,1 km/h (1 Bft) N 6 0,8 C 3,1 km/h (1 Bft) 100 %
07.12.2017 06:10 3,4 C 83 % 1019,4 hPa 0,0 l/m 1,0 km/h (0 Bft) W-NW 290 0,8 C 3,1 km/h (1 Bft) 93 %
07.12.2017 06:11 3,3 C 83 % 1019,3 hPa 0,0 l/m 4,3 km/h (1 Bft) SW 233 0,7 C 12,6 km/h (3 Bft) 100 %
07.12.2017 06:12 3,3 C 83 % 1019,3 hPa 0,0 l/m 1,2 km/h (1 Bft) NO 51 0,7 C 3,1 km/h (1 Bft) 96 %
07.12.2017 06:13 3,3 C 83 % 1019,3 hPa 0,0 l/m 0,8 km/h (0 Bft) N-NW 333 0,7 C 3,1 km/h (1 Bft) 96 %
07.12.2017 06:14 3,3 C 83 % 1019,3 hPa 0,0 l/m 1,9 km/h (1 Bft) N 4 0,7 C 6,3 km/h (2 Bft) 100 %
07.12.2017 06:15 3,3 C 83 % 1019,3 hPa 0,0 l/m 0,9 km/h (0 Bft) W-SW 254 0,7 C 6,3 km/h (2 Bft) 96 %
07.12.2017 06:16 3,3 C 83 % 1019,3 hPa 0,0 l/m 1,7 km/h (1 Bft) W-NW 302 0,7 C 9,4 km/h (2 Bft) 100 %
07.12.2017 06:17 3,2 C 83 % 1019,3 hPa 0,0 l/m 8,5 km/h (2 Bft) S-SW 210 0,6 C 31,4 km/h (5 Bft) 96 %
07.12.2017 06:18 3,2 C 83 % 1019,3 hPa 0,0 l/m 2,0 km/h (1 Bft) N-NO 28 0,6 C 6,3 km/h (2 Bft) 100 %
07.12.2017 06:19 3,2 C 83 % 1019,4 hPa 0,0 l/m 4,2 km/h (1 Bft) O-NO 68 0,6 C 9,4 km/h (2 Bft) 96 %
07.12.2017 06:20 3,2 C 83 % 1019,3 hPa 0,0 l/m 0,6 km/h (0 Bft) SW 217 0,6 C 3,1 km/h (1 Bft) 96 %
07.12.2017 06:21 3,2 C 83 % 1019,3 hPa 0,0 l/m 1,4 km/h (1 Bft) SW 226 0,6 C 9,4 km/h (2 Bft) 100 %
07.12.2017 06:22 3,2 C 83 % 1019,2 hPa 0,0 l/m 4,1 km/h (1 Bft) SW 224 0,6 C 15,7 km/h (3 Bft) 100 %
07.12.2017 06:23 3,1 C 83 % 1019,3 hPa 0,0 l/m 2,6 km/h (1 Bft) SW 236 0,5 C 15,7 km/h (3 Bft) 96 %
07.12.2017 06:24 3,2 C 83 % 1019,3 hPa 0,0 l/m 11,6 km/h (2 Bft) S 173 0,6 C 25,1 km/h (4 Bft) 96 %
07.12.2017 06:25 3,1 C 83 % 1019,3 hPa 0,0 l/m 16,0 km/h (3 Bft) W 268 0,5 C 31,4 km/h (5 Bft) 100 %
07.12.2017 06:26 3,2 C 83 % 1019,3 hPa 0,0 l/m 8,2 km/h (2 Bft) W-SW 244 0,6 C 15,7 km/h (3 Bft) 96 %
07.12.2017 06:27 3,2 C 82 % 1019,3 hPa 0,0 l/m 12,4 km/h (3 Bft) W 279 0,4 C 25,1 km/h (4 Bft) 100 %
07.12.2017 06:28 3,2 C 82 % 1019,3 hPa 0,0 l/m 7,7 km/h (2 Bft) NW 304 0,4 C 22,0 km/h (4 Bft) 93 %
07.12.2017 06:29 3,2 C 82 % 1019,2 hPa 0,0 l/m 1,8 km/h (1 Bft) SO 128 0,4 C 6,3 km/h (2 Bft) 100 %
07.12.2017 06:30 3,1 C 83 % 1019,1 hPa 0,0 l/m 8,6 km/h (2 Bft) W-NW 291 0,5 C 25,1 km/h (4 Bft) 96 %
07.12.2017 06:31 3,1 C 83 % 1019,1 hPa 0,0 l/m 5,5 km/h (1 Bft) S-SW 213 0,5 C 25,1 km/h (4 Bft) 96 %
07.12.2017 06:32 3,1 C 83 % 1019,2 hPa 0,0 l/m 6,8 km/h (2 Bft) W-SW 245 0,5 C 15,7 km/h (3 Bft) 100 %
07.12.2017 06:33 3,1 C 83 % 1019,2 hPa 0,0 l/m 8,5 km/h (2 Bft) S-SW 204 0,5 C 18,8 km/h (3 Bft) 100 %
07.12.2017 06:34 3,1 C 83 % 1019,2 hPa 0,0 l/m 6,3 km/h (2 Bft) SO 126 0,5 C 12,6 km/h (3 Bft) 100 %
07.12.2017 06:35 3,1 C 83 % 1019,2 hPa 0,0 l/m 2,0 km/h (1 Bft) O-NO 58 0,5 C 6,3 km/h (2 Bft) 100 %
07.12.2017 06:36 3,1 C 83 % 1019,2 hPa 0,0 l/m 4,6 km/h (1 Bft) S 191 0,5 C 12,6 km/h (3 Bft) 100 %
07.12.2017 06:37 3,1 C 83 % 1019,2 hPa 0,0 l/m 10,1 km/h (2 Bft) W 276 0,5 C 18,8 km/h (3 Bft) 100 %
07.12.2017 06:38 3,0 C 83 % 1019,2 hPa 0,0 l/m 4,6 km/h (1 Bft) S-SO 166 0,4 C 9,4 km/h (2 Bft) 100 %
07.12.2017 06:39 3,0 C 83 % 1019,2 hPa 0,0 l/m 3,4 km/h (1 Bft) NW 320 0,4 C 15,7 km/h (3 Bft) 100 %
07.12.2017 06:40 2,9 C 83 % 1019,2 hPa 0,0 l/m 2,4 km/h (1 Bft) SW 236 0,3 C 3,1 km/h (1 Bft) 100 %
07.12.2017 06:41 2,9 C 83 % 1019,1 hPa 0,0 l/m 6,3 km/h (2 Bft) SW 231 0,3 C 12,6 km/h (3 Bft) 100 %
07.12.2017 06:42 2,9 C 83 % 1019,1 hPa 0,0 l/m 3,5 km/h (1 Bft) N-NW 332 0,3 C 9,4 km/h (2 Bft) 100 %
07.12.2017 06:43 2,9 C 83 % 1019,1 hPa 0,0 l/m 7,2 km/h (2 Bft) SW 221 0,3 C 15,7 km/h (3 Bft) 100 %
07.12.2017 06:44 2,9 C 83 % 1019,1 hPa 0,0 l/m 3,0 km/h (1 Bft) NO 52 0,3 C 6,3 km/h (2 Bft) 100 %
07.12.2017 06:45 2,9 C 83 % 1019,1 hPa 0,0 l/m 8,2 km/h (2 Bft) SO 124 0,3 C 28,2 km/h (4 Bft) 100 %
07.12.2017 06:46 2,8 C 83 % 1019,1 hPa 0,0 l/m 3,7 km/h (1 Bft) N-NO 20 0,2 C 12,6 km/h (3 Bft) 100 %
07.12.2017 06:47 2,8 C 83 % 1019,0 hPa 0,0 l/m 3,1 km/h (1 Bft) W-SW 248 0,2 C 6,3 km/h (2 Bft) 100 %
07.12.2017 06:48 2,8 C 83 % 1018,9 hPa 0,0 l/m 1,3 km/h (1 Bft) SW 226 0,2 C 9,4 km/h (2 Bft) 100 %
07.12.2017 06:49 2,8 C 83 % 1018,9 hPa 0,0 l/m 9,9 km/h (2 Bft) SW 231 0,2 C 25,1 km/h (4 Bft) 100 %
07.12.2017 06:50 2,8 C 83 % 1018,9 hPa 0,0 l/m 3,6 km/h (1 Bft) W 264 0,2 C 12,6 km/h (3 Bft) 100 %
07.12.2017 06:51 2,7 C 84 % 1019,0 hPa 0,0 l/m 12,0 km/h (2 Bft) SW 233 0,3 C 25,1 km/h (4 Bft) 100 %
07.12.2017 06:52 2,7 C 84 % 1019,0 hPa 0,0 l/m 3,3 km/h (1 Bft) W-SW 243 0,3 C 18,8 km/h (3 Bft) 100 %
07.12.2017 06:53 2,7 C 84 % 1019,0 hPa 0,0 l/m 2,5 km/h (1 Bft) W-SW 243 0,3 C 6,3 km/h (2 Bft) 99 %
07.12.2017 06:54 2,7 C 84 % 1019,0 hPa 0,0 l/m 9,1 km/h (2 Bft) NW 326 0,3 C 18,8 km/h (3 Bft) 100 %
07.12.2017 06:55 2,7 C 84 % 1019,0 hPa 0,0 l/m 1,4 km/h (1 Bft) SW 224 0,3 C 3,1 km/h (1 Bft) 100 %
07.12.2017 06:56 2,7 C 84 % 1019,0 hPa 0,0 l/m 3,1 km/h (1 Bft) N-NW 339 0,3 C 9,4 km/h (2 Bft) 100 %
07.12.2017 06:57 2,7 C 84 % 1019,0 hPa 0,0 l/m 6,7 km/h (2 Bft) W 279 0,3 C 15,7 km/h (3 Bft) 100 %
07.12.2017 06:58 2,7 C 84 % 1019,0 hPa 0,0 l/m 3,5 km/h (1 Bft) W-NW 302 0,3 C 9,4 km/h (2 Bft) 100 %
07.12.2017 06:59 2,6 C 84 % 1018,9 hPa 0,0 l/m 2,6 km/h (1 Bft) N 3 0,2 C 6,3 km/h (2 Bft) 100 %
07.12.2017 07:00 2,6 C 84 % 1018,9 hPa 0,0 l/m 1,7 km/h (1 Bft) NW 318 0,2 C 6,3 km/h (2 Bft) 100 %
07.12.2017 07:01 2,6 C 84 % 1018,9 hPa 0,0 l/m 7,8 km/h (2 Bft) S-SW 210 0,2 C 18,8 km/h (3 Bft) 100 %
07.12.2017 07:02 2,6 C 84 % 1018,8 hPa 0,0 l/m 10,5 km/h (2 Bft) S 185 0,2 C 18,8 km/h (3 Bft) 100 %
07.12.2017 07:03 2,6 C 84 % 1018,8 hPa 0,0 l/m 8,9 km/h (2 Bft) S 177 0,2 C 22,0 km/h (4 Bft) 100 %
07.12.2017 07:04 2,6 C 84 % 1018,8 hPa 0,0 l/m 11,9 km/h (2 Bft) S-SW 200 0,2 C 22,0 km/h (4 Bft) 100 %
07.12.2017 07:05 2,6 C 84 % 1018,8 hPa 0,0 l/m 7,5 km/h (2 Bft) W-NW 294 0,2 C 12,6 km/h (3 Bft) 100 %
07.12.2017 07:06 2,6 C 84 % 1018,8 hPa 0,0 l/m 7,5 km/h (2 Bft) W-NW 299 0,2 C 12,6 km/h (3 Bft) 100 %
07.12.2017 07:07 2,6 C 84 % 1018,8 hPa 0,0 l/m 5,6 km/h (1 Bft) S-SO 154 0,2 C 12,6 km/h (3 Bft) 100 %
07.12.2017 07:08 2,6 C 84 % 1018,7 hPa 0,0 l/m 6,4 km/h (2 Bft) W-SW 244 0,2 C 12,6 km/h (3 Bft) 100 %
07.12.2017 07:09 2,6 C 85 % 1018,7 hPa 0,0 l/m 6,8 km/h (2 Bft) S-SW 198 0,3 C 15,7 km/h (3 Bft) 100 %
07.12.2017 07:10 2,6 C 85 % 1018,7 hPa 0,0 l/m 11,9 km/h (2 Bft) SW 234 0,3 C 18,8 km/h (3 Bft) 100 %
07.12.2017 07:11 2,6 C 85 % 1018,7 hPa 0,0 l/m 10,6 km/h (2 Bft) W 259 0,3 C 22,0 km/h (4 Bft) 100 %
07.12.2017 07:12 2,6 C 85 % 1018,7 hPa 0,0 l/m 6,9 km/h (2 Bft) S 171 0,3 C 15,7 km/h (3 Bft) 100 %
07.12.2017 07:13 2,6 C 84 % 1018,7 hPa 0,0 l/m 7,6 km/h (2 Bft) S-SW 212 0,2 C 12,6 km/h (3 Bft) 100 %
07.12.2017 07:14 2,6 C 84 % 1018,7 hPa 0,0 l/m 6,1 km/h (2 Bft) SW 235 0,2 C 18,8 km/h (3 Bft) 100 %
07.12.2017 07:15 2,6 C 85 % 1018,6 hPa 0,0 l/m 5,4 km/h (1 Bft) SW 229 0,3 C 18,8 km/h (3 Bft) 100 %
07.12.2017 07:16 2,6 C 85 % 1018,6 hPa 0,0 l/m 1,7 km/h (1 Bft) S-SW 203 0,3 C 6,3 km/h (2 Bft) 100 %
07.12.2017 07:17 2,6 C 85 % 1018,6 hPa 0,0 l/m 1,3 km/h (1 Bft) S-SW 210 0,3 C 9,4 km/h (2 Bft) 100 %
07.12.2017 07:18 2,6 C 85 % 1018,6 hPa 0,0 l/m 10,6 km/h (2 Bft) SW 225 0,3 C 15,7 km/h (3 Bft) 100 %
07.12.2017 07:19 2,6 C 85 % 1018,6 hPa 0,0 l/m 5,6 km/h (1 Bft) W-SW 244 0,3 C 15,7 km/h (3 Bft) 100 %
07.12.2017 07:20 2,6 C 85 % 1018,6 hPa 0,0 l/m 3,0 km/h (1 Bft) SW 235 0,3 C 9,4 km/h (2 Bft) 100 %
07.12.2017 07:21 2,6 C 85 % 1018,6 hPa 0,0 l/m 6,9 km/h (2 Bft) S-SW 207 0,3 C 9,4 km/h (2 Bft) 100 %
07.12.2017 07:22 2,6 C 85 % 1018,5 hPa 0,0 l/m 2,9 km/h (1 Bft) SW 232 0,3 C 6,3 km/h (2 Bft) 100 %
07.12.2017 07:23 2,6 C 85 % 1018,5 hPa 0,0 l/m 7,7 km/h (2 Bft) SW 228 0,3 C 18,8 km/h (3 Bft) 96 %
07.12.2017 07:24 2,6 C 85 % 1018,4 hPa 0,0 l/m 12,7 km/h (3 Bft) W 276 0,3 C 25,1 km/h (4 Bft) 100 %
07.12.2017 07:25 2,6 C 85 % 1018,4 hPa 0,0 l/m 5,3 km/h (1 Bft) SW 224 0,3 C 12,6 km/h (3 Bft) 100 %
07.12.2017 07:26 2,5 C 85 % 1018,3 hPa 0,0 l/m 1,6 km/h (1 Bft) O-SO 118 0,2 C 6,3 km/h (2 Bft) 100 %
07.12.2017 07:27 2,6 C 85 % 1018,3 hPa 0,0 l/m 3,5 km/h (1 Bft) SW 229 0,3 C 9,4 km/h (2 Bft) 96 %
07.12.2017 07:28 2,6 C 85 % 1018,3 hPa 0,0 l/m 3,3 km/h (1 Bft) SW 220 0,3 C 9,4 km/h (2 Bft) 100 %
07.12.2017 07:29 2,5 C 85 % 1018,2 hPa 0,0 l/m 9,1 km/h (2 Bft) SW 233 0,2 C 22,0 km/h (4 Bft) 100 %
07.12.2017 07:30 2,5 C 85 % 1018,2 hPa 0,0 l/m 7,2 km/h (2 Bft) SW 220 0,2 C 15,7 km/h (3 Bft) 100 %
07.12.2017 07:31 2,6 C 85 % 1018,2 hPa 0,0 l/m 4,9 km/h (1 Bft) S-SO 148 0,3 C 12,6 km/h (3 Bft) 100 %
07.12.2017 07:32 2,6 C 86 % 1018,1 hPa 0,0 l/m 4,6 km/h (1 Bft) O 85 0,5 C 12,6 km/h (3 Bft) 100 %
07.12.2017 07:33 2,6 C 85 % 1018,1 hPa 0,0 l/m 1,7 km/h (1 Bft) W-NW 296 0,3 C 6,3 km/h (2 Bft) 100 %
07.12.2017 07:34 2,6 C 85 % 1018,1 hPa 0,0 l/m 5,1 km/h (1 Bft) S-SW 200 0,3 C 12,6 km/h (3 Bft) 100 %
07.12.2017 07:35 2,6 C 85 % 1018,1 hPa 0,0 l/m 0,8 km/h (0 Bft) W 270 0,3 C 3,1 km/h (1 Bft) 100 %
07.12.2017 07:36 2,5 C 85 % 1018,1 hPa 0,0 l/m 1,9 km/h (1 Bft) SW 226 0,2 C 12,6 km/h (3 Bft) 100 %
07.12.2017 07:37 2,5 C 85 % 1018,0 hPa 0,0 l/m 0,3 km/h (0 Bft) SO 134 0,2 C 3,1 km/h (1 Bft) 100 %
07.12.2017 07:38 2,5 C 85 % 1018,0 hPa 0,0 l/m 5,2 km/h (1 Bft) S-SO 156 0,2 C 15,7 km/h (3 Bft) 100 %
07.12.2017 07:39 2,5 C 86 % 1018,0 hPa 0,0 l/m 2,9 km/h (1 Bft) SW 228 0,4 C 15,7 km/h (3 Bft) 100 %
07.12.2017 07:40 2,4 C 86 % 1017,9 hPa 0,0 l/m 5,6 km/h (1 Bft) W-SW 247 0,3 C 9,4 km/h (2 Bft) 100 %
07.12.2017 07:41 2,5 C 86 % 1018,0 hPa 0,0 l/m 2,4 km/h (1 Bft) SW 230 0,4 C 6,3 km/h (2 Bft) 100 %
07.12.2017 07:42 2,4 C 86 % 1018,0 hPa 0,0 l/m 2,4 km/h (1 Bft) SW 236 0,3 C 9,4 km/h (2 Bft) 100 %
07.12.2017 07:43 2,4 C 86 % 1018,1 hPa 0,0 l/m 7,6 km/h (2 Bft) S-SW 195 0,3 C 18,8 km/h (3 Bft) 100 %
07.12.2017 07:44 2,5 C 86 % 1018,0 hPa 0,0 l/m 6,0 km/h (2 Bft) O-SO 105 0,4 C 12,6 km/h (3 Bft) 100 %
07.12.2017 07:45 2,4 C 86 % 1018,0 hPa 0,0 l/m 3,6 km/h (1 Bft) S 176 0,3 C 12,6 km/h (3 Bft) 100 %
07.12.2017 07:46 2,4 C 86 % 1018,0 hPa 0,0 l/m 4,8 km/h (1 Bft) W 265 0,3 C 9,4 km/h (2 Bft) 100 %
07.12.2017 07:47 2,4 C 86 % 1018,0 hPa 0,0 l/m 5,4 km/h (1 Bft) W 279 0,3 C 12,6 km/h (3 Bft) 100 %
07.12.2017 07:48 2,4 C 86 % 1018,0 hPa 0,0 l/m 5,6 km/h (1 Bft) S 172 0,3 C 22,0 km/h (4 Bft) 100 %
07.12.2017 07:49 2,4 C 86 % 1018,0 hPa 0,0 l/m 6,9 km/h (2 Bft) W 273 0,3 C 12,6 km/h (3 Bft) 100 %
07.12.2017 07:50 2,4 C 86 % 1018,0 hPa 0,0 l/m 6,3 km/h (2 Bft) W-SW 241 0,3 C 12,6 km/h (3 Bft) 100 %
07.12.2017 07:51 2,4 C 86 % 1018,0 hPa 0,0 l/m 7,5 km/h (2 Bft) SW 229 0,3 C 15,7 km/h (3 Bft) 100 %
07.12.2017 07:52 2,4 C 86 % 1018,0 hPa 0,0 l/m 4,8 km/h (1 Bft) SW 215 0,3 C 12,6 km/h (3 Bft) 100 %
07.12.2017 07:53 2,5 C 86 % 1018,2 hPa 0,0 l/m 6,3 km/h (2 Bft) S-SW 212 0,4 C 15,7 km/h (3 Bft) 100 %
07.12.2017 07:54 2,4 C 86 % 1018,1 hPa 0,0 l/m 1,6 km/h (1 Bft) W 262 0,3 C 6,3 km/h (2 Bft) 100 %
07.12.2017 07:55 2,4 C 86 % 1018,1 hPa 0,0 l/m 5,2 km/h (1 Bft) SW 218 0,3 C 15,7 km/h (3 Bft) 100 %
07.12.2017 07:56 2,5 C 86 % 1018,1 hPa 0,0 l/m 0,5 km/h (0 Bft) N 4 0,4 C 3,1 km/h (1 Bft) 100 %
07.12.2017 07:57 2,5 C 86 % 1018,1 hPa 0,0 l/m 6,0 km/h (2 Bft) SW 223 0,4 C 28,2 km/h (4 Bft) 100 %
07.12.2017 07:58 2,5 C 86 % 1018,2 hPa 0,0 l/m 4,1 km/h (1 Bft) S 176 0,4 C 9,4 km/h (2 Bft) 92 %
07.12.2017 07:59 2,5 C 86 % 1018,1 hPa 0,0 l/m 7,3 km/h (2 Bft) SW 234 0,4 C 12,6 km/h (3 Bft) 92 %
07.12.2017 08:00 2,5 C 86 % 1018,1 hPa 0,0 l/m 6,3 km/h (2 Bft) W-SW 240 0,4 C 12,6 km/h (3 Bft) 100 %
07.12.2017 08:01 2,5 C 86 % 1018,0 hPa 0,0 l/m 9,7 km/h (2 Bft) SW 220 0,4 C 22,0 km/h (4 Bft) 100 %
07.12.2017 08:02 2,5 C 86 % 1018,0 hPa 0,0 l/m 2,2 km/h (1 Bft) N-NW 339 0,4 C 9,4 km/h (2 Bft) 100 %
07.12.2017 08:03 2,5 C 86 % 1018,0 hPa 0,0 l/m 4,3 km/h (1 Bft) W 267 0,4 C 12,6 km/h (3 Bft) 100 %
07.12.2017 08:04 2,5 C 86 % 1018,0 hPa 0,0 l/m 2,0 km/h (1 Bft) W 269 0,4 C 6,3 km/h (2 Bft) 100 %
07.12.2017 08:05 2,5 C 86 % 1018,0 hPa 0,0 l/m 1,1 km/h (1 Bft) W-SW 250 0,4 C 3,1 km/h (1 Bft) 93 %
07.12.2017 08:06 2,4 C 86 % 1018,0 hPa 0,0 l/m 3,0 km/h (1 Bft) O-SO 105 0,3 C 9,4 km/h (2 Bft) 100 %
07.12.2017 08:07 2,4 C 86 % 1018,0 hPa 0,0 l/m 1,9 km/h (1 Bft) NO 41 0,3 C 9,4 km/h (2 Bft) 96 %
07.12.2017 08:08 2,4 C 86 % 1018,0 hPa 0,0 l/m 2,6 km/h (1 Bft) NO 53 0,3 C 9,4 km/h (2 Bft) 100 %
07.12.2017 08:09 2,4 C 86 % 1017,9 hPa 0,0 l/m 7,6 km/h (2 Bft) N-NO 30 0,3 C 22,0 km/h (4 Bft) 100 %
07.12.2017 08:10 2,4 C 86 % 1018,0 hPa 0,0 l/m 2,0 km/h (1 Bft) W-SW 240 0,3 C 9,4 km/h (2 Bft) 100 %
07.12.2017 08:11 2,4 C 86 % 1018,0 hPa 0,0 l/m 5,6 km/h (1 Bft) W-SW 237 0,3 C 12,6 km/h (3 Bft) 100 %
07.12.2017 08:12 2,4 C 86 % 1018,0 hPa 0,0 l/m 10,0 km/h (2 Bft) W-SW 243 0,3 C 22,0 km/h (4 Bft) 100 %
07.12.2017 08:13 2,4 C 86 % 1018,0 hPa 0,0 l/m 3,8 km/h (1 Bft) O-SO 120 0,3 C 9,4 km/h (2 Bft) 100 %
07.12.2017 08:14 2,4 C 86 % 1018,0 hPa 0,0 l/m 2,3 km/h (1 Bft) NO 53 0,3 C 6,3 km/h (2 Bft) 100 %
07.12.2017 08:15 2,4 C 86 % 1017,9 hPa 0,0 l/m 1,5 km/h (1 Bft) W-NW 300 0,3 C 6,3 km/h (2 Bft) 100 %
07.12.2017 08:16 2,4 C 86 % 1017,9 hPa 0,0 l/m 0,7 km/h (0 Bft) O-NO 60 0,3 C 3,1 km/h (1 Bft) 100 %
07.12.2017 08:17 2,4 C 86 % 1018,0 hPa 0,0 l/m 0,1 km/h (0 Bft) NO 55 0,3 C 3,1 km/h (1 Bft) 100 %
07.12.2017 08:18 2,4 C 86 % 1017,9 hPa 0,0 l/m 4,1 km/h (1 Bft) SW 221 0,3 C 12,6 km/h (3 Bft) 100 %
07.12.2017 08:19 2,4 C 86 % 1017,9 hPa 0,0 l/m 5,5 km/h (1 Bft) W 269 0,3 C 12,6 km/h (3 Bft) 100 %
07.12.2017 08:20 2,4 C 86 % 1018,0 hPa 0,0 l/m 4,1 km/h (1 Bft) SW 232 0,3 C 12,6 km/h (3 Bft) 100 %
07.12.2017 08:21 2,4 C 86 % 1017,9 hPa 0,0 l/m 7,3 km/h (2 Bft) W-SW 255 0,3 C 18,8 km/h (3 Bft) 100 %
07.12.2017 08:22 2,4 C 86 % 1018,0 hPa 0,0 l/m 5,9 km/h (2 Bft) SO 138 0,3 C 18,8 km/h (3 Bft) 100 %
07.12.2017 08:23 2,5 C 86 % 1018,0 hPa 0,0 l/m 7,4 km/h (2 Bft) N-NO 21 0,4 C 12,6 km/h (3 Bft) 100 %
07.12.2017 08:24 2,5 C 87 % 1018,0 hPa 0,0 l/m 7,5 km/h (2 Bft) W-NW 301 0,6 C 15,7 km/h (3 Bft) 100 %
07.12.2017 08:25 2,5 C 86 % 1018,0 hPa 0,0 l/m 13,7 km/h (3 Bft) W-SW 239 0,4 C 31,4 km/h (5 Bft) 100 %
07.12.2017 08:26 2,6 C 86 % 1017,9 hPa 0,0 l/m 2,0 km/h (1 Bft) O 94 0,5 C 12,6 km/h (3 Bft) 100 %
07.12.2017 08:27 2,6 C 86 % 1017,9 hPa 0,0 l/m 4,6 km/h (1 Bft) N 1 0,5 C 12,6 km/h (3 Bft) 100 %
07.12.2017 08:28 2,6 C 86 % 1017,9 hPa 0,0 l/m 4,2 km/h (1 Bft) SW 225 0,5 C 18,8 km/h (3 Bft) 100 %
07.12.2017 08:29 2,6 C 86 % 1017,9 hPa 0,0 l/m 4,4 km/h (1 Bft) SW 226 0,5 C 15,7 km/h (3 Bft) 100 %
07.12.2017 08:30 2,6 C 86 % 1017,9 hPa 0,0 l/m 6,1 km/h (2 Bft) W-SW 248 0,5 C 12,6 km/h (3 Bft) 100 %
07.12.2017 08:31 2,6 C 86 % 1017,9 hPa 0,0 l/m 10,0 km/h (2 Bft) W 264 0,5 C 28,2 km/h (4 Bft) 100 %
07.12.2017 08:32 2,6 C 86 % 1017,8 hPa 0,0 l/m 12,4 km/h (3 Bft) SO 144 0,5 C 22,0 km/h (4 Bft) 100 %
07.12.2017 08:33 2,6 C 86 % 1017,8 hPa 0,0 l/m 3,4 km/h (1 Bft) W-NW 286 0,5 C 9,4 km/h (2 Bft) 100 %
07.12.2017 08:34 2,6 C 86 % 1017,8 hPa 0,0 l/m 4,8 km/h (1 Bft) NO 34 0,5 C 15,7 km/h (3 Bft) 100 %
07.12.2017 08:35 2,6 C 86 % 1017,8 hPa 0,0 l/m 4,4 km/h (1 Bft) W-SW 240 0,5 C 15,7 km/h (3 Bft) 100 %
07.12.2017 08:36 2,6 C 86 % 1017,8 hPa 0,0 l/m 1,7 km/h (1 Bft) S 189 0,5 C 15,7 km/h (3 Bft) 100 %
07.12.2017 08:37 2,6 C 86 % 1017,8 hPa 0,0 l/m 3,4 km/h (1 Bft) NW 307 0,5 C 9,4 km/h (2 Bft) 100 %
07.12.2017 08:38 2,6 C 86 % 1017,8 hPa 0,0 l/m 4,8 km/h (1 Bft) O-SO 123 0,5 C 15,7 km/h (3 Bft) 100 %
07.12.2017 08:39 2,6 C 86 % 1017,8 hPa 0,0 l/m 11,3 km/h (2 Bft) W 269 0,5 C 25,1 km/h (4 Bft) 100 %
07.12.2017 08:40 2,6 C 86 % 1017,8 hPa 0,0 l/m 10,1 km/h (2 Bft) NW 307 0,5 C 15,7 km/h (3 Bft) 100 %
07.12.2017 08:41 2,6 C 86 % 1017,8 hPa 0,0 l/m 4,1 km/h (1 Bft) W-SW 254 0,5 C 9,4 km/h (2 Bft) 100 %
07.12.2017 08:42 2,6 C 86 % 1017,8 hPa 0,0 l/m 5,0 km/h (1 Bft) W-SW 258 0,5 C 12,6 km/h (3 Bft) 100 %
07.12.2017 08:43 2,6 C 86 % 1017,7 hPa 0,0 l/m 2,4 km/h (1 Bft) S-SO 165 0,5 C 6,3 km/h (2 Bft) 100 %
07.12.2017 08:44 2,6 C 86 % 1017,7 hPa 0,0 l/m 1,8 km/h (1 Bft) W-SW 258 0,5 C 6,3 km/h (2 Bft) 100 %
07.12.2017 08:45 2,6 C 86 % 1017,7 hPa 0,0 l/m 9,2 km/h (2 Bft) O-SO 121 0,5 C 28,2 km/h (4 Bft) 100 %
07.12.2017 08:46 2,6 C 86 % 1017,6 hPa 0,0 l/m 5,1 km/h (1 Bft) N-NW 331 0,5 C 15,7 km/h (3 Bft) 100 %
07.12.2017 08:47 2,6 C 86 % 1017,6 hPa 0,0 l/m 7,0 km/h (2 Bft) SW 226 0,5 C 12,6 km/h (3 Bft) 100 %
07.12.2017 08:48 2,6 C 86 % 1017,7 hPa 0,0 l/m 7,6 km/h (2 Bft) NW 319 0,5 C 18,8 km/h (3 Bft) 100 %
07.12.2017 08:49 2,6 C 86 % 1017,7 hPa 0,0 l/m 6,8 km/h (2 Bft) NO 41 0,5 C 12,6 km/h (3 Bft) 100 %
07.12.2017 08:50 2,6 C 86 % 1017,6 hPa 0,0 l/m 2,8 km/h (1 Bft) NO 43 0,5 C 9,4 km/h (2 Bft) 100 %
07.12.2017 08:51 2,6 C 86 % 1017,6 hPa 0,0 l/m 6,1 km/h (2 Bft) NW 315 0,5 C 12,6 km/h (3 Bft) 100 %
07.12.2017 08:52 2,6 C 86 % 1017,4 hPa 0,0 l/m 10,6 km/h (2 Bft) SW 223 0,5 C 28,2 km/h (4 Bft) 100 %
07.12.2017 08:53 2,6 C 86 % 1017,4 hPa 0,0 l/m 4,7 km/h (1 Bft) S-SO 168 0,5 C 12,6 km/h (3 Bft) 100 %
07.12.2017 08:54 2,6 C 86 % 1017,5 hPa 0,0 l/m 4,7 km/h (1 Bft) O-NO 59 0,5 C 9,4 km/h (2 Bft) 100 %
07.12.2017 08:55 2,6 C 86 % 1017,5 hPa 0,0 l/m 5,2 km/h (1 Bft) S-SO 153 0,5 C 15,7 km/h (3 Bft) 100 %
07.12.2017 08:56 2,6 C 86 % 1017,5 hPa 0,0 l/m 11,1 km/h (2 Bft) S-SO 157 0,5 C 18,8 km/h (3 Bft) 100 %
07.12.2017 08:57 2,6 C 86 % 1017,5 hPa 0,0 l/m 6,0 km/h (2 Bft) S-SW 210 0,5 C 15,7 km/h (3 Bft) 100 %
07.12.2017 08:58 2,6 C 86 % 1017,5 hPa 0,0 l/m 2,0 km/h (1 Bft) W-SW 240 0,5 C 6,3 km/h (2 Bft) 100 %
07.12.2017 08:59 2,6 C 86 % 1017,5 hPa 0,0 l/m 2,9 km/h (1 Bft) SW 222 0,5 C 12,6 km/h (3 Bft) 100 %
07.12.2017 09:00 2,6 C 86 % 1017,5 hPa 0,0 l/m 0,8 km/h (0 Bft) W 264 0,5 C 3,1 km/h (1 Bft) 100 %
07.12.2017 09:01 2,6 C 86 % 1017,5 hPa 0,0 l/m 1,6 km/h (1 Bft) S-SO 155 0,5 C 12,6 km/h (3 Bft) 100 %
07.12.2017 09:02 2,6 C 86 % 1017,4 hPa 0,0 l/m 7,3 km/h (2 Bft) W 261 0,5 C 18,8 km/h (3 Bft) 100 %
07.12.2017 09:03 2,5 C 86 % 1017,4 hPa 0,0 l/m 6,3 km/h (2 Bft) W-NW 301 0,4 C 22,0 km/h (4 Bft) 100 %
07.12.2017 09:04 2,5 C 86 % 1017,5 hPa 0,0 l/m 8,8 km/h (2 Bft) NO 51 0,4 C 22,0 km/h (4 Bft) 100 %
07.12.2017 09:05 2,5 C 86 % 1017,4 hPa 0,0 l/m 8,8 km/h (2 Bft) S-SW 199 0,4 C 22,0 km/h (4 Bft) 100 %
07.12.2017 09:06 2,5 C 86 % 1017,4 hPa 0,0 l/m 10,0 km/h (2 Bft) S-SW 211 0,4 C 22,0 km/h (4 Bft) 100 %
07.12.2017 09:07 2,5 C 86 % 1017,4 hPa 0,0 l/m 3,1 km/h (1 Bft) W 259 0,4 C 6,3 km/h (2 Bft) 100 %
07.12.2017 09:08 2,5 C 86 % 1017,4 hPa 0,0 l/m 4,5 km/h (1 Bft) O-NO 66 0,4 C 18,8 km/h (3 Bft) 100 %
07.12.2017 09:09 2,5 C 86 % 1017,4 hPa 0,0 l/m 5,7 km/h (1 Bft) O-SO 117 0,4 C 12,6 km/h (3 Bft) 100 %
07.12.2017 09:10 2,5 C 86 % 1017,5 hPa 0,0 l/m 4,7 km/h (1 Bft) W-SW 250 0,4 C 12,6 km/h (3 Bft) 100 %
07.12.2017 09:11 2,5 C 86 % 1017,4 hPa 0,0 l/m 5,4 km/h (1 Bft) O-NO 62 0,4 C 15,7 km/h (3 Bft) 100 %
07.12.2017 09:12 2,4 C 86 % 1017,4 hPa 0,0 l/m 4,9 km/h (1 Bft) W-SW 252 0,3 C 18,8 km/h (3 Bft) 100 %
07.12.2017 09:13 2,4 C 86 % 1017,3 hPa 0,0 l/m 5,8 km/h (2 Bft) W 264 0,3 C 12,6 km/h (3 Bft) 100 %
07.12.2017 09:14 2,4 C 86 % 1017,4 hPa 0,0 l/m 8,4 km/h (2 Bft) NO 52 0,3 C 28,2 km/h (4 Bft) 100 %
07.12.2017 09:15 2,4 C 86 % 1017,2 hPa 0,0 l/m 3,1 km/h (1 Bft) SW 236 0,3 C 12,6 km/h (3 Bft) 100 %
07.12.2017 09:16 2,4 C 86 % 1017,2 hPa 0,0 l/m 6,7 km/h (2 Bft) O-SO 103 0,3 C 18,8 km/h (3 Bft) 100 %
07.12.2017 09:17 2,4 C 86 % 1017,2 hPa 0,0 l/m 1,1 km/h (1 Bft) SW 216 0,3 C 3,1 km/h (1 Bft) 100 %
07.12.2017 09:18 2,4 C 86 % 1017,2 hPa 0,0 l/m 6,0 km/h (2 Bft) W 262 0,3 C 9,4 km/h (2 Bft) 100 %
07.12.2017 09:19 2,4 C 86 % 1017,2 hPa 0,0 l/m 14,0 km/h (3 Bft) SW 228 0,3 C 31,4 km/h (5 Bft) 100 %
07.12.2017 09:20 2,4 C 86 % 1017,2 hPa 0,0 l/m 5,3 km/h (1 Bft) S-SW 197 0,3 C 18,8 km/h (3 Bft) 100 %
07.12.2017 09:21 2,4 C 86 % 1017,2 hPa 0,0 l/m 6,9 km/h (2 Bft) S-SW 205 0,3 C 18,8 km/h (3 Bft) 100 %
07.12.2017 09:22 2,4 C 86 % 1017,2 hPa 0,0 l/m 11,6 km/h (2 Bft) W-NW 283 0,3 C 28,2 km/h (4 Bft) 100 %
07.12.2017 09:23 2,4 C 86 % 1017,2 hPa 0,0 l/m 1,9 km/h (1 Bft) S-SW 205 0,3 C 9,4 km/h (2 Bft) 100 %
07.12.2017 09:24 2,4 C 86 % 1017,1 hPa 0,0 l/m 3,4 km/h (1 Bft) W 276 0,3 C 9,4 km/h (2 Bft) 100 %
07.12.2017 09:25 2,4 C 86 % 1017,1 hPa 0,0 l/m 0,0 km/h (0 Bft) N-NO 13 0,3 C 0,0 km/h (0 Bft) 100 %
07.12.2017 09:26 2,4 C 86 % 1017,1 hPa 0,0 l/m 10,7 km/h (2 Bft) SW 216 0,3 C 37,7 km/h (5 Bft) 100 %
07.12.2017 09:27 2,4 C 86 % 1017,1 hPa 0,0 l/m 17,5 km/h (3 Bft) N-NO 32 0,3 C 28,2 km/h (4 Bft) 100 %
07.12.2017 09:28 2,4 C 86 % 1017,1 hPa 0,0 l/m 13,1 km/h (3 Bft) W-NW 291 0,3 C 31,4 km/h (5 Bft) 100 %
07.12.2017 09:29 2,4 C 86 % 1017,1 hPa 0,0 l/m 7,8 km/h (2 Bft) SW 229 0,3 C 22,0 km/h (4 Bft) 100 %
07.12.2017 09:30 2,3 C 86 % 1017,1 hPa 0,0 l/m 1,9 km/h (1 Bft) W-SW 245 0,2 C 6,3 km/h (2 Bft) 100 %
07.12.2017 09:31 2,3 C 86 % 1017,1 hPa 0,0 l/m 0,9 km/h (0 Bft) SW 220 0,2 C 6,3 km/h (2 Bft) 100 %
07.12.2017 09:32 2,3 C 86 % 1017,0 hPa 0,0 l/m 6,8 km/h (2 Bft) SW 236 0,2 C 12,6 km/h (3 Bft) 100 %
07.12.2017 09:33 2,3 C 86 % 1017,1 hPa 0,0 l/m 9,6 km/h (2 Bft) W-SW 255 0,2 C 15,7 km/h (3 Bft) 100 %
07.12.2017 09:34 2,3 C 86 % 1017,0 hPa 0,0 l/m 5,9 km/h (2 Bft) NW 307 0,2 C 34,5 km/h (5 Bft) 100 %
07.12.2017 09:35 2,3 C 86 % 1017,0 hPa 0,0 l/m 13,6 km/h (3 Bft) W-SW 238 0,2 C 28,2 km/h (4 Bft) 100 %
07.12.2017 09:36 2,3 C 86 % 1017,1 hPa 0,0 l/m 12,0 km/h (2 Bft) W 264 0,2 C 25,1 km/h (4 Bft) 100 %
07.12.2017 09:37 2,3 C 86 % 1017,1 hPa 0,0 l/m 12,7 km/h (3 Bft) W 261 0,2 C 25,1 km/h (4 Bft) 100 %
07.12.2017 09:38 2,3 C 86 % 1017,0 hPa 0,0 l/m 1,2 km/h (1 Bft) N-NW 329 0,2 C 3,1 km/h (1 Bft) 100 %
07.12.2017 09:39 2,3 C 86 % 1017,0 hPa 0,0 l/m 1,7 km/h (1 Bft) NO 56 0,2 C 6,3 km/h (2 Bft) 100 %
07.12.2017 09:40 2,3 C 87 % 1017,0 hPa 0,0 l/m 0,3 km/h (0 Bft) SW 228 0,4 C 3,1 km/h (1 Bft) 100 %
07.12.2017 09:41 2,3 C 87 % 1017,0 hPa 0,0 l/m 6,0 km/h (2 Bft) S-SW 200 0,4 C 12,6 km/h (3 Bft) 100 %
07.12.2017 09:42 2,3 C 87 % 1017,1 hPa 0,0 l/m 5,5 km/h (1 Bft) SO 132 0,4 C 15,7 km/h (3 Bft) 100 %
07.12.2017 09:43 2,3 C 87 % 1017,1 hPa 0,0 l/m 4,0 km/h (1 Bft) SO 124 0,4 C 15,7 km/h (3 Bft) 100 %
07.12.2017 09:44 2,3 C 87 % 1017,0 hPa 0,0 l/m 7,1 km/h (2 Bft) W-SW 246 0,4 C 12,6 km/h (3 Bft) 100 %
07.12.2017 09:45 2,3 C 87 % 1017,0 hPa 0,0 l/m 12,7 km/h (3 Bft) S-SW 196 0,4 C 25,1 km/h (4 Bft) 100 %
07.12.2017 09:46 2,3 C 86 % 1017,0 hPa 0,0 l/m 7,1 km/h (2 Bft) W-SW 245 0,2 C 34,5 km/h (5 Bft) 100 %
07.12.2017 09:47 2,3 C 86 % 1017,0 hPa 0,0 l/m 4,8 km/h (1 Bft) N-NO 32 0,2 C 9,4 km/h (2 Bft) 100 %
07.12.2017 09:48 2,3 C 86 % 1017,0 hPa 0,0 l/m 4,4 km/h (1 Bft) S-SW 212 0,2 C 18,8 km/h (3 Bft) 100 %
07.12.2017 09:49 2,3 C 86 % 1017,0 hPa 0,0 l/m 6,9 km/h (2 Bft) NW 319 0,2 C 12,6 km/h (3 Bft) 100 %
07.12.2017 09:50 2,3 C 87 % 1017,0 hPa 0,0 l/m 3,8 km/h (1 Bft) S-SO 148 0,4 C 9,4 km/h (2 Bft) 100 %
07.12.2017 09:51 2,3 C 87 % 1017,1 hPa 0,0 l/m 10,2 km/h (2 Bft) W-NW 295 0,4 C 18,8 km/h (3 Bft) 100 %
07.12.2017 09:52 2,3 C 87 % 1017,1 hPa 0,0 l/m 4,5 km/h (1 Bft) W-NW 300 0,4 C 9,4 km/h (2 Bft) 100 %
07.12.2017 09:53 2,3 C 87 % 1017,1 hPa 0,0 l/m 7,2 km/h (2 Bft) W-NW 283 0,4 C 25,1 km/h (4 Bft) 100 %
07.12.2017 09:54 2,3 C 86 % 1017,0 hPa 0,0 l/m 7,6 km/h (2 Bft) N-NO 32 0,2 C 28,2 km/h (4 Bft) 100 %
07.12.2017 09:55 2,3 C 86 % 1017,0 hPa 0,0 l/m 15,3 km/h (3 Bft) W 266 0,2 C 22,0 km/h (4 Bft) 100 %
07.12.2017 09:56 2,3 C 86 % 1017,0 hPa 0,0 l/m 15,8 km/h (3 Bft) SW 231 0,2 C 34,5 km/h (5 Bft) 100 %
07.12.2017 09:57 2,3 C 86 % 1017,0 hPa 0,0 l/m 17,4 km/h (3 Bft) S-SW 210 0,2 C 31,4 km/h (5 Bft) 100 %
07.12.2017 09:58 2,3 C 86 % 1017,0 hPa 0,0 l/m 4,6 km/h (1 Bft) W-SW 244 0,2 C 12,6 km/h (3 Bft) 100 %
07.12.2017 09:59 2,3 C 86 % 1016,9 hPa 0,0 l/m 5,8 km/h (2 Bft) NO 42 0,2 C 15,7 km/h (3 Bft) 100 %
07.12.2017 10:00 2,3 C 86 % 1016,9 hPa 0,0 l/m 4,7 km/h (1 Bft) W 267 0,2 C 15,7 km/h (3 Bft) 100 %
07.12.2017 10:01 2,3 C 86 % 1016,9 hPa 0,0 l/m 10,8 km/h (2 Bft) NW 309 0,2 C 34,5 km/h (5 Bft) 100 %
07.12.2017 10:02 2,3 C 86 % 1016,9 hPa 0,0 l/m 10,7 km/h (2 Bft) O-NO 63 0,2 C 15,7 km/h (3 Bft) 100 %
07.12.2017 10:03 2,3 C 86 % 1016,9 hPa 0,0 l/m 8,3 km/h (2 Bft) N-NW 347 0,2 C 18,8 km/h (3 Bft) 100 %
07.12.2017 10:04 2,3 C 86 % 1016,9 hPa 0,0 l/m 9,4 km/h (2 Bft) SW 234 0,2 C 25,1 km/h (4 Bft) 100 %
07.12.2017 10:05 2,3 C 86 % 1016,9 hPa 0,0 l/m 4,1 km/h (1 Bft) SW 222 0,2 C 9,4 km/h (2 Bft) 100 %
07.12.2017 10:06 2,3 C 86 % 1016,9 hPa 0,0 l/m 10,2 km/h (2 Bft) W 276 0,2 C 22,0 km/h (4 Bft) 100 %
07.12.2017 10:07 2,3 C 86 % 1016,9 hPa 0,0 l/m 9,1 km/h (2 Bft) W-SW 243 0,2 C 25,1 km/h (4 Bft) 100 %
07.12.2017 10:08 2,3 C 86 % 1016,9 hPa 0,0 l/m 11,9 km/h (2 Bft) W-SW 254 0,2 C 25,1 km/h (4 Bft) 100 %
07.12.2017 10:09 2,3 C 86 % 1016,9 hPa 0,0 l/m 11,3 km/h (2 Bft) SW 220 0,2 C 15,7 km/h (3 Bft) 100 %
07.12.2017 10:10 2,3 C 86 % 1016,8 hPa 0,0 l/m 10,5 km/h (2 Bft) W-SW 240 0,2 C 25,1 km/h (4 Bft) 100 %
07.12.2017 10:11 2,3 C 86 % 1016,8 hPa 0,0 l/m 11,6 km/h (2 Bft) N-NO 15 0,2 C 25,1 km/h (4 Bft) 100 %
07.12.2017 10:12 2,3 C 86 % 1016,8 hPa 0,0 l/m 9,1 km/h (2 Bft) S-SW 211 0,2 C 18,8 km/h (3 Bft) 100 %
07.12.2017 10:13 2,3 C 86 % 1016,8 hPa 0,0 l/m 9,0 km/h (2 Bft) S-SW 207 0,2 C 25,1 km/h (4 Bft) 100 %
07.12.2017 10:14 2,3 C 86 % 1016,9 hPa 0,0 l/m 7,5 km/h (2 Bft) SW 215 0,2 C 25,1 km/h (4 Bft) 100 %
07.12.2017 10:15 2,3 C 86 % 1017,0 hPa 0,0 l/m 3,8 km/h (1 Bft) NW 319 0,2 C 6,3 km/h (2 Bft) 100 %
07.12.2017 10:16 2,3 C 86 % 1016,9 hPa 0,0 l/m 4,7 km/h (1 Bft) W-SW 257 0,2 C 12,6 km/h (3 Bft) 100 %
07.12.2017 10:17 2,3 C 86 % 1016,9 hPa 0,0 l/m 5,5 km/h (1 Bft) O-SO 102 0,2 C 15,7 km/h (3 Bft) 100 %
07.12.2017 10:18 2,3 C 86 % 1016,8 hPa 0,0 l/m 6,8 km/h (2 Bft) W-NW 290 0,2 C 18,8 km/h (3 Bft) 100 %
07.12.2017 10:19 2,3 C 86 % 1016,8 hPa 0,0 l/m 6,0 km/h (2 Bft) S-SW 209 0,2 C 15,7 km/h (3 Bft) 100 %
07.12.2017 10:20 2,3 C 86 % 1016,8 hPa 0,0 l/m 5,2 km/h (1 Bft) SO 128 0,2 C 9,4 km/h (2 Bft) 100 %
07.12.2017 10:21 2,3 C 86 % 1016,8 hPa 0,0 l/m 5,3 km/h (1 Bft) SW 215 0,2 C 12,6 km/h (3 Bft) 100 %
07.12.2017 10:22 2,3 C 86 % 1016,8 hPa 0,0 l/m 10,0 km/h (2 Bft) W-NW 286 0,2 C 22,0 km/h (4 Bft) 100 %
07.12.2017 10:23 2,3 C 86 % 1016,8 hPa 0,0 l/m 7,2 km/h (2 Bft) W 274 0,2 C 15,7 km/h (3 Bft) 100 %
07.12.2017 10:24 2,3 C 86 % 1016,9 hPa 0,0 l/m 5,5 km/h (1 Bft) SW 226 0,2 C 12,6 km/h (3 Bft) 100 %
07.12.2017 10:25 2,4 C 86 % 1016,8 hPa 0,0 l/m 12,2 km/h (2 Bft) S-SW 210 0,3 C 25,1 km/h (4 Bft) 100 %
07.12.2017 10:32 2,4 C 85 % 1016,7 hPa 0,0 l/m 14,9 km/h (3 Bft) W 264 0,1 C 25,1 km/h (4 Bft) 100 %
07.12.2017 10:33 2,4 C 85 % 1016,7 hPa 0,0 l/m 13,8 km/h (3 Bft) W-SW 240 0,1 C 31,4 km/h (5 Bft) 100 %
07.12.2017 10:34 2,4 C 85 % 1016,8 hPa 0,0 l/m 6,7 km/h (2 Bft) S-SO 158 0,1 C 25,1 km/h (4 Bft) 100 %
07.12.2017 10:35 2,4 C 85 % 1016,8 hPa 0,0 l/m 5,5 km/h (1 Bft) SW 227 0,1 C 18,8 km/h (3 Bft) 100 %
07.12.2017 10:36 2,4 C 85 % 1016,8 hPa 0,0 l/m 11,0 km/h (2 Bft) SW 233 0,1 C 22,0 km/h (4 Bft) 100 %
07.12.2017 10:37 2,4 C 85 % 1016,8 hPa 0,0 l/m 5,1 km/h (1 Bft) W 259 0,1 C 9,4 km/h (2 Bft) 100 %
07.12.2017 10:38 2,4 C 85 % 1016,8 hPa 0,0 l/m 5,3 km/h (1 Bft) SW 214 0,1 C 12,6 km/h (3 Bft) 100 %
07.12.2017 10:39 2,4 C 85 % 1016,7 hPa 0,0 l/m 15,8 km/h (3 Bft) NW 325 0,1 C 31,4 km/h (5 Bft) 100 %
07.12.2017 10:40 2,4 C 85 % 1016,8 hPa 0,0 l/m 5,5 km/h (1 Bft) W 262 0,1 C 12,6 km/h (3 Bft) 100 %
07.12.2017 10:46 2,4 C 85 % 1016,7 hPa 0,0 l/m 6,8 km/h (2 Bft) O 90 0,1 C 9,4 km/h (2 Bft) 100 %
07.12.2017 10:47 2,4 C 85 % 1016,7 hPa 0,0 l/m 4,9 km/h (1 Bft) O 100 0,1 C 9,4 km/h (2 Bft) 100 %
07.12.2017 10:48 2,4 C 85 % 1016,7 hPa 0,0 l/m 3,0 km/h (1 Bft) W-NW 295 0,1 C 6,3 km/h (2 Bft) 100 %
07.12.2017 10:49 2,4 C 85 % 1016,6 hPa 0,0 l/m 7,8 km/h (2 Bft) S-SW 212 0,1 C 31,4 km/h (5 Bft) 100 %
07.12.2017 10:50 2,4 C 85 % 1016,7 hPa 0,0 l/m 0,2 km/h (0 Bft) N-NW 344 0,1 C 3,1 km/h (1 Bft) 100 %
07.12.2017 10:51 2,5 C 85 % 1016,8 hPa 0,0 l/m 3,0 km/h (1 Bft) W-SW 246 0,2 C 15,7 km/h (3 Bft) 100 %
07.12.2017 10:52 2,5 C 85 % 1016,7 hPa 0,0 l/m 5,3 km/h (1 Bft) SW 228 0,2 C 15,7 km/h (3 Bft) 100 %
07.12.2017 10:53 2,5 C 85 % 1016,7 hPa 0,0 l/m 13,3 km/h (3 Bft) W-SW 240 0,2 C 25,1 km/h (4 Bft) 100 %
07.12.2017 10:54 2,5 C 84 % 1016,7 hPa 0,0 l/m 11,2 km/h (2 Bft) W-NW 297 0,1 C 25,1 km/h (4 Bft) 100 %
07.12.2017 10:55 2,5 C 84 % 1016,6 hPa 0,0 l/m 4,2 km/h (1 Bft) S-SW 198 0,1 C 9,4 km/h (2 Bft) 100 %
07.12.2017 10:56 2,5 C 84 % 1016,7 hPa 0,0 l/m 10,5 km/h (2 Bft) NO 43 0,1 C 22,0 km/h (4 Bft) 100 %
07.12.2017 10:58 2,5 C 84 % 1016,6 hPa 0,0 l/m 6,6 km/h (2 Bft) O-NO 68 0,1 C 22,0 km/h (4 Bft) 100 %
07.12.2017 10:59 2,5 C 84 % 1016,6 hPa 0,0 l/m 5,7 km/h (1 Bft) NO 55 0,1 C 15,7 km/h (3 Bft) 100 %
07.12.2017 11:00 2,5 C 85 % 1016,6 hPa 0,0 l/m 5,5 km/h (1 Bft) SW 231 0,2 C 18,8 km/h (3 Bft) 100 %
07.12.2017 11:01 2,5 C 84 % 1016,5 hPa 0,0 l/m 10,0 km/h (2 Bft) NW 308 0,1 C 22,0 km/h (4 Bft) 100 %
07.12.2017 11:02 2,5 C 84 % 1016,6 hPa 0,0 l/m 7,1 km/h (2 Bft) S-SW 198 0,1 C 15,7 km/h (3 Bft) 100 %
07.12.2017 11:03 2,5 C 84 % 1016,6 hPa 0,0 l/m 9,7 km/h (2 Bft) N 2 0,1 C 34,5 km/h (5 Bft) 100 %
07.12.2017 11:04 2,5 C 84 % 1016,5 hPa 0,0 l/m 8,8 km/h (2 Bft) SW 226 0,1 C 22,0 km/h (4 Bft) 100 %
07.12.2017 11:05 2,5 C 84 % 1016,5 hPa 0,0 l/m 7,3 km/h (2 Bft) SO 128 0,1 C 28,2 km/h (4 Bft) 100 %
07.12.2017 11:06 2,5 C 84 % 1016,5 hPa 0,0 l/m 8,2 km/h (2 Bft) O-NO 77 0,1 C 22,0 km/h (4 Bft) 100 %
07.12.2017 11:07 2,5 C 84 % 1016,4 hPa 0,0 l/m 8,3 km/h (2 Bft) O-NO 63 0,1 C 18,8 km/h (3 Bft) 100 %
07.12.2017 11:08 2,5 C 84 % 1016,5 hPa 0,0 l/m 4,7 km/h (1 Bft) S-SW 204 0,1 C 12,6 km/h (3 Bft) 100 %
07.12.2017 11:09 2,5 C 84 % 1016,3 hPa 0,0 l/m 7,2 km/h (2 Bft) N 356 0,1 C 18,8 km/h (3 Bft) 100 %
07.12.2017 11:10 2,5 C 84 % 1016,3 hPa 0,0 l/m 8,8 km/h (2 Bft) W-SW 249 0,1 C 22,0 km/h (4 Bft) 100 %
07.12.2017 11:11 2,5 C 84 % 1016,3 hPa 0,0 l/m 10,0 km/h (2 Bft) SW 218 0,1 C 18,8 km/h (3 Bft) 100 %
07.12.2017 11:12 2,5 C 84 % 1016,3 hPa 0,0 l/m 13,1 km/h (3 Bft) SO 127 0,1 C 37,7 km/h (5 Bft) 100 %
07.12.2017 11:13 2,5 C 84 % 1016,2 hPa 0,0 l/m 7,1 km/h (2 Bft) O 89 0,1 C 22,0 km/h (4 Bft) 100 %
07.12.2017 11:14 2,5 C 84 % 1016,2 hPa 0,0 l/m 9,0 km/h (2 Bft) S 180 0,1 C 25,1 km/h (4 Bft) 100 %
07.12.2017 11:15 2,5 C 84 % 1016,2 hPa 0,0 l/m 11,1 km/h (2 Bft) SW 223 0,1 C 25,1 km/h (4 Bft) 100 %
07.12.2017 11:16 2,4 C 84 % 1016,2 hPa 0,0 l/m 12,2 km/h (2 Bft) SW 233 -0,0 C 28,2 km/h (4 Bft) 100 %
07.12.2017 11:17 2,4 C 84 % 1016,2 hPa 0,0 l/m 13,1 km/h (3 Bft) S-SW 210 -0,0 C 40,8 km/h (6 Bft) 100 %
07.12.2017 11:18 2,5 C 84 % 1016,2 hPa 0,0 l/m 8,2 km/h (2 Bft) W-SW 257 0,1 C 25,1 km/h (4 Bft) 100 %
07.12.2017 11:19 2,5 C 83 % 1016,2 hPa 0,0 l/m 13,8 km/h (3 Bft) N-NW 345 -0,1 C 25,1 km/h (4 Bft) 100 %
07.12.2017 11:20 2,4 C 83 % 1016,2 hPa 0,0 l/m 15,6 km/h (3 Bft) W 276 -0,2 C 25,1 km/h (4 Bft) 100 %
07.12.2017 11:21 2,4 C 83 % 1016,2 hPa 0,0 l/m 13,4 km/h (3 Bft) S 180 -0,2 C 34,5 km/h (5 Bft) 100 %
07.12.2017 11:22 2,4 C 83 % 1016,2 hPa 0,0 l/m 3,0 km/h (1 Bft) NO 53 -0,2 C 15,7 km/h (3 Bft) 100 %
07.12.2017 11:23 2,4 C 84 % 1016,2 hPa 0,0 l/m 2,9 km/h (1 Bft) SW 227 -0,0 C 12,6 km/h (3 Bft) 100 %
07.12.2017 11:24 2,5 C 84 % 1016,2 hPa 0,0 l/m 2,0 km/h (1 Bft) O-SO 108 0,1 C 9,4 km/h (2 Bft) 96 %
07.12.2017 11:25 2,5 C 84 % 1016,2 hPa 0,0 l/m 6,6 km/h (2 Bft) O 79 0,1 C 12,6 km/h (3 Bft) 100 %
07.12.2017 11:26 2,5 C 84 % 1016,1 hPa 0,0 l/m 4,5 km/h (1 Bft) N-NW 346 0,1 C 9,4 km/h (2 Bft) 100 %
07.12.2017 11:27 2,5 C 84 % 1016,2 hPa 0,0 l/m 5,0 km/h (1 Bft) W-NW 283 0,1 C 25,1 km/h (4 Bft) 100 %
07.12.2017 11:28 2,6 C 84 % 1016,2 hPa 0,0 l/m 5,2 km/h (1 Bft) S-SW 200 0,2 C 15,7 km/h (3 Bft) 96 %
07.12.2017 11:29 2,6 C 84 % 1016,1 hPa 0,0 l/m 5,5 km/h (1 Bft) NO 39 0,2 C 12,6 km/h (3 Bft) 96 %
07.12.2017 11:30 2,6 C 84 % 1016,0 hPa 0,0 l/m 7,1 km/h (2 Bft) N 352 0,2 C 15,7 km/h (3 Bft) 100 %
07.12.2017 11:31 2,6 C 83 % 1016,0 hPa 0,0 l/m 7,4 km/h (2 Bft) SW 224 0,0 C 22,0 km/h (4 Bft) 100 %
07.12.2017 11:32 2,6 C 83 % 1016,1 hPa 0,0 l/m 7,9 km/h (2 Bft) N 357 0,0 C 15,7 km/h (3 Bft) 100 %
07.12.2017 11:33 2,6 C 83 % 1016,1 hPa 0,0 l/m 7,8 km/h (2 Bft) W 280 0,0 C 18,8 km/h (3 Bft) 100 %
07.12.2017 11:34 2,6 C 83 % 1016,0 hPa 0,0 l/m 14,5 km/h (3 Bft) S-SW 198 0,0 C 31,4 km/h (5 Bft) 92 %
07.12.2017 11:35 2,6 C 83 % 1016,0 hPa 0,0 l/m 12,1 km/h (2 Bft) SW 214 0,0 C 22,0 km/h (4 Bft) 100 %
07.12.2017 11:36 2,6 C 83 % 1016,0 hPa 0,0 l/m 6,7 km/h (2 Bft) SW 221 0,0 C 25,1 km/h (4 Bft) 100 %
07.12.2017 11:37 2,6 C 83 % 1016,0 hPa 0,0 l/m 13,0 km/h (3 Bft) O 98 0,0 C 34,5 km/h (5 Bft) 100 %
07.12.2017 11:38 2,6 C 83 % 1016,0 hPa 0,0 l/m 11,5 km/h (2 Bft) SW 230 0,0 C 18,8 km/h (3 Bft) 100 %
07.12.2017 11:39 2,6 C 83 % 1016,0 hPa 0,0 l/m 6,1 km/h (2 Bft) S-SW 210 0,0 C 15,7 km/h (3 Bft) 96 %
07.12.2017 11:40 2,6 C 83 % 1016,0 hPa 0,0 l/m 13,9 km/h (3 Bft) S-SW 207 0,0 C 25,1 km/h (4 Bft) 96 %
07.12.2017 11:41 2,7 C 83 % 1016,0 hPa 0,0 l/m 6,3 km/h (2 Bft) S 180 0,1 C 15,7 km/h (3 Bft) 100 %
07.12.2017 11:42 2,7 C 83 % 1016,0 hPa 0,0 l/m 9,0 km/h (2 Bft) W-NW 298 0,1 C 22,0 km/h (4 Bft) 100 %
07.12.2017 11:43 2,7 C 83 % 1015,9 hPa 0,0 l/m 8,9 km/h (2 Bft) W 269 0,1 C 18,8 km/h (3 Bft) 100 %
07.12.2017 11:44 2,7 C 83 % 1015,9 hPa 0,0 l/m 8,8 km/h (2 Bft) W 266 0,1 C 18,8 km/h (3 Bft) 100 %
07.12.2017 11:45 2,7 C 83 % 1015,9 hPa 0,0 l/m 8,8 km/h (2 Bft) W-SW 245 0,1 C 15,7 km/h (3 Bft) 96 %
07.12.2017 11:46 2,7 C 83 % 1015,9 hPa 0,0 l/m 13,3 km/h (3 Bft) S-SW 210 0,1 C 34,5 km/h (5 Bft) 100 %
07.12.2017 11:47 2,7 C 83 % 1015,8 hPa 0,0 l/m 11,5 km/h (2 Bft) W-SW 250 0,1 C 18,8 km/h (3 Bft) 93 %
07.12.2017 11:48 2,7 C 83 % 1015,8 hPa 0,0 l/m 9,4 km/h (2 Bft) NW 311 0,1 C 25,1 km/h (4 Bft) 100 %
07.12.2017 11:49 2,7 C 83 % 1015,8 hPa 0,0 l/m 2,5 km/h (1 Bft) O-SO 103 0,1 C 6,3 km/h (2 Bft) 96 %
07.12.2017 11:50 2,7 C 83 % 1015,8 hPa 0,0 l/m 6,4 km/h (2 Bft) NW 323 0,1 C 12,6 km/h (3 Bft) 100 %
07.12.2017 11:51 2,8 C 83 % 1015,8 hPa 0,0 l/m 14,0 km/h (3 Bft) O-SO 121 0,2 C 31,4 km/h (5 Bft) 96 %
07.12.2017 11:52 2,8 C 83 % 1015,7 hPa 0,0 l/m 13,5 km/h (3 Bft) N-NW 336 0,2 C 28,2 km/h (4 Bft) 96 %
07.12.2017 11:53 2,8 C 83 % 1015,7 hPa 0,0 l/m 8,8 km/h (2 Bft) NO 48 0,2 C 25,1 km/h (4 Bft) 100 %
07.12.2017 11:54 2,8 C 83 % 1015,7 hPa 0,0 l/m 2,7 km/h (1 Bft) O-NO 60 0,2 C 12,6 km/h (3 Bft) 94 %
07.12.2017 11:55 2,8 C 83 % 1015,7 hPa 0,0 l/m 8,4 km/h (2 Bft) W-NW 288 0,2 C 28,2 km/h (4 Bft) 100 %
07.12.2017 11:56 2,8 C 83 % 1015,8 hPa 0,0 l/m 12,4 km/h (3 Bft) W-NW 290 0,2 C 37,7 km/h (5 Bft) 96 %
07.12.2017 11:57 2,8 C 83 % 1015,7 hPa 0,0 l/m 8,6 km/h (2 Bft) W 264 0,2 C 12,6 km/h (3 Bft) 100 %
07.12.2017 11:58 2,9 C 82 % 1015,7 hPa 0,0 l/m 9,2 km/h (2 Bft) NW 326 0,1 C 18,8 km/h (3 Bft) 96 %
07.12.2017 11:59 2,9 C 83 % 1015,7 hPa 0,0 l/m 6,1 km/h (2 Bft) SW 235 0,3 C 12,6 km/h (3 Bft) 100 %
07.12.2017 12:00 2,9 C 82 % 1015,8 hPa 0,0 l/m 12,1 km/h (2 Bft) S-SW 196 0,1 C 28,2 km/h (4 Bft) 96 %
07.12.2017 12:01 2,9 C 82 % 1015,7 hPa 0,0 l/m 12,7 km/h (3 Bft) W-NW 288 0,1 C 34,5 km/h (5 Bft) 96 %
07.12.2017 12:02 2,9 C 82 % 1015,7 hPa 0,0 l/m 7,8 km/h (2 Bft) NO 56 0,1 C 31,4 km/h (5 Bft) 100 %
07.12.2017 12:03 2,9 C 82 % 1015,7 hPa 0,0 l/m 9,2 km/h (2 Bft) S 172 0,1 C 18,8 km/h (3 Bft) 96 %
07.12.2017 12:04 2,9 C 82 % 1015,7 hPa 0,0 l/m 15,4 km/h (3 Bft) SW 225 0,1 C 25,1 km/h (4 Bft) 100 %
07.12.2017 12:05 2,9 C 82 % 1015,6 hPa 0,0 l/m 11,3 km/h (2 Bft) W-NW 282 0,1 C 18,8 km/h (3 Bft) 96 %
07.12.2017 12:06 3,0 C 82 % 1015,6 hPa 0,0 l/m 4,4 km/h (1 Bft) SW 217 0,2 C 6,3 km/h (2 Bft) 100 %
07.12.2017 12:07 3,0 C 82 % 1015,7 hPa 0,0 l/m 7,1 km/h (2 Bft) O 79 0,2 C 22,0 km/h (4 Bft) 96 %
07.12.2017 12:08 3,1 C 82 % 1015,5 hPa 0,0 l/m 14,4 km/h (3 Bft) O-SO 102 0,3 C 37,7 km/h (5 Bft) 100 %
07.12.2017 12:09 3,1 C 82 % 1015,5 hPa 0,0 l/m 5,2 km/h (1 Bft) SO 127 0,3 C 12,6 km/h (3 Bft) 96 %
07.12.2017 12:10 3,1 C 82 % 1015,6 hPa 0,0 l/m 8,9 km/h (2 Bft) S-SW 208 0,3 C 25,1 km/h (4 Bft) 96 %
07.12.2017 12:11 3,1 C 81 % 1015,5 hPa 0,0 l/m 12,8 km/h (3 Bft) SW 231 0,2 C 25,1 km/h (4 Bft) 100 %
07.12.2017 12:12 3,1 C 81 % 1015,5 hPa 0,0 l/m 5,6 km/h (1 Bft) N-NW 346 0,2 C 12,6 km/h (3 Bft) 96 %
07.12.2017 12:13 3,1 C 82 % 1015,4 hPa 0,0 l/m 4,0 km/h (1 Bft) S-SW 210 0,3 C 6,3 km/h (2 Bft) 100 %
07.12.2017 12:14 3,2 C 82 % 1015,3 hPa 0,0 l/m 4,2 km/h (1 Bft) W-SW 247 0,4 C 12,6 km/h (3 Bft) 96 %
07.12.2017 12:15 3,2 C 82 % 1015,3 hPa 0,0 l/m 6,0 km/h (2 Bft) SW 219 0,4 C 9,4 km/h (2 Bft) 100 %
07.12.2017 12:16 3,2 C 81 % 1015,3 hPa 0,0 l/m 13,1 km/h (3 Bft) S 187 0,3 C 28,2 km/h (4 Bft) 96 %
07.12.2017 12:17 3,2 C 81 % 1015,3 hPa 0,0 l/m 5,2 km/h (1 Bft) O-NO 59 0,3 C 12,6 km/h (3 Bft) 96 %
07.12.2017 12:18 3,3 C 81 % 1015,2 hPa 0,0 l/m 5,6 km/h (1 Bft) W-SW 252 0,4 C 15,7 km/h (3 Bft) 100 %
07.12.2017 12:19 3,3 C 81 % 1015,3 hPa 0,0 l/m 8,1 km/h (2 Bft) W 276 0,4 C 15,7 km/h (3 Bft) 100 %
07.12.2017 12:20 3,3 C 81 % 1015,3 hPa 0,0 l/m 18,3 km/h (3 Bft) W-SW 256 0,4 C 28,2 km/h (4 Bft) 96 %
07.12.2017 12:21 3,3 C 81 % 1015,2 hPa 0,0 l/m 9,1 km/h (2 Bft) NW 309 0,4 C 15,7 km/h (3 Bft) 96 %
07.12.2017 12:22 3,3 C 81 % 1015,2 hPa 0,0 l/m 16,9 km/h (3 Bft) S-SO 156 0,4 C 37,7 km/h (5 Bft) 100 %
07.12.2017 12:24 3,3 C 80 % 1015,2 hPa 0,0 l/m 9,5 km/h (2 Bft) S-SO 155 0,2 C 22,0 km/h (4 Bft) 96 %
07.12.2017 12:25 3,3 C 80 % 1015,2 hPa 0,0 l/m 13,1 km/h (3 Bft) W-NW 295 0,2 C 31,4 km/h (5 Bft) 100 %
07.12.2017 12:26 3,3 C 80 % 1015,1 hPa 0,0 l/m 7,8 km/h (2 Bft) SW 217 0,2 C 15,7 km/h (3 Bft) 100 %
07.12.2017 12:27 3,3 C 80 % 1015,1 hPa 0,0 l/m 10,0 km/h (2 Bft) NW 310 0,2 C 18,8 km/h (3 Bft) 97 %
07.12.2017 12:28 3,3 C 81 % 1015,0 hPa 0,0 l/m 5,1 km/h (1 Bft) N-NO 18 0,4 C 15,7 km/h (3 Bft) 96 %
07.12.2017 12:29 3,3 C 80 % 1015,1 hPa 0,0 l/m 13,3 km/h (3 Bft) O 94 0,2 C 22,0 km/h (4 Bft) 100 %
07.12.2017 12:30 3,3 C 80 % 1015,0 hPa 0,0 l/m 12,9 km/h (3 Bft) N 354 0,2 C 28,2 km/h (4 Bft) 93 %
07.12.2017 12:31 3,3 C 80 % 1015,0 hPa 0,0 l/m 8,6 km/h (2 Bft) W-SW 242 0,2 C 25,1 km/h (4 Bft) 100 %
07.12.2017 12:32 3,3 C 80 % 1014,9 hPa 0,0 l/m 9,8 km/h (2 Bft) W-SW 250 0,2 C 22,0 km/h (4 Bft) 96 %
07.12.2017 12:33 3,3 C 80 % 1014,9 hPa 0,0 l/m 6,8 km/h (2 Bft) SW 224 0,2 C 25,1 km/h (4 Bft) 100 %
07.12.2017 12:34 3,3 C 81 % 1014,9 hPa 0,0 l/m 6,0 km/h (2 Bft) W-SW 248 0,4 C 9,4 km/h (2 Bft) 96 %
07.12.2017 12:35 3,3 C 81 % 1014,8 hPa 0,0 l/m 10,0 km/h (2 Bft) SW 224 0,4 C 15,7 km/h (3 Bft) 100 %
07.12.2017 12:36 3,3 C 81 % 1014,8 hPa 0,0 l/m 5,9 km/h (2 Bft) S-SO 153 0,4 C 9,4 km/h (2 Bft) 100 %
07.12.2017 12:37 3,3 C 81 % 1014,9 hPa 0,0 l/m 6,1 km/h (2 Bft) W-SW 252 0,4 C 25,1 km/h (4 Bft) 100 %
07.12.2017 12:38 3,3 C 81 % 1014,8 hPa 0,0 l/m 6,1 km/h (2 Bft) SW 218 0,4 C 15,7 km/h (3 Bft) 100 %
07.12.2017 12:39 3,3 C 80 % 1014,7 hPa 0,0 l/m 16,9 km/h (3 Bft) W-SW 248 0,2 C 28,2 km/h (4 Bft) 100 %
07.12.2017 12:40 3,3 C 80 % 1014,7 hPa 0,0 l/m 11,0 km/h (2 Bft) W-SW 248 0,2 C 15,7 km/h (3 Bft) 100 %
07.12.2017 12:41 3,3 C 80 % 1014,7 hPa 0,0 l/m 9,8 km/h (2 Bft) SW 233 0,2 C 18,8 km/h (3 Bft) 100 %
07.12.2017 12:42 3,3 C 80 % 1014,8 hPa 0,0 l/m 11,8 km/h (2 Bft) SW 214 0,2 C 25,1 km/h (4 Bft) 100 %
07.12.2017 12:43 3,3 C 80 % 1014,8 hPa 0,0 l/m 9,8 km/h (2 Bft) S-SO 151 0,2 C 28,2 km/h (4 Bft) 100 %
07.12.2017 12:44 3,3 C 80 % 1014,6 hPa 0,0 l/m 11,8 km/h (2 Bft) SW 236 0,2 C 18,8 km/h (3 Bft) 100 %
07.12.2017 12:45 3,3 C 80 % 1014,6 hPa 0,0 l/m 11,6 km/h (2 Bft) W 267 0,2 C 25,1 km/h (4 Bft) 100 %
07.12.2017 12:46 3,3 C 80 % 1014,5 hPa 0,0 l/m 10,7 km/h (2 Bft) W-SW 246 0,2 C 18,8 km/h (3 Bft) 100 %
07.12.2017 12:47 3,3 C 80 % 1014,5 hPa 0,0 l/m 7,7 km/h (2 Bft) S 173 0,2 C 22,0 km/h (4 Bft) 100 %
07.12.2017 12:48 3,3 C 80 % 1014,5 hPa 0,0 l/m 1,2 km/h (1 Bft) O-NO 66 0,2 C 6,3 km/h (2 Bft) 100 %
07.12.2017 12:49 3,3 C 81 % 1014,5 hPa 0,0 l/m 3,3 km/h (1 Bft) S-SW 209 0,4 C 9,4 km/h (2 Bft) 100 %
07.12.2017 12:50 3,4 C 81 % 1014,5 hPa 0,0 l/m 7,9 km/h (2 Bft) N-NW 342 0,5 C 22,0 km/h (4 Bft) 100 %
07.12.2017 12:51 3,4 C 81 % 1014,4 hPa 0,0 l/m 13,4 km/h (3 Bft) W 269 0,5 C 40,8 km/h (6 Bft) 100 %
07.12.2017 12:52 3,4 C 80 % 1014,4 hPa 0,0 l/m 12,1 km/h (2 Bft) W-SW 242 0,3 C 28,2 km/h (4 Bft) 100 %
07.12.2017 12:53 3,4 C 80 % 1014,4 hPa 0,0 l/m 4,6 km/h (1 Bft) O-NO 58 0,3 C 9,4 km/h (2 Bft) 100 %
07.12.2017 12:54 3,4 C 80 % 1014,5 hPa 0,0 l/m 4,6 km/h (1 Bft) O-SO 123 0,3 C 9,4 km/h (2 Bft) 100 %
07.12.2017 12:55 3,4 C 80 % 1014,4 hPa 0,0 l/m 6,7 km/h (2 Bft) S-SO 148 0,3 C 15,7 km/h (3 Bft) 100 %
07.12.2017 12:56 3,4 C 80 % 1014,2 hPa 0,0 l/m 4,2 km/h (1 Bft) O 100 0,3 C 9,4 km/h (2 Bft) 100 %
07.12.2017 12:57 3,4 C 80 % 1014,4 hPa 0,0 l/m 8,4 km/h (2 Bft) SW 217 0,3 C 15,7 km/h (3 Bft) 100 %
07.12.2017 12:58 3,4 C 80 % 1014,4 hPa 0,0 l/m 6,7 km/h (2 Bft) O-NO 78 0,3 C 15,7 km/h (3 Bft) 100 %
07.12.2017 12:59 3,5 C 80 % 1014,3 hPa 0,0 l/m 5,0 km/h (1 Bft) W 278 0,4 C 15,7 km/h (3 Bft) 100 %
07.12.2017 13:00 3,5 C 80 % 1014,4 hPa 0,0 l/m 1,1 km/h (1 Bft) W-SW 240 0,4 C 6,3 km/h (2 Bft) 100 %
07.12.2017 13:01 3,5 C 80 % 1014,4 hPa 0,0 l/m 7,2 km/h (2 Bft) S-SW 212 0,4 C 18,8 km/h (3 Bft) 100 %
07.12.2017 13:02 3,6 C 80 % 1014,3 hPa 0,0 l/m 9,4 km/h (2 Bft) O-NO 57 0,5 C 25,1 km/h (4 Bft) 100 %
07.12.2017 13:03 3,6 C 80 % 1014,3 hPa 0,0 l/m 9,6 km/h (2 Bft) N-NO 29 0,5 C 25,1 km/h (4 Bft) 100 %
07.12.2017 13:04 3,6 C 80 % 1014,3 hPa 0,0 l/m 6,3 km/h (2 Bft) W-SW 248 0,5 C 22,0 km/h (4 Bft) 100 %
07.12.2017 13:05 3,6 C 79 % 1014,2 hPa 0,0 l/m 11,1 km/h (2 Bft) S-SW 212 0,3 C 28,2 km/h (4 Bft) 100 %
07.12.2017 13:06 3,6 C 79 % 1014,1 hPa 0,0 l/m 8,5 km/h (2 Bft) W-SW 245 0,3 C 15,7 km/h (3 Bft) 100 %
07.12.2017 13:07 3,5 C 79 % 1014,2 hPa 0,0 l/m 20,5 km/h (4 Bft) W-NW 285 0,2 C 37,7 km/h (5 Bft) 100 %
07.12.2017 13:08 3,4 C 79 % 1014,1 hPa 0,0 l/m 12,7 km/h (3 Bft) SW 222 0,1 C 25,1 km/h (4 Bft) 100 %
07.12.2017 13:09 3,4 C 79 % 1014,1 hPa 0,0 l/m 6,0 km/h (2 Bft) SW 230 0,1 C 9,4 km/h (2 Bft) 100 %
07.12.2017 13:10 3,4 C 80 % 1014,1 hPa 0,0 l/m 4,1 km/h (1 Bft) S 182 0,3 C 9,4 km/h (2 Bft) 100 %
07.12.2017 13:11 3,3 C 80 % 1014,1 hPa 0,0 l/m 3,8 km/h (1 Bft) W-SW 245 0,2 C 9,4 km/h (2 Bft) 100 %
07.12.2017 13:12 3,3 C 80 % 1014,1 hPa 0,0 l/m 7,7 km/h (2 Bft) W 262 0,2 C 22,0 km/h (4 Bft) 100 %
07.12.2017 13:13 3,3 C 80 % 1014,0 hPa 0,0 l/m 2,3 km/h (1 Bft) NW 314 0,2 C 6,3 km/h (2 Bft) 100 %
07.12.2017 13:14 3,3 C 81 % 1014,0 hPa 0,0 l/m 4,2 km/h (1 Bft) N-NO 27 0,4 C 12,6 km/h (3 Bft) 100 %
07.12.2017 13:15 3,3 C 81 % 1013,9 hPa 0,0 l/m 9,7 km/h (2 Bft) O-SO 120 0,4 C 25,1 km/h (4 Bft) 100 %
07.12.2017 13:16 3,3 C 80 % 1013,9 hPa 0,0 l/m 9,9 km/h (2 Bft) W-NW 295 0,2 C 25,1 km/h (4 Bft) 100 %
07.12.2017 13:17 3,3 C 80 % 1013,9 hPa 0,0 l/m 5,0 km/h (1 Bft) SO 132 0,2 C 15,7 km/h (3 Bft) 100 %
07.12.2017 13:18 3,3 C 80 % 1013,9 hPa 0,0 l/m 5,9 km/h (2 Bft) NO 44 0,2 C 15,7 km/h (3 Bft) 100 %
07.12.2017 13:19 3,3 C 81 % 1013,8 hPa 0,0 l/m 2,1 km/h (1 Bft) SW 234 0,4 C 3,1 km/h (1 Bft) 100 %
07.12.2017 13:20 3,3 C 81 % 1013,8 hPa 0,0 l/m 5,0 km/h (1 Bft) NO 46 0,4 C 12,6 km/h (3 Bft) 100 %
07.12.2017 13:21 3,3 C 81 % 1013,8 hPa 0,0 l/m 11,7 km/h (2 Bft) SW 223 0,4 C 22,0 km/h (4 Bft) 100 %
07.12.2017 13:22 3,3 C 80 % 1013,8 hPa 0,0 l/m 17,3 km/h (3 Bft) W-SW 255 0,2 C 37,7 km/h (5 Bft) 100 %
07.12.2017 13:23 3,3 C 81 % 1013,8 hPa 0,0 l/m 7,2 km/h (2 Bft) SW 230 0,4 C 15,7 km/h (3 Bft) 100 %
07.12.2017 13:24 3,3 C 81 % 1013,9 hPa 0,0 l/m 11,9 km/h (2 Bft) O-SO 110 0,4 C 22,0 km/h (4 Bft) 100 %
07.12.2017 13:25 3,3 C 81 % 1013,7 hPa 0,0 l/m 17,0 km/h (3 Bft) S-SO 160 0,4 C 40,8 km/h (6 Bft) 100 %
07.12.2017 13:26 3,3 C 80 % 1013,8 hPa 0,0 l/m 8,2 km/h (2 Bft) O-SO 111 0,2 C 18,8 km/h (3 Bft) 100 %
07.12.2017 13:27 3,3 C 80 % 1013,7 hPa 0,0 l/m 11,4 km/h (2 Bft) S-SW 209 0,2 C 25,1 km/h (4 Bft) 100 %
07.12.2017 13:28 3,2 C 81 % 1013,7 hPa 0,0 l/m 6,5 km/h (2 Bft) NW 325 0,3 C 15,7 km/h (3 Bft) 100 %
07.12.2017 13:29 3,3 C 81 % 1013,7 hPa 0,0 l/m 13,2 km/h (3 Bft) SW 225 0,4 C 28,2 km/h (4 Bft) 100 %
07.12.2017 13:30 3,2 C 81 % 1013,7 hPa 0,0 l/m 14,5 km/h (3 Bft) S-SW 212 0,3 C 31,4 km/h (5 Bft) 100 %
07.12.2017 13:31 3,2 C 81 % 1013,7 hPa 0,0 l/m 6,6 km/h (2 Bft) SW 228 0,3 C 18,8 km/h (3 Bft) 100 %
07.12.2017 13:32 3,2 C 81 % 1013,7 hPa 0,0 l/m 12,7 km/h (3 Bft) W 262 0,3 C 31,4 km/h (5 Bft) 100 %
07.12.2017 13:33 3,2 C 80 % 1013,6 hPa 0,0 l/m 9,0 km/h (2 Bft) O-NO 74 0,1 C 28,2 km/h (4 Bft) 100 %
07.12.2017 13:34 3,2 C 81 % 1013,7 hPa 0,0 l/m 6,4 km/h (2 Bft) N-NO 13 0,3 C 22,0 km/h (4 Bft) 100 %
07.12.2017 13:35 3,2 C 81 % 1013,7 hPa 0,0 l/m 5,8 km/h (2 Bft) S-SO 148 0,3 C 15,7 km/h (3 Bft) 100 %
07.12.2017 13:36 3,2 C 81 % 1013,7 hPa 0,0 l/m 13,8 km/h (3 Bft) S-SW 192 0,3 C 34,5 km/h (5 Bft) 100 %
07.12.2017 13:37 3,2 C 81 % 1013,6 hPa 0,0 l/m 9,6 km/h (2 Bft) SW 229 0,3 C 25,1 km/h (4 Bft) 100 %
07.12.2017 13:38 3,2 C 81 % 1013,6 hPa 0,0 l/m 6,7 km/h (2 Bft) SO 139 0,3 C 15,7 km/h (3 Bft) 100 %
07.12.2017 13:39 3,2 C 81 % 1013,6 hPa 0,0 l/m 5,0 km/h (1 Bft) NW 317 0,3 C 15,7 km/h (3 Bft) 100 %
07.12.2017 13:40 3,1 C 81 % 1013,6 hPa 0,0 l/m 18,8 km/h (3 Bft) SW 219 0,2 C 31,4 km/h (5 Bft) 100 %
07.12.2017 13:41 3,1 C 80 % 1013,6 hPa 0,0 l/m 9,4 km/h (2 Bft) NO 44 -0,0 C 15,7 km/h (3 Bft) 100 %
07.12.2017 13:42 3,1 C 81 % 1013,5 hPa 0,0 l/m 6,9 km/h (2 Bft) O-NO 77 0,2 C 12,6 km/h (3 Bft) 100 %
07.12.2017 13:43 3,1 C 81 % 1013,4 hPa 0,0 l/m 9,3 km/h (2 Bft) W-SW 247 0,2 C 25,1 km/h (4 Bft) 100 %
07.12.2017 13:44 3,1 C 81 % 1013,4 hPa 0,0 l/m 12,6 km/h (3 Bft) S 176 0,2 C 31,4 km/h (5 Bft) 100 %
07.12.2017 13:45 3,1 C 81 % 1013,3 hPa 0,0 l/m 5,6 km/h (1 Bft) SW 217 0,2 C 15,7 km/h (3 Bft) 100 %
07.12.2017 13:46 3,1 C 81 % 1013,3 hPa 0,0 l/m 12,1 km/h (2 Bft) SO 132 0,2 C 22,0 km/h (4 Bft) 100 %
07.12.2017 13:47 3,1 C 81 % 1013,4 hPa 0,0 l/m 8,2 km/h (2 Bft) NO 51 0,2 C 15,7 km/h (3 Bft) 100 %
07.12.2017 13:48 3,1 C 81 % 1013,3 hPa 0,0 l/m 12,9 km/h (3 Bft) SW 235 0,2 C 25,1 km/h (4 Bft) 100 %
07.12.2017 13:49 3,1 C 81 % 1013,4 hPa 0,0 l/m 13,0 km/h (3 Bft) W-SW 238 0,2 C 25,1 km/h (4 Bft) 100 %
07.12.2017 13:50 3,1 C 81 % 1013,3 hPa 0,0 l/m 19,0 km/h (3 Bft) W 271 0,2 C 37,7 km/h (5 Bft) 100 %
07.12.2017 13:51 3,1 C 81 % 1013,3 hPa 0,0 l/m 10,6 km/h (2 Bft) W-SW 252 0,2 C 15,7 km/h (3 Bft) 100 %
07.12.2017 13:52 3,1 C 81 % 1013,3 hPa 0,0 l/m 10,1 km/h (2 Bft) W-SW 248 0,2 C 15,7 km/h (3 Bft) 96 %
07.12.2017 13:53 3,1 C 81 % 1013,4 hPa 0,0 l/m 9,8 km/h (2 Bft) W 266 0,2 C 22,0 km/h (4 Bft) 100 %
07.12.2017 13:54 3,1 C 81 % 1013,3 hPa 0,0 l/m 13,3 km/h (3 Bft) W 259 0,2 C 22,0 km/h (4 Bft) 100 %
07.12.2017 13:55 3,1 C 81 % 1013,3 hPa 0,0 l/m 9,9 km/h (2 Bft) SW 232 0,2 C 25,1 km/h (4 Bft) 100 %
07.12.2017 13:56 3,1 C 82 % 1013,3 hPa 0,0 l/m 3,5 km/h (1 Bft) S-SO 152 0,3 C 12,6 km/h (3 Bft) 100 %
07.12.2017 13:57 3,1 C 82 % 1013,3 hPa 0,0 l/m 10,5 km/h (2 Bft) S-SW 213 0,3 C 18,8 km/h (3 Bft) 100 %
07.12.2017 13:58 3,1 C 81 % 1013,3 hPa 0,0 l/m 9,9 km/h (2 Bft) W-NW 294 0,2 C 22,0 km/h (4 Bft) 100 %
07.12.2017 13:59 3,1 C 81 % 1013,3 hPa 0,0 l/m 13,2 km/h (3 Bft) W-SW 252 0,2 C 22,0 km/h (4 Bft) 100 %
07.12.2017 14:00 3,1 C 81 % 1013,3 hPa 0,0 l/m 20,9 km/h (4 Bft) SW 227 0,2 C 34,5 km/h (5 Bft) 100 %
07.12.2017 14:01 3,1 C 81 % 1013,2 hPa 0,0 l/m 14,3 km/h (3 Bft) S-SW 195 0,2 C 25,1 km/h (4 Bft) 100 %
07.12.2017 14:02 3,0 C 81 % 1013,2 hPa 0,0 l/m 6,3 km/h (2 Bft) O 97 0,1 C 15,7 km/h (3 Bft) 100 %
07.12.2017 14:03 3,1 C 82 % 1013,1 hPa 0,0 l/m 3,7 km/h (1 Bft) W 278 0,3 C 9,4 km/h (2 Bft) 100 %
07.12.2017 14:04 3,1 C 82 % 1013,2 hPa 0,0 l/m 9,9 km/h (2 Bft) W-SW 249 0,3 C 28,2 km/h (4 Bft) 100 %
07.12.2017 14:05 3,1 C 82 % 1013,2 hPa 0,0 l/m 20,1 km/h (4 Bft) SW 224 0,3 C 56,5 km/h (7 Bft) 100 %
07.12.2017 14:06 3,0 C 82 % 1013,1 hPa 0,0 l/m 13,5 km/h (3 Bft) W-SW 245 0,2 C 34,5 km/h (5 Bft) 100 %
07.12.2017 14:07 3,0 C 82 % 1013,1 hPa 0,0 l/m 9,4 km/h (2 Bft) W 272 0,2 C 25,1 km/h (4 Bft) 100 %
07.12.2017 14:08 3,0 C 82 % 1013,1 hPa 0,0 l/m 7,4 km/h (2 Bft) W-NW 285 0,2 C 12,6 km/h (3 Bft) 100 %
07.12.2017 14:09 3,0 C 82 % 1013,1 hPa 0,0 l/m 17,0 km/h (3 Bft) S-SW 203 0,2 C 31,4 km/h (5 Bft) 100 %
07.12.2017 14:10 3,0 C 82 % 1013,1 hPa 0,0 l/m 9,0 km/h (2 Bft) SW 228 0,2 C 22,0 km/h (4 Bft) 100 %
07.12.2017 14:11 3,0 C 82 % 1013,0 hPa 0,0 l/m 11,8 km/h (2 Bft) SW 233 0,2 C 28,2 km/h (4 Bft) 100 %
07.12.2017 14:12 3,0 C 82 % 1013,0 hPa 0,0 l/m 5,6 km/h (1 Bft) W-SW 258 0,2 C 15,7 km/h (3 Bft) 100 %
07.12.2017 14:13 2,9 C 82 % 1012,9 hPa 0,0 l/m 17,1 km/h (3 Bft) W-SW 246 0,1 C 28,2 km/h (4 Bft) 100 %
07.12.2017 14:14 2,9 C 82 % 1012,9 hPa 0,0 l/m 18,4 km/h (3 Bft) S-SW 200 0,1 C 37,7 km/h (5 Bft) 100 %
07.12.2017 14:15 2,9 C 82 % 1012,9 hPa 0,0 l/m 11,2 km/h (2 Bft) N-NW 335 0,1 C 18,8 km/h (3 Bft) 100 %
07.12.2017 14:16 2,9 C 82 % 1012,9 hPa 0,0 l/m 6,7 km/h (2 Bft) N-NW 333 0,1 C 15,7 km/h (3 Bft) 100 %
07.12.2017 14:17 2,9 C 82 % 1012,9 hPa 0,0 l/m 7,6 km/h (2 Bft) SW 235 0,1 C 12,6 km/h (3 Bft) 100 %
07.12.2017 14:18 2,9 C 82 % 1012,8 hPa 0,0 l/m 9,3 km/h (2 Bft) N-NO 12 0,1 C 28,2 km/h (4 Bft) 100 %
07.12.2017 14:19 2,9 C 82 % 1012,9 hPa 0,0 l/m 16,5 km/h (3 Bft) SW 234 0,1 C 34,5 km/h (5 Bft) 100 %
07.12.2017 14:20 2,9 C 82 % 1012,8 hPa 0,0 l/m 5,0 km/h (1 Bft) O-NO 70 0,1 C 9,4 km/h (2 Bft) 100 %
07.12.2017 14:21 2,9 C 83 % 1012,8 hPa 0,0 l/m 13,1 km/h (3 Bft) W 279 0,3 C 34,5 km/h (5 Bft) 100 %
07.12.2017 14:22 2,9 C 82 % 1012,8 hPa 0,0 l/m 4,0 km/h (1 Bft) NW 314 0,1 C 15,7 km/h (3 Bft) 100 %
07.12.2017 14:23 2,9 C 83 % 1012,7 hPa 0,0 l/m 8,2 km/h (2 Bft) O-NO 58 0,3 C 18,8 km/h (3 Bft) 100 %
07.12.2017 14:24 3,0 C 82 % 1012,6 hPa 0,0 l/m 14,1 km/h (3 Bft) W-NW 293 0,2 C 40,8 km/h (6 Bft) 100 %
07.12.2017 14:25 3,0 C 82 % 1012,6 hPa 0,0 l/m 8,5 km/h (2 Bft) N-NO 30 0,2 C 43,9 km/h (6 Bft) 100 %
07.12.2017 14:26 3,1 C 83 % 1012,7 hPa 0,0 l/m 5,2 km/h (1 Bft) W-SW 245 0,5 C 9,4 km/h (2 Bft) 100 %
07.12.2017 14:27 3,1 C 82 % 1012,5 hPa 0,0 l/m 6,3 km/h (2 Bft) O-NO 77 0,3 C 15,7 km/h (3 Bft) 100 %
07.12.2017 14:28 3,1 C 82 % 1012,5 hPa 0,0 l/m 11,9 km/h (2 Bft) NW 317 0,3 C 37,7 km/h (5 Bft) 100 %
07.12.2017 14:29 3,1 C 82 % 1012,5 hPa 0,0 l/m 4,2 km/h (1 Bft) W 269 0,3 C 9,4 km/h (2 Bft) 100 %
07.12.2017 14:30 3,1 C 82 % 1012,6 hPa 0,0 l/m 2,4 km/h (1 Bft) O 82 0,3 C 9,4 km/h (2 Bft) 100 %
07.12.2017 14:31 3,1 C 82 % 1012,6 hPa 0,0 l/m 8,5 km/h (2 Bft) W 274 0,3 C 25,1 km/h (4 Bft) 100 %
07.12.2017 14:32 3,1 C 82 % 1012,6 hPa 0,0 l/m 8,1 km/h (2 Bft) N 354 0,3 C 18,8 km/h (3 Bft) 100 %
07.12.2017 14:33 3,1 C 82 % 1012,5 hPa 0,0 l/m 10,5 km/h (2 Bft) W-SW 258 0,3 C 18,8 km/h (3 Bft) 100 %
07.12.2017 14:34 3,1 C 83 % 1012,5 hPa 0,0 l/m 12,2 km/h (2 Bft) W 263 0,5 C 22,0 km/h (4 Bft) 100 %
07.12.2017 14:35 3,1 C 82 % 1012,5 hPa 0,0 l/m 11,8 km/h (2 Bft) S-SW 211 0,3 C 22,0 km/h (4 Bft) 100 %
07.12.2017 14:36 3,1 C 82 % 1012,4 hPa 0,0 l/m 14,1 km/h (3 Bft) S-SW 203 0,3 C 25,1 km/h (4 Bft) 100 %
07.12.2017 14:37 3,0 C 82 % 1012,4 hPa 0,0 l/m 9,0 km/h (2 Bft) N-NO 31 0,2 C 22,0 km/h (4 Bft) 100 %
07.12.2017 14:38 3,0 C 83 % 1012,5 hPa 0,0 l/m 5,0 km/h (1 Bft) S-SW 201 0,4 C 18,8 km/h (3 Bft) 100 %
07.12.2017 14:39 3,0 C 83 % 1012,4 hPa 0,0 l/m 9,8 km/h (2 Bft) NW 319 0,4 C 25,1 km/h (4 Bft) 100 %
07.12.2017 14:40 3,0 C 83 % 1012,4 hPa 0,0 l/m 1,2 km/h (1 Bft) O-NO 66 0,4 C 6,3 km/h (2 Bft) 100 %
07.12.2017 14:41 3,0 C 83 % 1012,4 hPa 0,0 l/m 4,8 km/h (1 Bft) W-NW 295 0,4 C 15,7 km/h (3 Bft) 100 %
07.12.2017 14:42 3,0 C 83 % 1012,3 hPa 0,0 l/m 13,0 km/h (3 Bft) SW 223 0,4 C 28,2 km/h (4 Bft) 100 %
07.12.2017 14:43 3,0 C 83 % 1012,3 hPa 0,0 l/m 5,3 km/h (1 Bft) W 260 0,4 C 28,2 km/h (4 Bft) 96 %
07.12.2017 14:44 2,9 C 83 % 1012,4 hPa 0,0 l/m 9,4 km/h (2 Bft) W-SW 237 0,3 C 28,2 km/h (4 Bft) 100 %
07.12.2017 14:45 2,9 C 83 % 1012,4 hPa 0,0 l/m 5,6 km/h (1 Bft) N 352 0,3 C 15,7 km/h (3 Bft) 92 %
07.12.2017 14:46 2,9 C 83 % 1012,4 hPa 0,0 l/m 8,5 km/h (2 Bft) S-SO 151 0,3 C 18,8 km/h (3 Bft) 100 %
07.12.2017 14:47 2,9 C 83 % 1012,3 hPa 0,0 l/m 13,6 km/h (3 Bft) SW 226 0,3 C 34,5 km/h (5 Bft) 100 %
07.12.2017 14:48 2,9 C 83 % 1012,2 hPa 0,0 l/m 17,4 km/h (3 Bft) O-SO 109 0,3 C 34,5 km/h (5 Bft) 96 %
07.12.2017 14:49 2,9 C 83 % 1012,2 hPa 0,0 l/m 5,5 km/h (1 Bft) SW 219 0,3 C 12,6 km/h (3 Bft) 100 %
07.12.2017 14:50 2,9 C 83 % 1012,2 hPa 0,0 l/m 9,3 km/h (2 Bft) W-SW 238 0,3 C 15,7 km/h (3 Bft) 100 %
07.12.2017 14:51 2,9 C 83 % 1012,1 hPa 0,0 l/m 2,6 km/h (1 Bft) SW 226 0,3 C 6,3 km/h (2 Bft) 100 %
07.12.2017 14:52 2,9 C 84 % 1012,0 hPa 0,0 l/m 9,8 km/h (2 Bft) O-NO 73 0,5 C 18,8 km/h (3 Bft) 100 %
07.12.2017 14:53 2,9 C 84 % 1012,0 hPa 0,0 l/m 4,1 km/h (1 Bft) O 80 0,5 C 9,4 km/h (2 Bft) 100 %
07.12.2017 14:54 2,9 C 84 % 1012,0 hPa 0,0 l/m 13,9 km/h (3 Bft) W 278 0,5 C 28,2 km/h (4 Bft) 96 %
07.12.2017 14:55 2,9 C 84 % 1011,9 hPa 0,0 l/m 11,9 km/h (2 Bft) O-SO 120 0,5 C 31,4 km/h (5 Bft) 100 %
07.12.2017 14:56 2,9 C 84 % 1011,9 hPa 0,0 l/m 5,0 km/h (1 Bft) SW 218 0,5 C 18,8 km/h (3 Bft) 100 %
07.12.2017 14:57 2,9 C 84 % 1011,9 hPa 0,0 l/m 11,1 km/h (2 Bft) N-NO 29 0,5 C 31,4 km/h (5 Bft) 93 %
07.12.2017 14:58 2,9 C 84 % 1012,0 hPa 0,0 l/m 5,2 km/h (1 Bft) SW 223 0,5 C 15,7 km/h (3 Bft) 100 %
07.12.2017 14:59 2,9 C 84 % 1011,9 hPa 0,0 l/m 8,9 km/h (2 Bft) W 275 0,5 C 15,7 km/h (3 Bft) 96 %
07.12.2017 15:00 2,9 C 84 % 1011,9 hPa 0,0 l/m 5,5 km/h (1 Bft) W-SW 257 0,5 C 9,4 km/h (2 Bft) 100 %
07.12.2017 15:01 2,9 C 84 % 1011,7 hPa 0,0 l/m 11,8 km/h (2 Bft) W 266 0,5 C 31,4 km/h (5 Bft) 96 %
07.12.2017 15:02 2,9 C 84 % 1011,8 hPa 0,0 l/m 18,3 km/h (3 Bft) SO 146 0,5 C 37,7 km/h (5 Bft) 100 %
07.12.2017 15:03 2,9 C 84 % 1011,8 hPa 0,0 l/m 6,6 km/h (2 Bft) S-SW 211 0,5 C 12,6 km/h (3 Bft) 96 %
07.12.2017 15:04 2,9 C 84 % 1011,8 hPa 0,0 l/m 6,1 km/h (2 Bft) W-SW 250 0,5 C 12,6 km/h (3 Bft) 96 %
07.12.2017 15:05 2,9 C 84 % 1011,9 hPa 0,0 l/m 3,4 km/h (1 Bft) W 266 0,5 C 12,6 km/h (3 Bft) 100 %
07.12.2017 15:06 2,9 C 84 % 1011,9 hPa 0,0 l/m 17,1 km/h (3 Bft) S-SO 159 0,5 C 31,4 km/h (5 Bft) 96 %
07.12.2017 15:07 2,9 C 84 % 1011,9 hPa 0,0 l/m 19,0 km/h (3 Bft) W-NW 297 0,5 C 50,2 km/h (7 Bft) 100 %
07.12.2017 15:08 2,9 C 84 % 1011,8 hPa 0,0 l/m 8,0 km/h (2 Bft) W 270 0,5 C 12,6 km/h (3 Bft) 96 %
07.12.2017 15:09 2,9 C 84 % 1011,8 hPa 0,0 l/m 8,5 km/h (2 Bft) S-SW 208 0,5 C 28,2 km/h (4 Bft) 100 %
07.12.2017 15:10 2,9 C 84 % 1011,9 hPa 0,0 l/m 17,6 km/h (3 Bft) W-NW 295 0,5 C 28,2 km/h (4 Bft) 96 %
07.12.2017 15:11 2,9 C 84 % 1011,9 hPa 0,0 l/m 14,5 km/h (3 Bft) SO 136 0,5 C 34,5 km/h (5 Bft) 96 %
07.12.2017 15:12 2,9 C 84 % 1011,9 hPa 0,0 l/m 7,5 km/h (2 Bft) SW 236 0,5 C 18,8 km/h (3 Bft) 100 %
07.12.2017 15:13 2,9 C 84 % 1011,9 hPa 0,0 l/m 10,7 km/h (2 Bft) W-SW 252 0,5 C 25,1 km/h (4 Bft) 100 %
07.12.2017 15:14 2,9 C 84 % 1011,8 hPa 0,0 l/m 5,1 km/h (1 Bft) S-SW 213 0,5 C 15,7 km/h (3 Bft) 97 %
07.12.2017 15:15 2,9 C 84 % 1011,8 hPa 0,0 l/m 10,7 km/h (2 Bft) W-SW 238 0,5 C 18,8 km/h (3 Bft) 96 %
07.12.2017 15:16 2,9 C 84 % 1011,8 hPa 0,0 l/m 3,5 km/h (1 Bft) SW 228 0,5 C 9,4 km/h (2 Bft) 100 %
07.12.2017 15:17 2,9 C 84 % 1011,8 hPa 0,0 l/m 6,2 km/h (2 Bft) W-SW 253 0,5 C 12,6 km/h (3 Bft) 97 %
07.12.2017 15:18 2,9 C 84 % 1011,8 hPa 0,0 l/m 8,8 km/h (2 Bft) SW 235 0,5 C 31,4 km/h (5 Bft) 100 %
07.12.2017 15:19 2,9 C 84 % 1011,7 hPa 0,0 l/m 8,8 km/h (2 Bft) SW 217 0,5 C 25,1 km/h (4 Bft) 96 %
07.12.2017 15:20 2,9 C 84 % 1011,7 hPa 0,0 l/m 6,4 km/h (2 Bft) W-NW 298 0,5 C 15,7 km/h (3 Bft) 96 %
07.12.2017 15:21 2,9 C 84 % 1011,7 hPa 0,0 l/m 4,7 km/h (1 Bft) W-NW 288 0,5 C 9,4 km/h (2 Bft) 100 %
07.12.2017 15:22 2,9 C 84 % 1011,8 hPa 0,0 l/m 13,7 km/h (3 Bft) S-SW 207 0,5 C 31,4 km/h (5 Bft) 100 %
07.12.2017 15:23 2,9 C 84 % 1011,6 hPa 0,0 l/m 10,6 km/h (2 Bft) W-NW 298 0,5 C 28,2 km/h (4 Bft) 96 %
07.12.2017 15:24 2,9 C 84 % 1011,7 hPa 0,0 l/m 9,1 km/h (2 Bft) W 259 0,5 C 15,7 km/h (3 Bft) 96 %
07.12.2017 15:25 2,9 C 84 % 1011,6 hPa 0,0 l/m 10,8 km/h (2 Bft) W-SW 248 0,5 C 28,2 km/h (4 Bft) 100 %
07.12.2017 15:26 2,9 C 84 % 1011,6 hPa 0,0 l/m 8,9 km/h (2 Bft) S 169 0,5 C 18,8 km/h (3 Bft) 97 %
07.12.2017 15:27 2,9 C 84 % 1011,7 hPa 0,0 l/m 12,9 km/h (3 Bft) W 259 0,5 C 28,2 km/h (4 Bft) 100 %
07.12.2017 15:28 2,9 C 83 % 1011,7 hPa 0,0 l/m 9,2 km/h (2 Bft) SW 215 0,3 C 18,8 km/h (3 Bft) 96 %
07.12.2017 15:29 2,9 C 84 % 1011,6 hPa 0,0 l/m 9,9 km/h (2 Bft) SW 221 0,5 C 31,4 km/h (5 Bft) 100 %
07.12.2017 15:30 2,9 C 83 % 1011,6 hPa 0,0 l/m 18,2 km/h (3 Bft) O-SO 123 0,3 C 50,2 km/h (7 Bft) 100 %
07.12.2017 15:31 2,9 C 83 % 1011,5 hPa 0,0 l/m 10,7 km/h (2 Bft) SW 219 0,3 C 31,4 km/h (5 Bft) 100 %
07.12.2017 15:32 2,9 C 83 % 1011,6 hPa 0,0 l/m 9,5 km/h (2 Bft) NW 312 0,3 C 31,4 km/h (5 Bft) 100 %
07.12.2017 15:33 2,9 C 83 % 1011,5 hPa 0,0 l/m 8,0 km/h (2 Bft) W-SW 250 0,3 C 18,8 km/h (3 Bft) 100 %
07.12.2017 15:34 3,0 C 83 % 1011,6 hPa 0,0 l/m 17,7 km/h (3 Bft) W-NW 297 0,4 C 37,7 km/h (5 Bft) 100 %
07.12.2017 15:35 3,0 C 83 % 1011,6 hPa 0,0 l/m 13,2 km/h (3 Bft) S 172 0,4 C 28,2 km/h (4 Bft) 100 %
07.12.2017 15:36 3,0 C 83 % 1011,6 hPa 0,0 l/m 6,7 km/h (2 Bft) SW 232 0,4 C 18,8 km/h (3 Bft) 100 %
07.12.2017 15:37 3,0 C 83 % 1011,6 hPa 0,0 l/m 10,8 km/h (2 Bft) O 93 0,4 C 22,0 km/h (4 Bft) 100 %
07.12.2017 15:38 3,1 C 83 % 1011,5 hPa 0,0 l/m 6,1 km/h (2 Bft) W-SW 238 0,5 C 15,7 km/h (3 Bft) 100 %
07.12.2017 15:39 3,0 C 83 % 1011,5 hPa 0,0 l/m 19,3 km/h (3 Bft) S-SW 193 0,4 C 34,5 km/h (5 Bft) 100 %
07.12.2017 15:40 3,1 C 83 % 1011,5 hPa 0,0 l/m 13,2 km/h (3 Bft) W 268 0,5 C 28,2 km/h (4 Bft) 100 %
07.12.2017 15:41 3,1 C 83 % 1011,5 hPa 0,0 l/m 9,6 km/h (2 Bft) W-SW 244 0,5 C 22,0 km/h (4 Bft) 100 %
07.12.2017 15:42 3,1 C 83 % 1011,5 hPa 0,0 l/m 4,6 km/h (1 Bft) SW 225 0,5 C 9,4 km/h (2 Bft) 100 %
07.12.2017 15:43 3,1 C 83 % 1011,4 hPa 0,0 l/m 7,0 km/h (2 Bft) NO 56 0,5 C 15,7 km/h (3 Bft) 100 %
07.12.2017 15:44 3,1 C 83 % 1011,4 hPa 0,0 l/m 14,4 km/h (3 Bft) W 281 0,5 C 28,2 km/h (4 Bft) 100 %
07.12.2017 15:45 3,1 C 83 % 1011,4 hPa 0,0 l/m 8,7 km/h (2 Bft) W-SW 243 0,5 C 28,2 km/h (4 Bft) 100 %
07.12.2017 15:46 3,1 C 83 % 1011,4 hPa 0,0 l/m 15,0 km/h (3 Bft) SW 214 0,5 C 40,8 km/h (6 Bft) 100 %
07.12.2017 15:47 3,1 C 83 % 1011,2 hPa 0,0 l/m 11,8 km/h (2 Bft) NW 326 0,5 C 31,4 km/h (5 Bft) 100 %
07.12.2017 15:48 3,1 C 82 % 1011,2 hPa 0,0 l/m 9,0 km/h (2 Bft) SW 233 0,3 C 28,2 km/h (4 Bft) 100 %
07.12.2017 15:49 3,1 C 83 % 1011,2 hPa 0,0 l/m 5,2 km/h (1 Bft) W-NW 303 0,5 C 12,6 km/h (3 Bft) 100 %
07.12.2017 15:50 3,1 C 83 % 1011,1 hPa 0,0 l/m 8,4 km/h (2 Bft) SW 214 0,5 C 12,6 km/h (3 Bft) 100 %
07.12.2017 15:51 3,1 C 83 % 1011,1 hPa 0,0 l/m 12,8 km/h (3 Bft) W-NW 286 0,5 C 25,1 km/h (4 Bft) 100 %
07.12.2017 15:52 3,1 C 83 % 1011,2 hPa 0,0 l/m 4,2 km/h (1 Bft) N 354 0,5 C 9,4 km/h (2 Bft) 100 %
07.12.2017 15:53 3,1 C 83 % 1011,1 hPa 0,0 l/m 3,7 km/h (1 Bft) SW 219 0,5 C 9,4 km/h (2 Bft) 100 %
07.12.2017 15:54 3,2 C 83 % 1011,1 hPa 0,0 l/m 6,8 km/h (2 Bft) NO 46 0,6 C 15,7 km/h (3 Bft) 96 %
07.12.2017 15:55 3,2 C 83 % 1011,2 hPa 0,0 l/m 6,5 km/h (2 Bft) SW 217 0,6 C 12,6 km/h (3 Bft) 100 %
07.12.2017 15:56 3,2 C 83 % 1011,2 hPa 0,0 l/m 9,0 km/h (2 Bft) SW 229 0,6 C 22,0 km/h (4 Bft) 100 %
07.12.2017 15:57 3,2 C 82 % 1011,1 hPa 0,0 l/m 7,1 km/h (2 Bft) W 259 0,4 C 28,2 km/h (4 Bft) 100 %
07.12.2017 15:58 3,2 C 83 % 1011,1 hPa 0,0 l/m 9,1 km/h (2 Bft) O-SO 106 0,6 C 15,7 km/h (3 Bft) 100 %
07.12.2017 15:59 3,2 C 83 % 1011,1 hPa 0,0 l/m 11,5 km/h (2 Bft) W-NW 290 0,6 C 25,1 km/h (4 Bft) 100 %
07.12.2017 16:00 3,2 C 83 % 1011,1 hPa 0,0 l/m 7,9 km/h (2 Bft) W-NW 297 0,6 C 18,8 km/h (3 Bft) 100 %
07.12.2017 16:01 3,2 C 82 % 1011,0 hPa 0,0 l/m 13,3 km/h (3 Bft) W-SW 245 0,4 C 28,2 km/h (4 Bft) 100 %
07.12.2017 16:02 3,2 C 82 % 1011,0 hPa 0,0 l/m 11,6 km/h (2 Bft) N-NW 346 0,4 C 18,8 km/h (3 Bft) 100 %
07.12.2017 16:03 3,2 C 82 % 1011,0 hPa 0,0 l/m 9,7 km/h (2 Bft) SW 220 0,4 C 37,7 km/h (5 Bft) 100 %
07.12.2017 16:04 3,2 C 82 % 1011,0 hPa 0,0 l/m 6,8 km/h (2 Bft) N-NW 328 0,4 C 18,8 km/h (3 Bft) 100 %
07.12.2017 16:05 3,2 C 83 % 1011,0 hPa 0,0 l/m 3,0 km/h (1 Bft) S-SO 160 0,6 C 9,4 km/h (2 Bft) 100 %
07.12.2017 16:06 3,2 C 82 % 1011,0 hPa 0,0 l/m 18,5 km/h (3 Bft) S-SW 200 0,4 C 40,8 km/h (6 Bft) 100 %
07.12.2017 16:07 3,2 C 82 % 1010,9 hPa 0,0 l/m 4,1 km/h (1 Bft) SW 221 0,4 C 18,8 km/h (3 Bft) 100 %
07.12.2017 16:08 3,2 C 82 % 1010,9 hPa 0,0 l/m 8,4 km/h (2 Bft) W 277 0,4 C 18,8 km/h (3 Bft) 96 %
07.12.2017 16:09 3,2 C 82 % 1010,8 hPa 0,0 l/m 10,2 km/h (2 Bft) N-NO 22 0,4 C 15,7 km/h (3 Bft) 100 %
07.12.2017 16:10 3,3 C 82 % 1010,8 hPa 0,0 l/m 5,6 km/h (1 Bft) N-NO 27 0,5 C 18,8 km/h (3 Bft) 100 %
07.12.2017 16:11 3,3 C 82 % 1010,8 hPa 0,0 l/m 12,7 km/h (3 Bft) W-NW 283 0,5 C 22,0 km/h (4 Bft) 100 %
07.12.2017 16:12 3,3 C 82 % 1010,8 hPa 0,0 l/m 4,8 km/h (1 Bft) O 96 0,5 C 22,0 km/h (4 Bft) 100 %
07.12.2017 16:13 3,3 C 82 % 1010,7 hPa 0,0 l/m 6,7 km/h (2 Bft) W 275 0,5 C 15,7 km/h (3 Bft) 100 %
07.12.2017 16:14 3,3 C 82 % 1010,7 hPa 0,0 l/m 13,2 km/h (3 Bft) W 281 0,5 C 31,4 km/h (5 Bft) 100 %
07.12.2017 16:15 3,3 C 82 % 1010,6 hPa 0,0 l/m 13,4 km/h (3 Bft) S-SW 210 0,5 C 25,1 km/h (4 Bft) 88 %
07.12.2017 16:16 3,3 C 82 % 1010,7 hPa 0,0 l/m 6,9 km/h (2 Bft) W-NW 290 0,5 C 18,8 km/h (3 Bft) 100 %
07.12.2017 16:17 3,3 C 82 % 1010,7 hPa 0,0 l/m 9,7 km/h (2 Bft) W-NW 293 0,5 C 22,0 km/h (4 Bft) 100 %
07.12.2017 16:18 3,3 C 82 % 1010,6 hPa 0,0 l/m 14,9 km/h (3 Bft) SW 231 0,5 C 43,9 km/h (6 Bft) 100 %
07.12.2017 16:19 3,3 C 82 % 1010,6 hPa 0,0 l/m 10,0 km/h (2 Bft) W-SW 251 0,5 C 25,1 km/h (4 Bft) 99 %
07.12.2017 16:20 3,4 C 82 % 1010,6 hPa 0,0 l/m 9,8 km/h (2 Bft) S 183 0,6 C 25,1 km/h (4 Bft) 100 %
07.12.2017 16:21 3,4 C 82 % 1010,6 hPa 0,0 l/m 6,7 km/h (2 Bft) O-SO 118 0,6 C 15,7 km/h (3 Bft) 100 %
07.12.2017 16:22 3,4 C 82 % 1010,5 hPa 0,0 l/m 8,1 km/h (2 Bft) SW 219 0,6 C 12,6 km/h (3 Bft) 100 %
07.12.2017 16:23 3,4 C 82 % 1010,5 hPa 0,0 l/m 5,3 km/h (1 Bft) SW 219 0,6 C 12,6 km/h (3 Bft) 100 %
07.12.2017 16:24 3,4 C 82 % 1010,4 hPa 0,0 l/m 4,3 km/h (1 Bft) NO 39 0,6 C 9,4 km/h (2 Bft) 83 %
07.12.2017 16:25 3,4 C 82 % 1010,2 hPa 0,0 l/m 14,0 km/h (3 Bft) O 100 0,6 C 22,0 km/h (4 Bft) 88 %
07.12.2017 16:26 3,4 C 82 % 1010,2 hPa 0,0 l/m 9,5 km/h (2 Bft) W-SW 239 0,6 C 22,0 km/h (4 Bft) 96 %
07.12.2017 16:27 3,4 C 82 % 1010,2 hPa 0,0 l/m 9,9 km/h (2 Bft) O-NO 59 0,6 C 28,2 km/h (4 Bft) 100 %
07.12.2017 16:28 3,4 C 82 % 1010,2 hPa 0,0 l/m 5,1 km/h (1 Bft) S-SW 213 0,6 C 9,4 km/h (2 Bft) 100 %
07.12.2017 16:29 3,4 C 82 % 1010,2 hPa 0,0 l/m 4,0 km/h (1 Bft) N-NO 18 0,6 C 9,4 km/h (2 Bft) 93 %
07.12.2017 16:30 3,4 C 82 % 1010,2 hPa 0,0 l/m 14,0 km/h (3 Bft) NO 44 0,6 C 31,4 km/h (5 Bft) 100 %
07.12.2017 16:31 3,4 C 82 % 1010,0 hPa 0,0 l/m 8,4 km/h (2 Bft) N-NW 337 0,6 C 28,2 km/h (4 Bft) 96 %
07.12.2017 16:32 3,4 C 82 % 1010,1 hPa 0,0 l/m 18,4 km/h (3 Bft) W-SW 257 0,6 C 47,1 km/h (6 Bft) 100 %
07.12.2017 16:33 3,4 C 82 % 1010,2 hPa 0,0 l/m 23,5 km/h (4 Bft) SW 226 0,6 C 47,1 km/h (6 Bft) 100 %
07.12.2017 16:34 3,5 C 82 % 1010,2 hPa 0,0 l/m 5,5 km/h (1 Bft) S 188 0,7 C 15,7 km/h (3 Bft) 99 %
07.12.2017 16:36 3,5 C 82 % 1010,2 hPa 0,0 l/m 11,0 km/h (2 Bft) W 266 0,7 C 25,1 km/h (4 Bft) 98 %
07.12.2017 16:38 3,5 C 82 % 1010,1 hPa 0,0 l/m 12,1 km/h (2 Bft) W-SW 254 0,7 C 31,4 km/h (5 Bft) 96 %
07.12.2017 16:39 3,5 C 82 % 1010,0 hPa 0,0 l/m 3,9 km/h (1 Bft) W-NW 299 0,7 C 18,8 km/h (3 Bft) 100 %
07.12.2017 16:41 3,6 C 82 % 1010,1 hPa 0,0 l/m 10,1 km/h (2 Bft) W-SW 240 0,8 C 31,4 km/h (5 Bft) 100 %
07.12.2017 16:42 3,6 C 82 % 1009,9 hPa 0,0 l/m 20,0 km/h (4 Bft) O-SO 110 0,8 C 40,8 km/h (6 Bft) 100 %
07.12.2017 16:43 3,6 C 82 % 1009,9 hPa 0,0 l/m 8,1 km/h (2 Bft) S-SW 205 0,8 C 18,8 km/h (3 Bft) 100 %
07.12.2017 16:44 3,6 C 82 % 1009,9 hPa 0,0 l/m 9,0 km/h (2 Bft) SO 144 0,8 C 15,7 km/h (3 Bft) 99 %
07.12.2017 16:45 3,6 C 82 % 1010,0 hPa 0,0 l/m 9,3 km/h (2 Bft) NW 323 0,8 C 31,4 km/h (5 Bft) 100 %
07.12.2017 16:46 3,6 C 82 % 1009,9 hPa 0,0 l/m 10,2 km/h (2 Bft) W-NW 284 0,8 C 34,5 km/h (5 Bft) 100 %
07.12.2017 16:47 3,6 C 82 % 1009,8 hPa 0,0 l/m 8,0 km/h (2 Bft) S 184 0,8 C 18,8 km/h (3 Bft) 100 %
07.12.2017 16:48 3,6 C 82 % 1009,8 hPa 0,0 l/m 9,2 km/h (2 Bft) SO 136 0,8 C 31,4 km/h (5 Bft) 96 %
07.12.2017 16:49 3,7 C 82 % 1009,8 hPa 0,0 l/m 12,3 km/h (3 Bft) S 177 0,9 C 31,4 km/h (5 Bft) 100 %
07.12.2017 16:50 3,7 C 82 % 1009,7 hPa 0,0 l/m 20,7 km/h (4 Bft) S 188 0,9 C 53,3 km/h (7 Bft) 100 %
07.12.2017 16:51 3,7 C 82 % 1009,6 hPa 0,0 l/m 10,9 km/h (2 Bft) W 281 0,9 C 18,8 km/h (3 Bft) 100 %
07.12.2017 16:52 3,7 C 82 % 1009,7 hPa 0,0 l/m 9,7 km/h (2 Bft) NW 304 0,9 C 18,8 km/h (3 Bft) 100 %
07.12.2017 16:53 3,7 C 82 % 1009,6 hPa 0,0 l/m 13,2 km/h (3 Bft) O 79 0,9 C 31,4 km/h (5 Bft) 100 %
07.12.2017 16:54 3,7 C 82 % 1009,8 hPa 0,0 l/m 11,9 km/h (2 Bft) W-SW 247 0,9 C 34,5 km/h (5 Bft) 100 %
07.12.2017 16:55 3,7 C 82 % 1009,5 hPa 0,0 l/m 12,9 km/h (3 Bft) W-SW 248 0,9 C 31,4 km/h (5 Bft) 100 %
07.12.2017 16:56 3,8 C 81 % 1009,5 hPa 0,0 l/m 9,7 km/h (2 Bft) SW 217 0,8 C 28,2 km/h (4 Bft) 100 %
07.12.2017 16:57 3,8 C 81 % 1009,5 hPa 0,0 l/m 8,8 km/h (2 Bft) SW 215 0,8 C 31,4 km/h (5 Bft) 100 %
07.12.2017 16:58 3,8 C 81 % 1009,5 hPa 0,0 l/m 4,7 km/h (1 Bft) SW 229 0,8 C 12,6 km/h (3 Bft) 100 %
07.12.2017 16:59 3,8 C 81 % 1009,5 hPa 0,0 l/m 11,4 km/h (2 Bft) W 271 0,8 C 25,1 km/h (4 Bft) 100 %
07.12.2017 17:00 3,8 C 81 % 1009,5 hPa 0,0 l/m 6,1 km/h (2 Bft) O 101 0,8 C 15,7 km/h (3 Bft) 89 %
07.12.2017 17:02 3,8 C 81 % 1009,3 hPa 0,0 l/m 12,2 km/h (2 Bft) W-NW 295 0,8 C 28,2 km/h (4 Bft) 98 %
07.12.2017 17:03 3,8 C 81 % 1009,3 hPa 0,0 l/m 8,9 km/h (2 Bft) N 349 0,8 C 18,8 km/h (3 Bft) 92 %
07.12.2017 17:04 3,8 C 81 % 1009,4 hPa 0,0 l/m 9,3 km/h (2 Bft) W-NW 293 0,8 C 18,8 km/h (3 Bft) 100 %
07.12.2017 17:05 3,8 C 81 % 1009,4 hPa 0,0 l/m 10,7 km/h (2 Bft) SW 217 0,8 C 18,8 km/h (3 Bft) 100 %
07.12.2017 17:06 3,8 C 81 % 1009,4 hPa 0,0 l/m 8,0 km/h (2 Bft) W 267 0,8 C 18,8 km/h (3 Bft) 100 %
07.12.2017 17:07 3,8 C 81 % 1009,3 hPa 0,0 l/m 6,0 km/h (2 Bft) O 89 0,8 C 22,0 km/h (4 Bft) 92 %
07.12.2017 17:08 3,8 C 81 % 1009,4 hPa 0,0 l/m 3,3 km/h (1 Bft) W-SW 255 0,8 C 12,6 km/h (3 Bft) 97 %
07.12.2017 17:09 3,8 C 81 % 1009,4 hPa 0,0 l/m 9,7 km/h (2 Bft) SW 219 0,8 C 28,2 km/h (4 Bft) 92 %
07.12.2017 17:10 3,8 C 81 % 1009,2 hPa 0,0 l/m 9,0 km/h (2 Bft) SW 228 0,8 C 18,8 km/h (3 Bft) 85 %
07.12.2017 17:11 3,8 C 81 % 1009,2 hPa 0,0 l/m 9,1 km/h (2 Bft) N-NW 338 0,8 C 22,0 km/h (4 Bft) 89 %
07.12.2017 17:12 3,8 C 81 % 1009,2 hPa 0,0 l/m 6,4 km/h (2 Bft) SW 226 0,8 C 15,7 km/h (3 Bft) 81 %
07.12.2017 17:13 3,8 C 81 % 1009,2 hPa 0,0 l/m 14,4 km/h (3 Bft) SO 146 0,8 C 31,4 km/h (5 Bft) 92 %
07.12.2017 17:14 3,9 C 81 % 1009,2 hPa 0,0 l/m 7,1 km/h (2 Bft) NO 55 0,9 C 22,0 km/h (4 Bft) 93 %
07.12.2017 17:15 3,9 C 81 % 1009,1 hPa 0,0 l/m 6,9 km/h (2 Bft) W-SW 238 0,9 C 12,6 km/h (3 Bft) 88 %
07.12.2017 17:16 3,9 C 81 % 1009,1 hPa 0,0 l/m 11,6 km/h (2 Bft) SW 231 0,9 C 25,1 km/h (4 Bft) 92 %
07.12.2017 17:17 3,9 C 80 % 1009,1 hPa 0,0 l/m 9,0 km/h (2 Bft) NO 49 0,8 C 25,1 km/h (4 Bft) 89 %
07.12.2017 17:18 3,9 C 81 % 1009,0 hPa 0,0 l/m 17,6 km/h (3 Bft) N-NO 18 0,9 C 50,2 km/h (7 Bft) 92 %
07.12.2017 17:19 3,9 C 80 % 1009,0 hPa 0,0 l/m 5,6 km/h (1 Bft) SW 221 0,8 C 12,6 km/h (3 Bft) 96 %
07.12.2017 17:20 3,9 C 80 % 1009,0 hPa 0,0 l/m 13,7 km/h (3 Bft) NW 313 0,8 C 22,0 km/h (4 Bft) 100 %
07.12.2017 17:21 4,0 C 80 % 1009,0 hPa 0,0 l/m 20,1 km/h (4 Bft) NO 55 0,9 C 43,9 km/h (6 Bft) 97 %
07.12.2017 17:22 4,0 C 80 % 1008,9 hPa 0,0 l/m 7,5 km/h (2 Bft) W 269 0,9 C 15,7 km/h (3 Bft) 93 %
07.12.2017 17:23 4,0 C 80 % 1008,9 hPa 0,0 l/m 15,4 km/h (3 Bft) O-SO 120 0,9 C 34,5 km/h (5 Bft) 93 %
07.12.2017 17:24 4,0 C 80 % 1008,9 hPa 0,0 l/m 3,8 km/h (1 Bft) SW 234 0,9 C 9,4 km/h (2 Bft) 100 %
07.12.2017 17:25 4,0 C 80 % 1008,8 hPa 0,0 l/m 8,0 km/h (2 Bft) W-SW 257 0,9 C 18,8 km/h (3 Bft) 100 %
07.12.2017 17:26 4,1 C 80 % 1008,8 hPa 0,0 l/m 11,3 km/h (2 Bft) W-NW 300 1,0 C 31,4 km/h (5 Bft) 100 %
07.12.2017 17:27 4,1 C 80 % 1008,7 hPa 0,0 l/m 6,3 km/h (2 Bft) SW 219 1,0 C 15,7 km/h (3 Bft) 100 %
07.12.2017 17:28 4,1 C 80 % 1008,7 hPa 0,0 l/m 7,0 km/h (2 Bft) SW 224 1,0 C 22,0 km/h (4 Bft) 100 %
07.12.2017 17:29 4,1 C 80 % 1008,7 hPa 0,0 l/m 13,6 km/h (3 Bft) W-SW 247 1,0 C 31,4 km/h (5 Bft) 100 %
07.12.2017 17:30 4,1 C 80 % 1008,6 hPa 0,0 l/m 9,7 km/h (2 Bft) S-SW 202 1,0 C 34,5 km/h (5 Bft) 100 %
07.12.2017 17:31 4,1 C 80 % 1008,6 hPa 0,0 l/m 7,6 km/h (2 Bft) SW 229 1,0 C 22,0 km/h (4 Bft) 100 %
07.12.2017 17:32 4,1 C 80 % 1008,6 hPa 0,0 l/m 15,7 km/h (3 Bft) SW 216 1,0 C 47,1 km/h (6 Bft) 100 %
07.12.2017 17:33 4,1 C 80 % 1008,5 hPa 0,0 l/m 14,7 km/h (3 Bft) SW 222 1,0 C 28,2 km/h (4 Bft) 100 %
07.12.2017 17:34 4,1 C 80 % 1008,4 hPa 0,0 l/m 20,3 km/h (4 Bft) W-NW 292 1,0 C 37,7 km/h (5 Bft) 100 %
07.12.2017 17:35 4,1 C 80 % 1008,4 hPa 0,0 l/m 5,2 km/h (1 Bft) W-SW 248 1,0 C 12,6 km/h (3 Bft) 100 %
07.12.2017 17:36 4,1 C 80 % 1008,4 hPa 0,0 l/m 7,4 km/h (2 Bft) O 101 1,0 C 18,8 km/h (3 Bft) 100 %
07.12.2017 17:37 4,1 C 80 % 1008,4 hPa 0,0 l/m 13,2 km/h (3 Bft) N-NW 327 1,0 C 31,4 km/h (5 Bft) 99 %
07.12.2017 17:38 4,1 C 80 % 1008,3 hPa 0,0 l/m 8,8 km/h (2 Bft) S-SW 207 1,0 C 15,7 km/h (3 Bft) 100 %
07.12.2017 17:39 4,1 C 80 % 1008,3 hPa 0,0 l/m 13,8 km/h (3 Bft) NW 304 1,0 C 28,2 km/h (4 Bft) 100 %
07.12.2017 17:40 4,2 C 80 % 1008,2 hPa 0,0 l/m 10,7 km/h (2 Bft) S-SO 155 1,1 C 18,8 km/h (3 Bft) 100 %
07.12.2017 17:41 4,2 C 80 % 1008,1 hPa 0,0 l/m 16,9 km/h (3 Bft) W-SW 252 1,1 C 31,4 km/h (5 Bft) 100 %
07.12.2017 17:42 4,2 C 80 % 1008,1 hPa 0,0 l/m 16,0 km/h (3 Bft) SW 233 1,1 C 37,7 km/h (5 Bft) 100 %
07.12.2017 17:43 4,2 C 80 % 1008,1 hPa 0,0 l/m 11,1 km/h (2 Bft) S 188 1,1 C 25,1 km/h (4 Bft) 100 %
07.12.2017 17:44 4,2 C 80 % 1008,2 hPa 0,0 l/m 12,7 km/h (3 Bft) SW 217 1,1 C 25,1 km/h (4 Bft) 100 %
07.12.2017 17:45 4,2 C 80 % 1008,3 hPa 0,0 l/m 14,1 km/h (3 Bft) W 259 1,1 C 28,2 km/h (4 Bft) 96 %
07.12.2017 17:46 4,2 C 80 % 1008,2 hPa 0,0 l/m 17,7 km/h (3 Bft) S-SW 203 1,1 C 53,3 km/h (7 Bft) 96 %
07.12.2017 17:47 4,2 C 80 % 1008,2 hPa 0,0 l/m 18,8 km/h (3 Bft) SW 230 1,1 C 34,5 km/h (5 Bft) 100 %
07.12.2017 17:48 4,2 C 80 % 1008,2 hPa 0,0 l/m 8,3 km/h (2 Bft) NW 310 1,1 C 18,8 km/h (3 Bft) 92 %
07.12.2017 17:49 4,3 C 80 % 1008,2 hPa 0,0 l/m 16,6 km/h (3 Bft) NW 319 1,2 C 28,2 km/h (4 Bft) 93 %
07.12.2017 17:50 4,3 C 80 % 1008,2 hPa 0,0 l/m 19,2 km/h (3 Bft) S-SW 209 1,2 C 28,2 km/h (4 Bft) 81 %
07.12.2017 17:51 4,3 C 80 % 1008,3 hPa 0,0 l/m 12,4 km/h (3 Bft) NW 326 1,2 C 37,7 km/h (5 Bft) 92 %
07.12.2017 17:52 4,3 C 80 % 1008,2 hPa 0,0 l/m 22,9 km/h (4 Bft) N 351 1,2 C 40,8 km/h (6 Bft) 100 %
07.12.2017 17:53 4,3 C 80 % 1008,2 hPa 0,0 l/m 8,5 km/h (2 Bft) N-NW 342 1,2 C 25,1 km/h (4 Bft) 96 %
07.12.2017 17:54 4,3 C 81 % 1008,2 hPa 0,0 l/m 8,3 km/h (2 Bft) SW 220 1,3 C 25,1 km/h (4 Bft) 100 %
07.12.2017 17:55 4,3 C 81 % 1008,1 hPa 0,0 l/m 10,9 km/h (2 Bft) W-SW 239 1,3 C 53,3 km/h (7 Bft) 100 %
07.12.2017 17:56 4,3 C 81 % 1008,1 hPa 0,0 l/m 7,5 km/h (2 Bft) W 266 1,3 C 15,7 km/h (3 Bft) 100 %
07.12.2017 17:57 4,3 C 81 % 1008,0 hPa 0,0 l/m 9,1 km/h (2 Bft) S-SW 200 1,3 C 34,5 km/h (5 Bft) 100 %
07.12.2017 17:58 4,3 C 81 % 1008,0 hPa 0,0 l/m 11,3 km/h (2 Bft) W-SW 240 1,3 C 34,5 km/h (5 Bft) 100 %
07.12.2017 17:59 4,3 C 81 % 1008,0 hPa 0,0 l/m 22,0 km/h (4 Bft) W-SW 250 1,3 C 37,7 km/h (5 Bft) 93 %
07.12.2017 18:00 4,4 C 81 % 1008,0 hPa 0,0 l/m 15,5 km/h (3 Bft) S-SW 198 1,4 C 31,4 km/h (5 Bft) 85 %
07.12.2017 18:01 4,4 C 81 % 1008,1 hPa 0,0 l/m 19,4 km/h (3 Bft) NW 321 1,4 C 37,7 km/h (5 Bft) 96 %
07.12.2017 18:02 4,4 C 81 % 1008,0 hPa 0,0 l/m 5,1 km/h (1 Bft) W-NW 282 1,4 C 6,3 km/h (2 Bft) 89 %
07.12.2017 18:03 4,4 C 81 % 1008,0 hPa 0,0 l/m 16,1 km/h (3 Bft) W 278 1,4 C 62,8 km/h (8 Bft) 91 %
07.12.2017 18:04 4,4 C 81 % 1008,0 hPa 0,0 l/m 11,6 km/h (2 Bft) NO 34 1,4 C 28,2 km/h (4 Bft) 80 %
07.12.2017 18:05 4,4 C 81 % 1008,0 hPa 0,0 l/m 14,6 km/h (3 Bft) S-SW 210 1,4 C 40,8 km/h (6 Bft) 89 %
07.12.2017 18:06 4,4 C 81 % 1008,0 hPa 0,0 l/m 17,6 km/h (3 Bft) W-NW 293 1,4 C 34,5 km/h (5 Bft) 85 %
07.12.2017 18:07 4,4 C 81 % 1008,1 hPa 0,0 l/m 11,8 km/h (2 Bft) S-SW 200 1,4 C 25,1 km/h (4 Bft) 96 %
07.12.2017 18:08 4,4 C 81 % 1008,1 hPa 0,0 l/m 19,6 km/h (3 Bft) SW 236 1,4 C 28,2 km/h (4 Bft) 83 %
07.12.2017 18:09 4,4 C 81 % 1007,9 hPa 0,0 l/m 7,1 km/h (2 Bft) O-NO 67 1,4 C 22,0 km/h (4 Bft) 89 %
07.12.2017 18:10 4,4 C 81 % 1007,9 hPa 0,0 l/m 12,9 km/h (3 Bft) SW 228 1,4 C 34,5 km/h (5 Bft) 75 %
07.12.2017 18:11 4,4 C 81 % 1007,9 hPa 0,0 l/m 10,7 km/h (2 Bft) W 266 1,4 C 37,7 km/h (5 Bft) 73 %
07.12.2017 18:12 4,4 C 81 % 1007,7 hPa 0,0 l/m 13,6 km/h (3 Bft) NW 309 1,4 C 31,4 km/h (5 Bft) 80 %
07.12.2017 18:13 4,4 C 81 % 1007,7 hPa 0,0 l/m 12,2 km/h (2 Bft) W 269 1,4 C 25,1 km/h (4 Bft) 73 %
07.12.2017 18:14 4,4 C 81 % 1007,7 hPa 0,0 l/m 12,9 km/h (3 Bft) S-SO 147 1,4 C 25,1 km/h (4 Bft) 79 %
07.12.2017 18:15 4,4 C 81 % 1007,6 hPa 0,0 l/m 13,9 km/h (3 Bft) W 268 1,4 C 31,4 km/h (5 Bft) 87 %
07.12.2017 18:16 4,4 C 81 % 1007,4 hPa 0,0 l/m 16,9 km/h (3 Bft) NW 310 1,4 C 40,8 km/h (6 Bft) 83 %
07.12.2017 18:17 4,4 C 81 % 1007,3 hPa 0,0 l/m 14,9 km/h (3 Bft) N 358 1,4 C 34,5 km/h (5 Bft) 72 %
07.12.2017 18:18 4,4 C 81 % 1007,3 hPa 0,0 l/m 12,3 km/h (3 Bft) S-SO 150 1,4 C 31,4 km/h (5 Bft) 83 %
07.12.2017 18:19 4,4 C 81 % 1007,4 hPa 0,0 l/m 14,6 km/h (3 Bft) W 268 1,4 C 28,2 km/h (4 Bft) 92 %
07.12.2017 18:20 4,4 C 81 % 1007,4 hPa 0,0 l/m 16,0 km/h (3 Bft) O-SO 121 1,4 C 34,5 km/h (5 Bft) 79 %
07.12.2017 18:21 4,4 C 82 % 1007,5 hPa 0,0 l/m 8,0 km/h (2 Bft) SW 216 1,6 C 22,0 km/h (4 Bft) 91 %
07.12.2017 18:22 4,4 C 82 % 1007,5 hPa 0,0 l/m 20,2 km/h (4 Bft) N 8 1,6 C 59,6 km/h (7 Bft) 92 %
07.12.2017 18:23 4,4 C 82 % 1007,5 hPa 0,0 l/m 9,4 km/h (2 Bft) S-SO 165 1,6 C 18,8 km/h (3 Bft) 93 %
07.12.2017 18:24 4,4 C 82 % 1007,4 hPa 0,0 l/m 7,3 km/h (2 Bft) W-NW 288 1,6 C 31,4 km/h (5 Bft) 92 %
07.12.2017 18:25 4,4 C 82 % 1007,4 hPa 0,0 l/m 23,8 km/h (4 Bft) O-NO 74 1,6 C 53,3 km/h (7 Bft) 88 %
07.12.2017 18:26 4,4 C 82 % 1007,4 hPa 0,0 l/m 18,1 km/h (3 Bft) O-NO 63 1,6 C 34,5 km/h (5 Bft) 85 %
07.12.2017 18:27 4,4 C 82 % 1007,3 hPa 0,0 l/m 16,7 km/h (3 Bft) SW 234 1,6 C 28,2 km/h (4 Bft) 83 %
07.12.2017 18:28 4,4 C 82 % 1007,3 hPa 0,0 l/m 15,5 km/h (3 Bft) O 98 1,6 C 28,2 km/h (4 Bft) 88 %
07.12.2017 18:29 4,4 C 82 % 1007,4 hPa 0,0 l/m 15,3 km/h (3 Bft) W-NW 303 1,6 C 31,4 km/h (5 Bft) 83 %
07.12.2017 18:30 4,4 C 82 % 1007,4 hPa 0,0 l/m 21,0 km/h (4 Bft) W 278 1,6 C 43,9 km/h (6 Bft) 100 %
07.12.2017 18:31 4,4 C 82 % 1007,3 hPa 0,0 l/m 13,9 km/h (3 Bft) S 183 1,6 C 25,1 km/h (4 Bft) 96 %
07.12.2017 18:32 4,4 C 83 % 1007,3 hPa 0,0 l/m 9,6 km/h (2 Bft) S 185 1,8 C 18,8 km/h (3 Bft) 96 %
07.12.2017 18:33 4,4 C 83 % 1007,3 hPa 0,0 l/m 17,2 km/h (3 Bft) O 94 1,8 C 53,3 km/h (7 Bft) 100 %
07.12.2017 18:34 4,4 C 83 % 1007,4 hPa 0,0 l/m 10,7 km/h (2 Bft) SW 224 1,8 C 25,1 km/h (4 Bft) 97 %
07.12.2017 18:35 4,4 C 83 % 1007,3 hPa 0,0 l/m 11,1 km/h (2 Bft) W-NW 288 1,8 C 25,1 km/h (4 Bft) 100 %
07.12.2017 18:36 4,4 C 83 % 1007,3 hPa 0,0 l/m 19,2 km/h (3 Bft) SO 131 1,8 C 40,8 km/h (6 Bft) 96 %
07.12.2017 18:37 4,4 C 83 % 1007,1 hPa 0,0 l/m 20,1 km/h (4 Bft) S-SW 199 1,8 C 47,1 km/h (6 Bft) 96 %
07.12.2017 18:38 4,4 C 83 % 1007,2 hPa 0,0 l/m 22,0 km/h (4 Bft) W-NW 288 1,8 C 40,8 km/h (6 Bft) 99 %
07.12.2017 18:39 4,4 C 84 % 1007,2 hPa 0,0 l/m 15,1 km/h (3 Bft) W 266 1,9 C 31,4 km/h (5 Bft) 100 %
07.12.2017 18:40 4,4 C 84 % 1007,1 hPa 0,0 l/m 24,3 km/h (4 Bft) W-SW 239 1,9 C 62,8 km/h (8 Bft) 96 %
07.12.2017 18:41 4,4 C 84 % 1007,2 hPa 0,0 l/m 22,5 km/h (4 Bft) SW 232 1,9 C 40,8 km/h (6 Bft) 96 %
07.12.2017 18:42 4,4 C 84 % 1007,2 hPa 0,0 l/m 16,4 km/h (3 Bft) SW 224 1,9 C 28,2 km/h (4 Bft) 93 %
07.12.2017 18:43 4,4 C 84 % 1007,3 hPa 0,0 l/m 17,0 km/h (3 Bft) SW 233 1,9 C 40,8 km/h (6 Bft) 97 %
07.12.2017 18:44 4,4 C 84 % 1007,3 hPa 0,0 l/m 13,0 km/h (3 Bft) W-SW 248 1,9 C 22,0 km/h (4 Bft) 100 %
07.12.2017 18:45 4,4 C 84 % 1007,0 hPa 0,0 l/m 18,2 km/h (3 Bft) W-SW 255 1,9 C 28,2 km/h (4 Bft) 100 %
07.12.2017 18:46 4,4 C 84 % 1007,0 hPa 0,0 l/m 10,4 km/h (2 Bft) NW 305 1,9 C 28,2 km/h (4 Bft) 100 %
07.12.2017 18:47 4,4 C 84 % 1007,0 hPa 0,0 l/m 16,2 km/h (3 Bft) S 175 1,9 C 31,4 km/h (5 Bft) 97 %
07.12.2017 18:48 4,4 C 84 % 1006,9 hPa 0,0 l/m 19,7 km/h (3 Bft) W 273 1,9 C 37,7 km/h (5 Bft) 96 %
07.12.2017 18:49 4,4 C 84 % 1007,0 hPa 0,0 l/m 26,5 km/h (4 Bft) S-SO 159 1,9 C 69,0 km/h (8 Bft) 100 %
07.12.2017 18:50 4,5 C 84 % 1006,8 hPa 0,0 l/m 25,1 km/h (4 Bft) S-SW 212 2,0 C 56,5 km/h (7 Bft) 100 %
07.12.2017 18:51 4,5 C 84 % 1006,8 hPa 0,0 l/m 23,8 km/h (4 Bft) SW 229 2,0 C 47,1 km/h (6 Bft) 96 %
07.12.2017 18:52 4,5 C 84 % 1006,9 hPa 0,0 l/m 11,0 km/h (2 Bft) N-NO 19 2,0 C 22,0 km/h (4 Bft) 96 %
07.12.2017 18:53 4,5 C 84 % 1006,9 hPa 0,0 l/m 8,8 km/h (2 Bft) N 3 2,0 C 28,2 km/h (4 Bft) 96 %
07.12.2017 18:54 4,5 C 84 % 1006,9 hPa 0,0 l/m 10,5 km/h (2 Bft) S-SO 159 2,0 C 15,7 km/h (3 Bft) 96 %
07.12.2017 18:55 4,5 C 84 % 1006,9 hPa 0,0 l/m 13,8 km/h (3 Bft) O 95 2,0 C 31,4 km/h (5 Bft) 100 %
07.12.2017 18:56 4,5 C 85 % 1006,8 hPa 0,0 l/m 15,8 km/h (3 Bft) S 176 2,2 C 28,2 km/h (4 Bft) 96 %
07.12.2017 18:57 4,5 C 85 % 1006,8 hPa 0,0 l/m 18,0 km/h (3 Bft) W-SW 240 2,2 C 37,7 km/h (5 Bft) 97 %
07.12.2017 18:58 4,5 C 85 % 1006,7 hPa 0,0 l/m 17,0 km/h (3 Bft) O-SO 119 2,2 C 37,7 km/h (5 Bft) 100 %
07.12.2017 18:59 4,5 C 85 % 1006,7 hPa 0,0 l/m 15,2 km/h (3 Bft) O 101 2,2 C 34,5 km/h (5 Bft) 100 %
07.12.2017 19:00 4,4 C 85 % 1006,6 hPa 0,0 l/m 18,3 km/h (3 Bft) S 174 2,1 C 37,7 km/h (5 Bft) 100 %
07.12.2017 19:01 4,4 C 85 % 1006,6 hPa 0,0 l/m 12,4 km/h (3 Bft) W-SW 257 2,1 C 28,2 km/h (4 Bft) 100 %
07.12.2017 19:02 4,5 C 85 % 1006,6 hPa 0,0 l/m 11,2 km/h (2 Bft) SW 229 2,2 C 22,0 km/h (4 Bft) 100 %
07.12.2017 19:03 4,4 C 85 % 1006,6 hPa 0,0 l/m 15,1 km/h (3 Bft) O-SO 105 2,1 C 25,1 km/h (4 Bft) 100 %
07.12.2017 19:04 4,4 C 85 % 1006,6 hPa 0,0 l/m 14,5 km/h (3 Bft) SW 217 2,1 C 22,0 km/h (4 Bft) 100 %
07.12.2017 19:05 4,4 C 85 % 1006,5 hPa 0,0 l/m 16,3 km/h (3 Bft) SO 135 2,1 C 43,9 km/h (6 Bft) 100 %
07.12.2017 19:06 4,4 C 86 % 1006,4 hPa 0,0 l/m 5,5 km/h (1 Bft) W 281 2,3 C 12,6 km/h (3 Bft) 100 %
07.12.2017 19:07 4,5 C 86 % 1006,6 hPa 0,0 l/m 17,3 km/h (3 Bft) N-NO 28 2,4 C 28,2 km/h (4 Bft) 100 %
07.12.2017 19:08 4,5 C 86 % 1006,6 hPa 0,0 l/m 21,8 km/h (4 Bft) O-SO 116 2,4 C 53,3 km/h (7 Bft) 100 %
07.12.2017 19:09 4,5 C 86 % 1006,6 hPa 0,0 l/m 17,7 km/h (3 Bft) S-SW 195 2,4 C 34,5 km/h (5 Bft) 100 %
07.12.2017 19:10 4,5 C 86 % 1006,6 hPa 0,0 l/m 8,5 km/h (2 Bft) SW 226 2,4 C 25,1 km/h (4 Bft) 100 %
07.12.2017 19:11 4,5 C 86 % 1006,6 hPa 0,0 l/m 13,0 km/h (3 Bft) S 178 2,4 C 25,1 km/h (4 Bft) 100 %
07.12.2017 19:12 4,4 C 86 % 1006,6 hPa 0,0 l/m 19,9 km/h (4 Bft) SW 219 2,3 C 40,8 km/h (6 Bft) 100 %
07.12.2017 19:13 4,5 C 86 % 1006,5 hPa 0,0 l/m 7,8 km/h (2 Bft) S 188 2,4 C 18,8 km/h (3 Bft) 100 %
07.12.2017 19:14 4,4 C 87 % 1006,4 hPa 0,0 l/m 20,7 km/h (4 Bft) S 173 2,4 C 37,7 km/h (5 Bft) 100 %
07.12.2017 19:15 4,4 C 87 % 1006,5 hPa 0,0 l/m 6,0 km/h (2 Bft) W-SW 245 2,4 C 12,6 km/h (3 Bft) 100 %
07.12.2017 19:16 4,4 C 87 % 1006,4 hPa 0,0 l/m 14,1 km/h (3 Bft) N-NW 344 2,4 C 31,4 km/h (5 Bft) 100 %
07.12.2017 19:17 4,4 C 87 % 1006,3 hPa 0,0 l/m 10,2 km/h (2 Bft) S-SO 158 2,4 C 18,8 km/h (3 Bft) 100 %
07.12.2017 19:18 4,4 C 87 % 1006,4 hPa 0,0 l/m 3,1 km/h (1 Bft) O 79 2,4 C 9,4 km/h (2 Bft) 100 %
07.12.2017 19:19 4,4 C 87 % 1006,4 hPa 0,0 l/m 6,1 km/h (2 Bft) S-SW 206 2,4 C 25,1 km/h (4 Bft) 100 %
07.12.2017 19:20 4,4 C 88 % 1006,4 hPa 0,0 l/m 10,9 km/h (2 Bft) W-NW 300 2,6 C 22,0 km/h (4 Bft) 100 %
07.12.2017 19:22 4,3 C 88 % 1006,4 hPa 0,0 l/m 8,5 km/h (2 Bft) SO 133 2,5 C 18,8 km/h (3 Bft) 100 %
07.12.2017 19:23 4,3 C 88 % 1006,4 hPa 0,0 l/m 9,9 km/h (2 Bft) W-NW 285 2,5 C 31,4 km/h (5 Bft) 100 %
07.12.2017 19:24 4,3 C 88 % 1006,5 hPa 0,0 l/m 10,3 km/h (2 Bft) S 188 2,5 C 18,8 km/h (3 Bft) 100 %
07.12.2017 19:25 4,3 C 89 % 1006,4 hPa 0,0 l/m 6,3 km/h (2 Bft) SW 215 2,7 C 18,8 km/h (3 Bft) 100 %
07.12.2017 19:27 4,3 C 89 % 1006,2 hPa 0,0 l/m 3,8 km/h (1 Bft) NO 43 2,7 C 18,8 km/h (3 Bft) 100 %
07.12.2017 19:28 4,3 C 89 % 1006,2 hPa 0,0 l/m 7,2 km/h (2 Bft) W-NW 292 2,7 C 34,5 km/h (5 Bft) 100 %
07.12.2017 19:29 4,3 C 89 % 1006,2 hPa 0,0 l/m 10,7 km/h (2 Bft) O-SO 120 2,7 C 22,0 km/h (4 Bft) 100 %
07.12.2017 19:30 4,3 C 89 % 1006,3 hPa 0,0 l/m 11,0 km/h (2 Bft) W-SW 245 2,7 C 15,7 km/h (3 Bft) 100 %
07.12.2017 19:31 4,3 C 89 % 1006,3 hPa 0,0 l/m 8,6 km/h (2 Bft) W 265 2,7 C 15,7 km/h (3 Bft) 100 %
07.12.2017 19:32 4,3 C 90 % 1006,2 hPa 0,0 l/m 7,7 km/h (2 Bft) SW 226 2,8 C 18,8 km/h (3 Bft) 100 %
07.12.2017 19:33 4,3 C 90 % 1006,1 hPa 0,0 l/m 7,2 km/h (2 Bft) W-SW 245 2,8 C 15,7 km/h (3 Bft) 100 %
07.12.2017 19:34 4,2 C 90 % 1006,0 hPa 0,0 l/m 9,7 km/h (2 Bft) W-SW 240 2,7 C 34,5 km/h (5 Bft) 100 %
07.12.2017 19:35 4,2 C 90 % 1006,0 hPa 0,0 l/m 13,0 km/h (3 Bft) W 263 2,7 C 28,2 km/h (4 Bft) 100 %
07.12.2017 19:36 4,2 C 90 % 1006,1 hPa 0,0 l/m 19,8 km/h (3 Bft) W 271 2,7 C 40,8 km/h (6 Bft) 100 %
07.12.2017 19:37 4,2 C 90 % 1006,1 hPa 0,0 l/m 14,4 km/h (3 Bft) W-NW 294 2,7 C 37,7 km/h (5 Bft) 100 %
07.12.2017 19:38 4,2 C 90 % 1006,0 hPa 0,0 l/m 10,5 km/h (2 Bft) NO 46 2,7 C 25,1 km/h (4 Bft) 100 %
07.12.2017 19:39 4,3 C 90 % 1006,0 hPa 0,0 l/m 16,4 km/h (3 Bft) W-NW 302 2,8 C 34,5 km/h (5 Bft) 100 %
07.12.2017 19:40 4,3 C 90 % 1006,0 hPa 0,0 l/m 9,8 km/h (2 Bft) O-NO 67 2,8 C 28,2 km/h (4 Bft) 100 %
07.12.2017 19:41 4,3 C 90 % 1005,9 hPa 0,0 l/m 18,8 km/h (3 Bft) S-SW 212 2,8 C 40,8 km/h (6 Bft) 100 %
07.12.2017 19:42 4,3 C 90 % 1006,0 hPa 0,0 l/m 9,4 km/h (2 Bft) W 280 2,8 C 18,8 km/h (3 Bft) 100 %
07.12.2017 19:43 4,3 C 90 % 1006,0 hPa 0,0 l/m 14,3 km/h (3 Bft) W-NW 290 2,8 C 25,1 km/h (4 Bft) 100 %
07.12.2017 19:44 4,3 C 90 % 1005,9 hPa 0,0 l/m 17,1 km/h (3 Bft) N-NO 20 2,8 C 31,4 km/h (5 Bft) 100 %
07.12.2017 19:45 4,3 C 90 % 1005,9 hPa 0,0 l/m 11,4 km/h (2 Bft) S-SW 201 2,8 C 28,2 km/h (4 Bft) 100 %
07.12.2017 19:46 4,3 C 90 % 1005,8 hPa 0,0 l/m 19,2 km/h (3 Bft) W-SW 244 2,8 C 43,9 km/h (6 Bft) 100 %
07.12.2017 19:47 4,3 C 90 % 1005,8 hPa 0,0 l/m 18,1 km/h (3 Bft) W-SW 243 2,8 C 37,7 km/h (5 Bft) 100 %
07.12.2017 19:48 4,3 C 90 % 1005,8 hPa 0,0 l/m 10,4 km/h (2 Bft) NO 44 2,8 C 22,0 km/h (4 Bft) 100 %
07.12.2017 19:49 4,3 C 90 % 1005,8 hPa 0,0 l/m 12,1 km/h (2 Bft) S-SW 209 2,8 C 31,4 km/h (5 Bft) 100 %
07.12.2017 19:50 4,4 C 90 % 1005,8 hPa 0,0 l/m 10,7 km/h (2 Bft) W 269 2,9 C 22,0 km/h (4 Bft) 100 %
07.12.2017 19:51 4,4 C 90 % 1005,9 hPa 0,0 l/m 10,8 km/h (2 Bft) S-SO 156 2,9 C 25,1 km/h (4 Bft) 100 %
07.12.2017 19:52 4,4 C 90 % 1005,9 hPa 0,0 l/m 14,2 km/h (3 Bft) SW 217 2,9 C 25,1 km/h (4 Bft) 100 %
07.12.2017 19:53 4,4 C 90 % 1006,0 hPa 0,0 l/m 15,5 km/h (3 Bft) NO 39 2,9 C 31,4 km/h (5 Bft) 100 %
07.12.2017 19:54 4,4 C 90 % 1006,0 hPa 0,0 l/m 16,8 km/h (3 Bft) SW 229 2,9 C 28,2 km/h (4 Bft) 100 %
07.12.2017 19:55 4,4 C 90 % 1005,9 hPa 0,0 l/m 13,5 km/h (3 Bft) W-SW 242 2,9 C 28,2 km/h (4 Bft) 100 %
07.12.2017 19:57 4,5 C 89 % 1005,8 hPa 0,0 l/m 20,0 km/h (4 Bft) W-NW 293 2,8 C 40,8 km/h (6 Bft) 100 %
07.12.2017 19:58 4,5 C 89 % 1005,8 hPa 0,0 l/m 18,5 km/h (3 Bft) W-SW 240 2,8 C 28,2 km/h (4 Bft) 100 %
07.12.2017 19:59 4,5 C 89 % 1006,0 hPa 0,0 l/m 12,3 km/h (3 Bft) W 263 2,8 C 22,0 km/h (4 Bft) 100 %
07.12.2017 20:00 4,6 C 89 % 1006,0 hPa 0,0 l/m 10,9 km/h (2 Bft) W-NW 297 2,9 C 28,2 km/h (4 Bft) 100 %
07.12.2017 20:01 4,6 C 89 % 1005,9 hPa 0,0 l/m 9,3 km/h (2 Bft) SW 222 2,9 C 31,4 km/h (5 Bft) 100 %
07.12.2017 20:02 4,6 C 89 % 1005,9 hPa 0,0 l/m 18,2 km/h (3 Bft) S-SW 212 2,9 C 40,8 km/h (6 Bft) 100 %
07.12.2017 20:03 4,6 C 89 % 1005,9 hPa 0,0 l/m 18,7 km/h (3 Bft) S-SW 195 2,9 C 43,9 km/h (6 Bft) 100 %
07.12.2017 20:04 4,6 C 89 % 1005,9 hPa 0,0 l/m 16,1 km/h (3 Bft) SW 226 2,9 C 28,2 km/h (4 Bft) 100 %
07.12.2017 20:05 4,6 C 89 % 1005,9 hPa 0,0 l/m 12,3 km/h (3 Bft) NW 319 2,9 C 28,2 km/h (4 Bft) 100 %
07.12.2017 20:06 4,6 C 89 % 1005,9 hPa 0,0 l/m 13,9 km/h (3 Bft) W-SW 245 2,9 C 40,8 km/h (6 Bft) 100 %
07.12.2017 20:07 4,6 C 89 % 1006,0 hPa 0,0 l/m 17,5 km/h (3 Bft) W-NW 297 2,9 C 50,2 km/h (7 Bft) 100 %
07.12.2017 20:08 4,6 C 89 % 1006,1 hPa 0,0 l/m 21,4 km/h (4 Bft) SW 218 2,9 C 31,4 km/h (5 Bft) 100 %
07.12.2017 20:09 4,6 C 89 % 1006,0 hPa 0,0 l/m 16,0 km/h (3 Bft) S-SW 206 2,9 C 28,2 km/h (4 Bft) 100 %
07.12.2017 20:10 4,6 C 89 % 1006,1 hPa 0,0 l/m 8,9 km/h (2 Bft) S-SW 207 2,9 C 28,2 km/h (4 Bft) 100 %
07.12.2017 20:11 4,7 C 89 % 1006,1 hPa 0,0 l/m 21,1 km/h (4 Bft) W 264 3,0 C 37,7 km/h (5 Bft) 100 %
07.12.2017 20:12 4,7 C 89 % 1006,0 hPa 0,0 l/m 15,7 km/h (3 Bft) SW 233 3,0 C 37,7 km/h (5 Bft) 100 %
07.12.2017 20:13 4,7 C 89 % 1006,0 hPa 0,0 l/m 10,1 km/h (2 Bft) SW 221 3,0 C 15,7 km/h (3 Bft) 100 %
07.12.2017 20:14 4,7 C 89 % 1006,1 hPa 0,0 l/m 17,2 km/h (3 Bft) W-NW 296 3,0 C 34,5 km/h (5 Bft) 100 %
07.12.2017 20:15 4,7 C 89 % 1006,0 hPa 0,0 l/m 16,9 km/h (3 Bft) SW 233 3,0 C 28,2 km/h (4 Bft) 100 %
07.12.2017 20:16 4,7 C 89 % 1006,0 hPa 0,0 l/m 23,1 km/h (4 Bft) W 271 3,0 C 50,2 km/h (7 Bft) 100 %
07.12.2017 20:17 4,7 C 89 % 1006,1 hPa 0,0 l/m 11,8 km/h (2 Bft) W-SW 250 3,0 C 25,1 km/h (4 Bft) 100 %
07.12.2017 20:18 4,7 C 89 % 1006,3 hPa 0,0 l/m 13,1 km/h (3 Bft) W-SW 248 3,0 C 37,7 km/h (5 Bft) 100 %
07.12.2017 20:19 4,7 C 89 % 1006,2 hPa 0,0 l/m 6,8 km/h (2 Bft) W-NW 284 3,0 C 12,6 km/h (3 Bft) 100 %
07.12.2017 20:20 4,7 C 89 % 1006,2 hPa 0,0 l/m 18,7 km/h (3 Bft) SW 221 3,0 C 43,9 km/h (6 Bft) 100 %
07.12.2017 20:21 4,7 C 89 % 1006,1 hPa 0,0 l/m 18,0 km/h (3 Bft) SW 233 3,0 C 43,9 km/h (6 Bft) 100 %
07.12.2017 20:22 4,7 C 89 % 1006,1 hPa 0,0 l/m 10,1 km/h (2 Bft) S-SW 212 3,0 C 28,2 km/h (4 Bft) 100 %
07.12.2017 20:23 4,7 C 89 % 1006,1 hPa 0,0 l/m 12,7 km/h (3 Bft) NW 311 3,0 C 18,8 km/h (3 Bft) 100 %
07.12.2017 20:24 4,7 C 89 % 1006,1 hPa 0,0 l/m 12,1 km/h (2 Bft) SO 134 3,0 C 18,8 km/h (3 Bft) 100 %
07.12.2017 20:25 4,7 C 90 % 1006,1 hPa 0,0 l/m 12,7 km/h (3 Bft) N-NW 341 3,2 C 31,4 km/h (5 Bft) 100 %
07.12.2017 20:26 4,7 C 90 % 1006,1 hPa 0,0 l/m 17,7 km/h (3 Bft) W-SW 251 3,2 C 34,5 km/h (5 Bft) 100 %
07.12.2017 20:27 4,8 C 90 % 1006,0 hPa 0,0 l/m 9,7 km/h (2 Bft) O-NO 60 3,3 C 28,2 km/h (4 Bft) 100 %
07.12.2017 20:28 4,8 C 90 % 1006,2 hPa 0,0 l/m 7,9 km/h (2 Bft) S-SO 167 3,3 C 34,5 km/h (5 Bft) 81 %
07.12.2017 20:29 4,7 C 90 % 1006,0 hPa 0,0 l/m 10,1 km/h (2 Bft) SO 132 3,2 C 22,0 km/h (4 Bft) 96 %
07.12.2017 20:30 4,7 C 90 % 1005,9 hPa 0,0 l/m 10,4 km/h (2 Bft) W-NW 295 3,2 C 34,5 km/h (5 Bft) 97 %
07.12.2017 20:31 4,7 C 91 % 1005,9 hPa 0,0 l/m 11,8 km/h (2 Bft) SW 225 3,4 C 25,1 km/h (4 Bft) 96 %
07.12.2017 20:32 4,7 C 91 % 1005,8 hPa 0,0 l/m 14,6 km/h (3 Bft) NW 314 3,4 C 34,5 km/h (5 Bft) 99 %
07.12.2017 20:33 4,7 C 91 % 1005,8 hPa 0,0 l/m 10,4 km/h (2 Bft) SW 224 3,4 C 22,0 km/h (4 Bft) 98 %
07.12.2017 20:34 4,7 C 91 % 1005,9 hPa 0,0 l/m 12,1 km/h (2 Bft) S 175 3,4 C 22,0 km/h (4 Bft) 92 %
07.12.2017 20:35 4,6 C 91 % 1005,8 hPa 0,0 l/m 8,6 km/h (2 Bft) W-SW 239 3,3 C 18,8 km/h (3 Bft) 83 %
07.12.2017 20:36 4,6 C 91 % 1005,8 hPa 0,0 l/m 7,1 km/h (2 Bft) SW 221 3,3 C 25,1 km/h (4 Bft) 78 %
07.12.2017 20:37 4,6 C 91 % 1005,8 hPa 0,0 l/m 10,7 km/h (2 Bft) W-SW 249 3,3 C 28,2 km/h (4 Bft) 80 %
07.12.2017 20:38 4,6 C 92 % 1005,8 hPa 0,0 l/m 13,9 km/h (3 Bft) O-NO 70 3,4 C 37,7 km/h (5 Bft) 100 %
07.12.2017 20:39 4,6 C 92 % 1005,8 hPa 0,0 l/m 15,0 km/h (3 Bft) W-NW 283 3,4 C 31,4 km/h (5 Bft) 100 %
07.12.2017 20:40 4,6 C 92 % 1005,7 hPa 0,0 l/m 11,6 km/h (2 Bft) W-SW 238 3,4 C 34,5 km/h (5 Bft) 92 %
07.12.2017 20:41 4,6 C 92 % 1005,7 hPa 0,0 l/m 21,0 km/h (4 Bft) SW 224 3,4 C 43,9 km/h (6 Bft) 96 %
07.12.2017 20:42 4,6 C 92 % 1005,8 hPa 0,0 l/m 17,0 km/h (3 Bft) N-NW 328 3,4 C 31,4 km/h (5 Bft) 100 %
07.12.2017 20:43 4,6 C 92 % 1005,7 hPa 0,0 l/m 8,6 km/h (2 Bft) S-SW 206 3,4 C 18,8 km/h (3 Bft) 96 %
07.12.2017 20:44 4,5 C 92 % 1005,8 hPa 0,0 l/m 13,8 km/h (3 Bft) S-SW 205 3,3 C 37,7 km/h (5 Bft) 96 %
07.12.2017 20:45 4,5 C 92 % 1005,7 hPa 0,0 l/m 15,5 km/h (3 Bft) SW 226 3,3 C 25,1 km/h (4 Bft) 96 %
07.12.2017 20:46 4,5 C 92 % 1005,7 hPa 0,0 l/m 16,2 km/h (3 Bft) S-SW 210 3,3 C 43,9 km/h (6 Bft) 100 %
07.12.2017 20:47 4,5 C 92 % 1005,5 hPa 0,0 l/m 11,3 km/h (2 Bft) O 92 3,3 C 25,1 km/h (4 Bft) 88 %
07.12.2017 20:48 4,5 C 92 % 1005,7 hPa 0,0 l/m 6,5 km/h (2 Bft) W-SW 240 3,3 C 18,8 km/h (3 Bft) 96 %
07.12.2017 20:49 4,5 C 92 % 1005,8 hPa 0,0 l/m 15,4 km/h (3 Bft) S-SO 155 3,3 C 34,5 km/h (5 Bft) 91 %
07.12.2017 20:50 4,5 C 92 % 1005,7 hPa 0,0 l/m 11,2 km/h (2 Bft) N-NW 343 3,3 C 22,0 km/h (4 Bft) 100 %
07.12.2017 20:51 4,5 C 92 % 1005,7 hPa 0,0 l/m 8,8 km/h (2 Bft) SW 231 3,3 C 22,0 km/h (4 Bft) 96 %
07.12.2017 20:52 4,5 C 92 % 1005,7 hPa 0,0 l/m 15,0 km/h (3 Bft) SO 139 3,3 C 34,5 km/h (5 Bft) 96 %
07.12.2017 20:53 4,5 C 92 % 1005,6 hPa 0,0 l/m 11,1 km/h (2 Bft) W 259 3,3 C 28,2 km/h (4 Bft) 100 %
07.12.2017 20:54 4,5 C 92 % 1005,6 hPa 0,0 l/m 7,6 km/h (2 Bft) W-NW 291 3,3 C 18,8 km/h (3 Bft) 96 %
07.12.2017 20:55 4,5 C 92 % 1005,6 hPa 0,0 l/m 8,6 km/h (2 Bft) SO 132 3,3 C 18,8 km/h (3 Bft) 100 %
07.12.2017 20:56 4,5 C 93 % 1005,5 hPa 0,0 l/m 11,8 km/h (2 Bft) W-SW 242 3,5 C 22,0 km/h (4 Bft) 96 %
07.12.2017 20:57 4,5 C 93 % 1005,6 hPa 0,0 l/m 11,1 km/h (2 Bft) W 266 3,5 C 18,8 km/h (3 Bft) 100 %
07.12.2017 20:58 4,5 C 93 % 1005,5 hPa 0,0 l/m 11,5 km/h (2 Bft) S-SO 149 3,5 C 28,2 km/h (4 Bft) 100 %
07.12.2017 20:59 4,5 C 93 % 1005,5 hPa 0,0 l/m 15,4 km/h (3 Bft) S 176 3,5 C 25,1 km/h (4 Bft) 96 %
07.12.2017 21:00 4,5 C 93 % 1005,5 hPa 0,0 l/m 5,4 km/h (1 Bft) S-SW 198 3,5 C 25,1 km/h (4 Bft) 100 %
07.12.2017 21:01 4,5 C 93 % 1005,5 hPa 0,0 l/m 13,2 km/h (3 Bft) S-SO 167 3,5 C 22,0 km/h (4 Bft) 83 %
07.12.2017 21:02 4,5 C 93 % 1005,6 hPa 0,0 l/m 16,6 km/h (3 Bft) SO 127 3,5 C 31,4 km/h (5 Bft) 79 %
07.12.2017 21:03 4,5 C 93 % 1005,4 hPa 0,0 l/m 8,7 km/h (2 Bft) W-SW 250 3,5 C 15,7 km/h (3 Bft) 71 %
07.12.2017 21:04 4,5 C 93 % 1005,5 hPa 0,2 l/m 12,4 km/h (3 Bft) W 269 3,5 C 28,2 km/h (4 Bft) 85 %
07.12.2017 21:05 4,4 C 93 % 1005,6 hPa 0,0 l/m 7,8 km/h (2 Bft) NW 314 3,4 C 18,8 km/h (3 Bft) 50 %
07.12.2017 21:06 4,5 C 93 % 1005,5 hPa 0,0 l/m 9,6 km/h (2 Bft) SW 217 3,5 C 22,0 km/h (4 Bft) 96 %
07.12.2017 21:07 4,4 C 93 % 1005,4 hPa 0,0 l/m 15,7 km/h (3 Bft) W-SW 248 3,4 C 37,7 km/h (5 Bft) 81 %
07.12.2017 21:08 4,4 C 93 % 1005,4 hPa 0,0 l/m 14,3 km/h (3 Bft) NO 41 3,4 C 25,1 km/h (4 Bft) 81 %
07.12.2017 21:09 4,4 C 93 % 1005,4 hPa 0,0 l/m 9,6 km/h (2 Bft) SW 234 3,4 C 22,0 km/h (4 Bft) 100 %
07.12.2017 21:10 4,4 C 93 % 1005,4 hPa 0,0 l/m 8,0 km/h (2 Bft) SW 231 3,4 C 25,1 km/h (4 Bft) 91 %
07.12.2017 21:11 4,4 C 93 % 1005,4 hPa 0,0 l/m 13,1 km/h (3 Bft) W-SW 253 3,4 C 43,9 km/h (6 Bft) 88 %
07.12.2017 21:12 4,4 C 93 % 1005,3 hPa 0,0 l/m 12,2 km/h (2 Bft) O 94 3,4 C 28,2 km/h (4 Bft) 86 %
07.12.2017 21:13 4,4 C 93 % 1005,3 hPa 0,0 l/m 8,6 km/h (2 Bft) W 260 3,4 C 15,7 km/h (3 Bft) 92 %
07.12.2017 21:14 4,4 C 93 % 1005,3 hPa 0,0 l/m 7,7 km/h (2 Bft) O-NO 71 3,4 C 12,6 km/h (3 Bft) 96 %
07.12.2017 21:15 4,4 C 93 % 1005,4 hPa 0,0 l/m 10,6 km/h (2 Bft) S-SW 209 3,4 C 22,0 km/h (4 Bft) 96 %
07.12.2017 21:16 4,4 C 93 % 1005,3 hPa 0,0 l/m 11,9 km/h (2 Bft) SW 233 3,4 C 28,2 km/h (4 Bft) 96 %
07.12.2017 21:17 4,4 C 93 % 1005,3 hPa 0,0 l/m 10,9 km/h (2 Bft) W 277 3,4 C 28,2 km/h (4 Bft) 88 %
07.12.2017 21:18 4,4 C 93 % 1005,3 hPa 0,0 l/m 11,8 km/h (2 Bft) NW 316 3,4 C 28,2 km/h (4 Bft) 88 %
07.12.2017 21:19 4,4 C 93 % 1005,3 hPa 0,0 l/m 7,8 km/h (2 Bft) W 268 3,4 C 12,6 km/h (3 Bft) 92 %
07.12.2017 21:20 4,5 C 93 % 1005,2 hPa 0,0 l/m 9,8 km/h (2 Bft) W 270 3,5 C 25,1 km/h (4 Bft) 98 %
07.12.2017 21:21 4,4 C 93 % 1005,2 hPa 0,0 l/m 7,5 km/h (2 Bft) NW 317 3,4 C 22,0 km/h (4 Bft) 90 %
07.12.2017 21:22 4,4 C 93 % 1005,2 hPa 0,0 l/m 6,4 km/h (2 Bft) W 262 3,4 C 40,8 km/h (6 Bft) 96 %
07.12.2017 21:23 4,4 C 93 % 1005,2 hPa 0,0 l/m 13,6 km/h (3 Bft) O-SO 104 3,4 C 28,2 km/h (4 Bft) 96 %
07.12.2017 21:24 4,4 C 93 % 1005,2 hPa 0,0 l/m 9,1 km/h (2 Bft) SO 136 3,4 C 22,0 km/h (4 Bft) 100 %
07.12.2017 21:25 4,4 C 93 % 1005,1 hPa 0,0 l/m 12,6 km/h (3 Bft) W-SW 253 3,4 C 25,1 km/h (4 Bft) 88 %
07.12.2017 21:26 4,4 C 93 % 1005,1 hPa 0,0 l/m 11,3 km/h (2 Bft) W 276 3,4 C 25,1 km/h (4 Bft) 92 %
07.12.2017 21:27 4,4 C 94 % 1005,2 hPa 0,0 l/m 12,7 km/h (3 Bft) S-SW 192 3,5 C 22,0 km/h (4 Bft) 86 %
07.12.2017 21:28 4,4 C 94 % 1005,1 hPa 0,0 l/m 7,2 km/h (2 Bft) S-SW 206 3,5 C 12,6 km/h (3 Bft) 93 %
07.12.2017 21:29 4,4 C 94 % 1005,1 hPa 0,0 l/m 14,0 km/h (3 Bft) S-SW 198 3,5 C 34,5 km/h (5 Bft) 96 %
07.12.2017 21:30 4,4 C 94 % 1005,1 hPa 0,2 l/m 16,1 km/h (3 Bft) S-SW 204 3,5 C 34,5 km/h (5 Bft) 96 %
07.12.2017 21:31 4,4 C 94 % 1005,2 hPa 0,0 l/m 17,4 km/h (3 Bft) W-SW 240 3,5 C 31,4 km/h (5 Bft) 88 %
07.12.2017 21:32 4,5 C 94 % 1005,1 hPa 0,0 l/m 17,8 km/h (3 Bft) W-SW 243 3,6 C 40,8 km/h (6 Bft) 83 %
07.12.2017 21:33 4,5 C 94 % 1005,2 hPa 0,0 l/m 14,3 km/h (3 Bft) SW 236 3,6 C 43,9 km/h (6 Bft) 85 %
07.12.2017 21:34 4,5 C 94 % 1005,2 hPa 0,0 l/m 9,3 km/h (2 Bft) W-SW 248 3,6 C 25,1 km/h (4 Bft) 88 %
07.12.2017 21:35 4,5 C 94 % 1005,0 hPa 0,0 l/m 11,0 km/h (2 Bft) S-SW 193 3,6 C 31,4 km/h (5 Bft) 92 %
07.12.2017 21:36 4,5 C 94 % 1005,0 hPa 0,0 l/m 10,7 km/h (2 Bft) O-NO 78 3,6 C 31,4 km/h (5 Bft) 100 %
07.12.2017 21:37 4,5 C 94 % 1005,0 hPa 0,0 l/m 6,6 km/h (2 Bft) SW 236 3,6 C 15,7 km/h (3 Bft) 100 %
07.12.2017 21:38 4,4 C 94 % 1005,1 hPa 0,0 l/m 19,6 km/h (3 Bft) S-SW 201 3,5 C 37,7 km/h (5 Bft) 96 %
07.12.2017 21:39 4,5 C 94 % 1005,1 hPa 0,0 l/m 9,4 km/h (2 Bft) O-SO 123 3,6 C 34,5 km/h (5 Bft) 92 %
07.12.2017 21:40 4,5 C 94 % 1005,2 hPa 0,0 l/m 8,8 km/h (2 Bft) W-SW 247 3,6 C 15,7 km/h (3 Bft) 100 %
07.12.2017 21:41 4,4 C 94 % 1005,2 hPa 0,0 l/m 14,6 km/h (3 Bft) W-SW 251 3,5 C 31,4 km/h (5 Bft) 96 %
07.12.2017 21:42 4,5 C 94 % 1005,2 hPa 0,0 l/m 12,7 km/h (3 Bft) W-SW 248 3,6 C 18,8 km/h (3 Bft) 88 %
07.12.2017 21:43 4,4 C 94 % 1005,2 hPa 0,0 l/m 16,0 km/h (3 Bft) S-SW 203 3,5 C 25,1 km/h (4 Bft) 100 %
07.12.2017 21:44 4,5 C 94 % 1005,2 hPa 0,0 l/m 15,4 km/h (3 Bft) SW 233 3,6 C 28,2 km/h (4 Bft) 96 %
07.12.2017 21:45 4,5 C 94 % 1005,2 hPa 0,2 l/m 11,9 km/h (2 Bft) W-SW 251 3,6 C 22,0 km/h (4 Bft) 100 %
07.12.2017 21:46 4,5 C 94 % 1005,2 hPa 0,0 l/m 11,5 km/h (2 Bft) N-NW 330 3,6 C 25,1 km/h (4 Bft) 74 %
07.12.2017 21:47 4,5 C 94 % 1005,1 hPa 0,0 l/m 9,2 km/h (2 Bft) W-SW 254 3,6 C 28,2 km/h (4 Bft) 75 %
07.12.2017 21:48 4,5 C 94 % 1005,1 hPa 0,0 l/m 16,1 km/h (3 Bft) W-SW 252 3,6 C 28,2 km/h (4 Bft) 100 %
07.12.2017 21:49 4,5 C 94 % 1005,1 hPa 0,0 l/m 9,7 km/h (2 Bft) S-SO 162 3,6 C 18,8 km/h (3 Bft) 100 %
07.12.2017 21:50 4,5 C 94 % 1005,1 hPa 0,0 l/m 10,7 km/h (2 Bft) W-SW 240 3,6 C 15,7 km/h (3 Bft) 100 %
07.12.2017 21:51 4,5 C 94 % 1005,1 hPa 0,2 l/m 11,8 km/h (2 Bft) SW 233 3,6 C 25,1 km/h (4 Bft) 100 %
07.12.2017 21:52 4,5 C 94 % 1005,1 hPa 0,0 l/m 14,7 km/h (3 Bft) W-SW 237 3,6 C 37,7 km/h (5 Bft) 100 %
07.12.2017 21:53 4,5 C 94 % 1005,1 hPa 0,0 l/m 9,9 km/h (2 Bft) N-NW 344 3,6 C 25,1 km/h (4 Bft) 96 %
07.12.2017 21:54 4,5 C 94 % 1005,0 hPa 0,0 l/m 5,9 km/h (2 Bft) NW 324 3,6 C 9,4 km/h (2 Bft) 100 %
07.12.2017 21:55 4,5 C 94 % 1005,0 hPa 0,0 l/m 7,6 km/h (2 Bft) SW 217 3,6 C 25,1 km/h (4 Bft) 100 %
07.12.2017 21:56 4,5 C 94 % 1005,1 hPa 0,0 l/m 12,7 km/h (3 Bft) N-NW 328 3,6 C 22,0 km/h (4 Bft) 100 %
07.12.2017 21:57 4,5 C 94 % 1005,1 hPa 0,2 l/m 8,1 km/h (2 Bft) S-SO 156 3,6 C 12,6 km/h (3 Bft) 100 %
07.12.2017 21:58 4,5 C 94 % 1005,0 hPa 0,0 l/m 3,1 km/h (1 Bft) SW 222 3,6 C 9,4 km/h (2 Bft) 92 %
07.12.2017 21:59 4,4 C 94 % 1005,0 hPa 0,0 l/m 9,7 km/h (2 Bft) W-SW 240 3,5 C 25,1 km/h (4 Bft) 100 %
07.12.2017 22:00 4,4 C 94 % 1005,0 hPa 0,0 l/m 9,2 km/h (2 Bft) W-NW 285 3,5 C 22,0 km/h (4 Bft) 100 %
07.12.2017 22:01 4,5 C 95 % 1004,9 hPa 0,0 l/m 14,9 km/h (3 Bft) W 262 3,8 C 40,8 km/h (6 Bft) 100 %
07.12.2017 22:02 4,5 C 95 % 1004,9 hPa 0,2 l/m 10,7 km/h (2 Bft) NW 326 3,8 C 25,1 km/h (4 Bft) 100 %
07.12.2017 22:03 4,5 C 95 % 1004,9 hPa 0,0 l/m 5,3 km/h (1 Bft) SO 130 3,8 C 9,4 km/h (2 Bft) 96 %
07.12.2017 22:04 4,4 C 95 % 1004,8 hPa 0,0 l/m 9,6 km/h (2 Bft) SO 136 3,7 C 15,7 km/h (3 Bft) 100 %
07.12.2017 22:05 4,5 C 95 % 1004,8 hPa 0,0 l/m 9,5 km/h (2 Bft) SW 214 3,8 C 22,0 km/h (4 Bft) 100 %
07.12.2017 22:06 4,4 C 95 % 1004,8 hPa 0,0 l/m 11,1 km/h (2 Bft) S-SW 201 3,7 C 22,0 km/h (4 Bft) 92 %
07.12.2017 22:07 4,5 C 95 % 1004,8 hPa 0,0 l/m 11,5 km/h (2 Bft) S-SO 150 3,8 C 25,1 km/h (4 Bft) 92 %
07.12.2017 22:08 4,4 C 95 % 1004,8 hPa 0,0 l/m 7,6 km/h (2 Bft) W 275 3,7 C 22,0 km/h (4 Bft) 100 %
07.12.2017 22:09 4,4 C 95 % 1004,7 hPa 0,0 l/m 4,6 km/h (1 Bft) W-SW 237 3,7 C 18,8 km/h (3 Bft) 100 %
07.12.2017 22:10 4,5 C 95 % 1004,7 hPa 0,0 l/m 11,6 km/h (2 Bft) S-SO 154 3,8 C 18,8 km/h (3 Bft) 100 %
07.12.2017 22:11 4,5 C 95 % 1004,7 hPa 0,0 l/m 9,2 km/h (2 Bft) W 265 3,8 C 25,1 km/h (4 Bft) 88 %
07.12.2017 22:12 4,5 C 95 % 1004,7 hPa 0,0 l/m 7,9 km/h (2 Bft) W 266 3,8 C 25,1 km/h (4 Bft) 96 %
07.12.2017 22:13 4,5 C 95 % 1004,7 hPa 0,2 l/m 7,1 km/h (2 Bft) SW 222 3,8 C 25,1 km/h (4 Bft) 100 %
07.12.2017 22:14 4,5 C 95 % 1004,7 hPa 0,0 l/m 12,0 km/h (2 Bft) S 184 3,8 C 34,5 km/h (5 Bft) 100 %
07.12.2017 22:15 4,5 C 95 % 1004,7 hPa 0,0 l/m 13,2 km/h (3 Bft) SW 217 3,8 C 25,1 km/h (4 Bft) 96 %
07.12.2017 22:16 4,5 C 95 % 1004,7 hPa 0,0 l/m 11,6 km/h (2 Bft) W-SW 254 3,8 C 22,0 km/h (4 Bft) 100 %
07.12.2017 22:17 4,5 C 95 % 1004,7 hPa 0,0 l/m 11,3 km/h (2 Bft) SW 235 3,8 C 25,1 km/h (4 Bft) 100 %
07.12.2017 22:18 4,5 C 95 % 1004,7 hPa 0,0 l/m 4,8 km/h (1 Bft) W-NW 298 3,8 C 15,7 km/h (3 Bft) 79 %
07.12.2017 22:19 4,5 C 95 % 1004,6 hPa 0,0 l/m 12,4 km/h (3 Bft) N 352 3,8 C 18,8 km/h (3 Bft) 92 %
07.12.2017 22:20 4,5 C 95 % 1004,6 hPa 0,0 l/m 9,4 km/h (2 Bft) W-SW 252 3,8 C 28,2 km/h (4 Bft) 96 %
07.12.2017 22:21 4,5 C 95 % 1004,6 hPa 0,0 l/m 6,3 km/h (2 Bft) W-NW 287 3,8 C 15,7 km/h (3 Bft) 96 %
07.12.2017 22:22 4,6 C 95 % 1004,6 hPa 0,0 l/m 7,3 km/h (2 Bft) S 172 3,9 C 18,8 km/h (3 Bft) 100 %
07.12.2017 22:23 4,5 C 95 % 1004,6 hPa 0,0 l/m 9,2 km/h (2 Bft) O-NO 64 3,8 C 15,7 km/h (3 Bft) 92 %
07.12.2017 22:24 4,6 C 95 % 1004,6 hPa 0,0 l/m 11,4 km/h (2 Bft) SW 236 3,9 C 22,0 km/h (4 Bft) 93 %
07.12.2017 22:25 4,5 C 95 % 1004,6 hPa 0,0 l/m 9,2 km/h (2 Bft) S 180 3,8 C 15,7 km/h (3 Bft) 100 %
07.12.2017 22:26 4,6 C 95 % 1004,6 hPa 0,0 l/m 11,4 km/h (2 Bft) W-NW 299 3,9 C 22,0 km/h (4 Bft) 93 %
07.12.2017 22:27 4,6 C 95 % 1004,6 hPa 0,0 l/m 9,8 km/h (2 Bft) S 169 3,9 C 18,8 km/h (3 Bft) 88 %
07.12.2017 22:28 4,6 C 95 % 1004,5 hPa 0,0 l/m 10,8 km/h (2 Bft) W-NW 302 3,9 C 34,5 km/h (5 Bft) 88 %
07.12.2017 22:29 4,6 C 95 % 1004,5 hPa 0,0 l/m 5,8 km/h (2 Bft) W-SW 246 3,9 C 22,0 km/h (4 Bft) 100 %
07.12.2017 22:30 4,6 C 95 % 1004,5 hPa 0,0 l/m 7,4 km/h (2 Bft) W 274 3,9 C 25,1 km/h (4 Bft) 100 %
07.12.2017 22:31 4,6 C 95 % 1004,5 hPa 0,0 l/m 8,9 km/h (2 Bft) SW 229 3,9 C 18,8 km/h (3 Bft) 100 %
07.12.2017 22:32 4,6 C 95 % 1004,4 hPa 0,0 l/m 13,0 km/h (3 Bft) W-NW 293 3,9 C 31,4 km/h (5 Bft) 100 %
07.12.2017 22:33 4,6 C 95 % 1004,5 hPa 0,0 l/m 7,1 km/h (2 Bft) W-SW 252 3,9 C 25,1 km/h (4 Bft) 100 %
07.12.2017 22:34 4,6 C 95 % 1004,4 hPa 0,0 l/m 11,7 km/h (2 Bft) S-SW 198 3,9 C 25,1 km/h (4 Bft) 100 %
07.12.2017 22:35 4,6 C 95 % 1004,4 hPa 0,0 l/m 13,5 km/h (3 Bft) O-NO 75 3,9 C 25,1 km/h (4 Bft) 100 %
07.12.2017 22:36 4,6 C 95 % 1004,4 hPa 0,0 l/m 6,6 km/h (2 Bft) W-NW 290 3,9 C 22,0 km/h (4 Bft) 100 %
07.12.2017 22:37 4,6 C 95 % 1004,4 hPa 0,0 l/m 7,3 km/h (2 Bft) W-SW 247 3,9 C 18,8 km/h (3 Bft) 100 %
07.12.2017 22:38 4,6 C 95 % 1004,4 hPa 0,0 l/m 7,7 km/h (2 Bft) W-SW 245 3,9 C 22,0 km/h (4 Bft) 100 %
07.12.2017 22:39 4,6 C 95 % 1004,4 hPa 0,0 l/m 9,4 km/h (2 Bft) S-SO 161 3,9 C 18,8 km/h (3 Bft) 100 %
07.12.2017 22:40 4,6 C 95 % 1004,4 hPa 0,0 l/m 8,6 km/h (2 Bft) S-SO 165 3,9 C 12,6 km/h (3 Bft) 100 %
07.12.2017 22:41 4,6 C 95 % 1004,4 hPa 0,0 l/m 9,3 km/h (2 Bft) W-SW 256 3,9 C 22,0 km/h (4 Bft) 100 %
07.12.2017 22:42 4,6 C 95 % 1004,4 hPa 0,0 l/m 7,5 km/h (2 Bft) O 101 3,9 C 25,1 km/h (4 Bft) 100 %
07.12.2017 22:43 4,6 C 95 % 1004,5 hPa 0,0 l/m 12,0 km/h (2 Bft) W-NW 294 3,9 C 18,8 km/h (3 Bft) 100 %
07.12.2017 22:44 4,7 C 95 % 1004,4 hPa 0,0 l/m 10,9 km/h (2 Bft) SW 229 4,0 C 15,7 km/h (3 Bft) 100 %
07.12.2017 22:45 4,7 C 95 % 1004,4 hPa 0,0 l/m 8,9 km/h (2 Bft) N-NW 348 4,0 C 15,7 km/h (3 Bft) 100 %
07.12.2017 22:46 4,7 C 95 % 1004,4 hPa 0,0 l/m 19,3 km/h (3 Bft) N-NO 24 4,0 C 43,9 km/h (6 Bft) 100 %
07.12.2017 22:47 4,7 C 95 % 1004,4 hPa 0,0 l/m 15,0 km/h (3 Bft) W-SW 240 4,0 C 22,0 km/h (4 Bft) 100 %
07.12.2017 22:48 4,7 C 95 % 1004,4 hPa 0,0 l/m 11,6 km/h (2 Bft) N 11 4,0 C 22,0 km/h (4 Bft) 100 %
07.12.2017 22:49 4,7 C 95 % 1004,4 hPa 0,0 l/m 12,6 km/h (3 Bft) SW 215 4,0 C 25,1 km/h (4 Bft) 100 %
07.12.2017 22:50 4,7 C 95 % 1004,4 hPa 0,0 l/m 7,6 km/h (2 Bft) W-SW 242 4,0 C 28,2 km/h (4 Bft) 100 %
07.12.2017 22:51 4,7 C 95 % 1004,5 hPa 0,0 l/m 5,7 km/h (1 Bft) W-NW 283 4,0 C 9,4 km/h (2 Bft) 100 %
07.12.2017 22:52 4,7 C 95 % 1004,4 hPa 0,0 l/m 6,8 km/h (2 Bft) N-NO 33 4,0 C 12,6 km/h (3 Bft) 100 %
07.12.2017 22:53 4,7 C 95 % 1004,4 hPa 0,0 l/m 13,6 km/h (3 Bft) W-NW 283 4,0 C 31,4 km/h (5 Bft) 100 %
07.12.2017 22:54 4,7 C 95 % 1004,4 hPa 0,0 l/m 7,7 km/h (2 Bft) S-SW 195 4,0 C 31,4 km/h (5 Bft) 100 %
07.12.2017 22:55 4,7 C 95 % 1004,5 hPa 0,0 l/m 9,1 km/h (2 Bft) W 264 4,0 C 22,0 km/h (4 Bft) 96 %
07.12.2017 22:56 4,7 C 95 % 1004,5 hPa 0,0 l/m 17,3 km/h (3 Bft) SW 217 4,0 C 28,2 km/h (4 Bft) 96 %
07.12.2017 22:57 4,7 C 95 % 1004,5 hPa 0,0 l/m 4,6 km/h (1 Bft) S-SW 210 4,0 C 12,6 km/h (3 Bft) 100 %
07.12.2017 22:58 4,7 C 95 % 1004,5 hPa 0,0 l/m 5,0 km/h (1 Bft) SW 229 4,0 C 15,7 km/h (3 Bft) 96 %
07.12.2017 22:59 4,7 C 95 % 1004,4 hPa 0,0 l/m 0,9 km/h (0 Bft) W-SW 243 4,0 C 6,3 km/h (2 Bft) 74 %
07.12.2017 23:00 4,7 C 95 % 1004,4 hPa 0,0 l/m 11,6 km/h (2 Bft) SW 224 4,0 C 31,4 km/h (5 Bft) 88 %
07.12.2017 23:01 4,7 C 95 % 1004,4 hPa 0,0 l/m 12,1 km/h (2 Bft) W 263 4,0 C 22,0 km/h (4 Bft) 92 %
07.12.2017 23:02 4,8 C 95 % 1004,5 hPa 0,0 l/m 9,4 km/h (2 Bft) NW 326 4,1 C 22,0 km/h (4 Bft) 97 %
07.12.2017 23:03 4,8 C 95 % 1004,5 hPa 0,0 l/m 3,9 km/h (1 Bft) SW 229 4,1 C 9,4 km/h (2 Bft) 100 %
07.12.2017 23:04 4,8 C 95 % 1004,5 hPa 0,0 l/m 7,6 km/h (2 Bft) W-SW 257 4,1 C 22,0 km/h (4 Bft) 100 %
07.12.2017 23:05 4,8 C 95 % 1004,5 hPa 0,0 l/m 12,7 km/h (3 Bft) W-SW 241 4,1 C 18,8 km/h (3 Bft) 100 %
07.12.2017 23:06 4,8 C 95 % 1004,5 hPa 0,0 l/m 6,1 km/h (2 Bft) S-SW 201 4,1 C 12,6 km/h (3 Bft) 100 %
07.12.2017 23:07 4,8 C 95 % 1004,5 hPa 0,0 l/m 3,3 km/h (1 Bft) N-NO 20 4,1 C 12,6 km/h (3 Bft) 100 %
07.12.2017 23:08 4,8 C 95 % 1004,4 hPa 0,0 l/m 6,4 km/h (2 Bft) W-NW 292 4,1 C 15,7 km/h (3 Bft) 100 %
07.12.2017 23:09 4,8 C 95 % 1004,5 hPa 0,0 l/m 11,5 km/h (2 Bft) SW 219 4,1 C 22,0 km/h (4 Bft) 100 %
07.12.2017 23:10 4,8 C 95 % 1004,5 hPa 0,0 l/m 12,1 km/h (2 Bft) W-SW 244 4,1 C 22,0 km/h (4 Bft) 100 %
07.12.2017 23:11 4,8 C 95 % 1004,5 hPa 0,0 l/m 9,6 km/h (2 Bft) SW 214 4,1 C 18,8 km/h (3 Bft) 100 %
07.12.2017 23:12 4,8 C 95 % 1004,5 hPa 0,0 l/m 8,0 km/h (2 Bft) S-SW 205 4,1 C 12,6 km/h (3 Bft) 100 %
07.12.2017 23:13 4,8 C 95 % 1004,5 hPa 0,0 l/m 7,1 km/h (2 Bft) W 275 4,1 C 15,7 km/h (3 Bft) 100 %
07.12.2017 23:14 4,8 C 95 % 1004,5 hPa 0,0 l/m 8,6 km/h (2 Bft) W-SW 245 4,1 C 18,8 km/h (3 Bft) 100 %
07.12.2017 23:15 4,8 C 95 % 1004,5 hPa 0,0 l/m 9,8 km/h (2 Bft) NW 304 4,1 C 15,7 km/h (3 Bft) 100 %
07.12.2017 23:16 4,8 C 95 % 1004,5 hPa 0,2 l/m 2,5 km/h (1 Bft) N-NW 330 4,1 C 6,3 km/h (2 Bft) 100 %
07.12.2017 23:17 4,7 C 95 % 1004,4 hPa 0,0 l/m 5,5 km/h (1 Bft) W-NW 300 4,0 C 9,4 km/h (2 Bft) 100 %
07.12.2017 23:18 4,7 C 95 % 1004,4 hPa 0,0 l/m 5,6 km/h (1 Bft) NW 319 4,0 C 15,7 km/h (3 Bft) 100 %
07.12.2017 23:19 4,7 C 95 % 1004,4 hPa 0,0 l/m 6,1 km/h (2 Bft) W-NW 302 4,0 C 22,0 km/h (4 Bft) 96 %
07.12.2017 23:20 4,7 C 95 % 1004,4 hPa 0,0 l/m 12,3 km/h (3 Bft) W 278 4,0 C 18,8 km/h (3 Bft) 87 %
07.12.2017 23:21 4,7 C 95 % 1004,5 hPa 0,0 l/m 8,6 km/h (2 Bft) W-SW 242 4,0 C 18,8 km/h (3 Bft) 100 %
07.12.2017 23:22 4,7 C 95 % 1004,5 hPa 0,0 l/m 4,4 km/h (1 Bft) W-NW 301 4,0 C 9,4 km/h (2 Bft) 92 %
07.12.2017 23:23 4,7 C 95 % 1004,5 hPa 0,0 l/m 4,7 km/h (1 Bft) SW 221 4,0 C 12,6 km/h (3 Bft) 96 %
07.12.2017 23:24 4,7 C 95 % 1004,5 hPa 0,0 l/m 10,5 km/h (2 Bft) W-NW 283 4,0 C 18,8 km/h (3 Bft) 89 %
07.12.2017 23:25 4,7 C 95 % 1004,4 hPa 0,0 l/m 8,5 km/h (2 Bft) S-SW 206 4,0 C 15,7 km/h (3 Bft) 78 %
07.12.2017 23:26 4,7 C 95 % 1004,5 hPa 0,0 l/m 6,0 km/h (2 Bft) W 263 4,0 C 9,4 km/h (2 Bft) 93 %
07.12.2017 23:27 4,7 C 95 % 1004,4 hPa 0,0 l/m 8,0 km/h (2 Bft) NW 324 4,0 C 18,8 km/h (3 Bft) 100 %
07.12.2017 23:28 4,7 C 95 % 1004,4 hPa 0,0 l/m 9,2 km/h (2 Bft) W 276 4,0 C 15,7 km/h (3 Bft) 93 %
07.12.2017 23:29 4,7 C 95 % 1004,5 hPa 0,0 l/m 8,8 km/h (2 Bft) SW 233 4,0 C 18,8 km/h (3 Bft) 100 %
07.12.2017 23:30 4,7 C 95 % 1004,5 hPa 0,0 l/m 10,2 km/h (2 Bft) NW 304 4,0 C 15,7 km/h (3 Bft) 96 %
07.12.2017 23:31 4,7 C 95 % 1004,5 hPa 0,0 l/m 7,7 km/h (2 Bft) N-NW 327 4,0 C 15,7 km/h (3 Bft) 92 %
07.12.2017 23:32 4,7 C 95 % 1004,5 hPa 0,0 l/m 3,8 km/h (1 Bft) W 275 4,0 C 6,3 km/h (2 Bft) 92 %
07.12.2017 23:33 4,7 C 95 % 1004,5 hPa 0,0 l/m 3,9 km/h (1 Bft) SW 229 4,0 C 9,4 km/h (2 Bft) 87 %
07.12.2017 23:34 4,7 C 95 % 1004,5 hPa 0,0 l/m 5,9 km/h (2 Bft) SW 229 4,0 C 12,6 km/h (3 Bft) 100 %
07.12.2017 23:35 4,7 C 95 % 1004,5 hPa 0,0 l/m 7,8 km/h (2 Bft) S 176 4,0 C 12,6 km/h (3 Bft) 100 %
07.12.2017 23:36 4,7 C 95 % 1004,4 hPa 0,0 l/m 4,4 km/h (1 Bft) O-SO 106 4,0 C 6,3 km/h (2 Bft) 92 %
07.12.2017 23:37 4,7 C 95 % 1004,5 hPa 0,0 l/m 2,7 km/h (1 Bft) S 190 4,0 C 9,4 km/h (2 Bft) 100 %
07.12.2017 23:38 4,7 C 95 % 1004,5 hPa 0,0 l/m 6,0 km/h (2 Bft) S-SW 206 4,0 C 15,7 km/h (3 Bft) 100 %
07.12.2017 23:39 4,7 C 96 % 1004,5 hPa 0,0 l/m 9,2 km/h (2 Bft) S-SW 195 4,1 C 18,8 km/h (3 Bft) 96 %
07.12.2017 23:40 4,7 C 96 % 1004,5 hPa 0,0 l/m 7,7 km/h (2 Bft) W-NW 302 4,1 C 15,7 km/h (3 Bft) 100 %
07.12.2017 23:41 4,7 C 96 % 1004,5 hPa 0,0 l/m 1,6 km/h (1 Bft) S-SO 160 4,1 C 9,4 km/h (2 Bft) 100 %
07.12.2017 23:42 4,7 C 96 % 1004,5 hPa 0,0 l/m 4,6 km/h (1 Bft) S-SW 195 4,1 C 9,4 km/h (2 Bft) 96 %
07.12.2017 23:43 4,7 C 96 % 1004,4 hPa 0,0 l/m 7,0 km/h (2 Bft) SW 224 4,1 C 15,7 km/h (3 Bft) 100 %
07.12.2017 23:44 4,7 C 96 % 1004,5 hPa 0,0 l/m 7,6 km/h (2 Bft) W-SW 256 4,1 C 15,7 km/h (3 Bft) 100 %
07.12.2017 23:45 4,7 C 96 % 1004,5 hPa 0,0 l/m 3,5 km/h (1 Bft) W 266 4,1 C 6,3 km/h (2 Bft) 96 %
07.12.2017 23:46 4,7 C 96 % 1004,5 hPa 0,0 l/m 7,8 km/h (2 Bft) SW 218 4,1 C 22,0 km/h (4 Bft) 100 %
07.12.2017 23:47 4,7 C 96 % 1004,4 hPa 0,0 l/m 9,5 km/h (2 Bft) N-NO 25 4,1 C 15,7 km/h (3 Bft) 96 %
07.12.2017 23:48 4,7 C 96 % 1004,4 hPa 0,0 l/m 5,2 km/h (1 Bft) O-SO 107 4,1 C 9,4 km/h (2 Bft) 81 %
07.12.2017 23:49 4,7 C 96 % 1004,4 hPa 0,2 l/m 3,1 km/h (1 Bft) W-SW 238 4,1 C 9,4 km/h (2 Bft) 92 %
07.12.2017 23:50 4,7 C 96 % 1004,4 hPa 0,0 l/m 6,4 km/h (2 Bft) SW 228 4,1 C 12,6 km/h (3 Bft) 96 %
07.12.2017 23:51 4,7 C 96 % 1004,4 hPa 0,0 l/m 2,4 km/h (1 Bft) SW 221 4,1 C 9,4 km/h (2 Bft) 100 %
07.12.2017 23:52 4,7 C 96 % 1004,4 hPa 0,0 l/m 2,2 km/h (1 Bft) S 186 4,1 C 6,3 km/h (2 Bft) 100 %
07.12.2017 23:53 4,7 C 96 % 1004,4 hPa 0,0 l/m 2,4 km/h (1 Bft) SW 220 4,1 C 9,4 km/h (2 Bft) 100 %
07.12.2017 23:54 4,7 C 96 % 1004,4 hPa 0,0 l/m 6,4 km/h (2 Bft) SW 225 4,1 C 18,8 km/h (3 Bft) 98 %
07.12.2017 23:55 4,7 C 96 % 1004,4 hPa 0,0 l/m 6,0 km/h (2 Bft) W-SW 251 4,1 C 12,6 km/h (3 Bft) 95 %
07.12.2017 23:56 4,7 C 96 % 1004,4 hPa 0,0 l/m 7,3 km/h (2 Bft) S 183 4,1 C 15,7 km/h (3 Bft) 100 %
07.12.2017 23:57 4,7 C 96 % 1004,4 hPa 0,0 l/m 0,9 km/h (0 Bft) W 262 4,1 C 3,1 km/h (1 Bft) 96 %
07.12.2017 23:58 4,7 C 96 % 1004,4 hPa 0,0 l/m 4,6 km/h (1 Bft) S-SW 202 4,1 C 15,7 km/h (3 Bft) 100 %
07.12.2017 23:59 4,7 C 96 % 1004,4 hPa 0,0 l/m 11,4 km/h (2 Bft) SW 220 4,1 C 28,2 km/h (4 Bft) 96 %
_ Min-Zeit 09:28 03:14 22:32 - 00:27 - - 11:20 00:27 21:05
Minimum _ 2,3 C 78 % 1004,4 hPa - 0,0 km/h (0 Bft) - - -0,2 C 0,0 km/h (0 Bft) 50 %
_ Max-Zeit 00:00 23:39 00:00 21:04 18:49 - - 23:39 18:49 00:00
Maximum _ 6,0 C 96 % 1024,0 hPa 0,2 l/m 26,5 km/h
S-SO (4 Bft)
- - 4,1 C 69,0 km/h
W-SW (8 Bft)
100 %
Durchschnitt _ 3,8 C 85 % 1014,2 hPa #1,8 l/m 8,4 km/h (2 Bft) SW - 1,5 C 19,5 km/h (3 Bft) 98 %